<?xml version="1.0" encoding="UTF-8" standalone="no" ?>
<gpx xmlns="http://www.topografix.com/GPX/1/1" xmlns:xsi="http://www.w3.org/2001/XMLSchema-instance" xsi:schemaLocation="http://www.topografix.com/GPX/1/1 http://www.topografix.com/GPX/1/1/gpx.xsd" version="1.1" creator="VisuGPX - https://www.visugpx.com">
  <metadata>
    <name>2017-01-04 - Breisach, Burkheim</name>
    <desc><![CDATA[2017-01-04 - Breisach, Burkheim - CvC - 23 participants - Guide : Daniel Meier]]></desc>
  </metadata>
  <trk>
    <name><![CDATA[JAN-04-17 16:19:12]]></name>
    <trkseg>
      <trkpt lat="48.10003" lon="7.60685">
        <ele>180.87</ele>
        <time>2017-01-04T08:20:39Z</time>
      </trkpt>
      <trkpt lat="48.10002" lon="7.60683">
        <ele>180.87</ele>
        <time>2017-01-04T08:23:51Z</time>
      </trkpt>
      <trkpt lat="48.09993" lon="7.60683">
        <ele>181.83</ele>
        <time>2017-01-04T08:24:02Z</time>
      </trkpt>
      <trkpt lat="48.09986" lon="7.60672">
        <ele>180.87</ele>
        <time>2017-01-04T08:24:12Z</time>
      </trkpt>
      <trkpt lat="48.09978" lon="7.60665">
        <ele>182.79</ele>
        <time>2017-01-04T08:24:23Z</time>
      </trkpt>
      <trkpt lat="48.0997" lon="7.60669">
        <ele>181.83</ele>
        <time>2017-01-04T08:24:45Z</time>
      </trkpt>
      <trkpt lat="48.09962" lon="7.60677">
        <ele>184.23</ele>
        <time>2017-01-04T08:24:54Z</time>
      </trkpt>
      <trkpt lat="48.09953" lon="7.60683">
        <ele>182.79</ele>
        <time>2017-01-04T08:25:02Z</time>
      </trkpt>
      <trkpt lat="48.09944" lon="7.60689">
        <ele>181.35</ele>
        <time>2017-01-04T08:25:10Z</time>
      </trkpt>
      <trkpt lat="48.09935" lon="7.60696">
        <ele>183.27</ele>
        <time>2017-01-04T08:25:18Z</time>
      </trkpt>
      <trkpt lat="48.09927" lon="7.60705">
        <ele>180.38</ele>
        <time>2017-01-04T08:25:26Z</time>
      </trkpt>
      <trkpt lat="48.09919" lon="7.60713">
        <ele>179.9</ele>
        <time>2017-01-04T08:25:34Z</time>
      </trkpt>
      <trkpt lat="48.09911" lon="7.6072">
        <ele>180.38</ele>
        <time>2017-01-04T08:25:41Z</time>
      </trkpt>
      <trkpt lat="48.09903" lon="7.60727">
        <ele>182.79</ele>
        <time>2017-01-04T08:25:48Z</time>
      </trkpt>
      <trkpt lat="48.09895" lon="7.60734">
        <ele>181.83</ele>
        <time>2017-01-04T08:25:55Z</time>
      </trkpt>
      <trkpt lat="48.09888" lon="7.60743">
        <ele>182.79</ele>
        <time>2017-01-04T08:26:02Z</time>
      </trkpt>
      <trkpt lat="48.0988" lon="7.60751">
        <ele>182.79</ele>
        <time>2017-01-04T08:26:09Z</time>
      </trkpt>
      <trkpt lat="48.09873" lon="7.60761">
        <ele>179.9</ele>
        <time>2017-01-04T08:26:16Z</time>
      </trkpt>
      <trkpt lat="48.09866" lon="7.6077">
        <ele>184.23</ele>
        <time>2017-01-04T08:26:25Z</time>
      </trkpt>
      <trkpt lat="48.09856" lon="7.60773">
        <ele>180.87</ele>
        <time>2017-01-04T08:26:33Z</time>
      </trkpt>
      <trkpt lat="48.09848" lon="7.6078">
        <ele>182.79</ele>
        <time>2017-01-04T08:26:43Z</time>
      </trkpt>
      <trkpt lat="48.09837" lon="7.60776">
        <ele>182.79</ele>
        <time>2017-01-04T08:26:53Z</time>
      </trkpt>
      <trkpt lat="48.09827" lon="7.60771">
        <ele>182.31</ele>
        <time>2017-01-04T08:27:02Z</time>
      </trkpt>
      <trkpt lat="48.09816" lon="7.60767">
        <ele>182.79</ele>
        <time>2017-01-04T08:27:13Z</time>
      </trkpt>
      <trkpt lat="48.09807" lon="7.60764">
        <ele>183.27</ele>
        <time>2017-01-04T08:27:23Z</time>
      </trkpt>
      <trkpt lat="48.09798" lon="7.60759">
        <ele>184.23</ele>
        <time>2017-01-04T08:27:33Z</time>
      </trkpt>
      <trkpt lat="48.09788" lon="7.60755">
        <ele>182.79</ele>
        <time>2017-01-04T08:27:42Z</time>
      </trkpt>
      <trkpt lat="48.09778" lon="7.60752">
        <ele>182.31</ele>
        <time>2017-01-04T08:27:50Z</time>
      </trkpt>
      <trkpt lat="48.09768" lon="7.60751">
        <ele>184.23</ele>
        <time>2017-01-04T08:27:58Z</time>
      </trkpt>
      <trkpt lat="48.09759" lon="7.60752">
        <ele>180.38</ele>
        <time>2017-01-04T08:28:07Z</time>
      </trkpt>
      <trkpt lat="48.09748" lon="7.60749">
        <ele>181.83</ele>
        <time>2017-01-04T08:28:17Z</time>
      </trkpt>
      <trkpt lat="48.09738" lon="7.60745">
        <ele>184.23</ele>
        <time>2017-01-04T08:28:26Z</time>
      </trkpt>
      <trkpt lat="48.09727" lon="7.60743">
        <ele>180.38</ele>
        <time>2017-01-04T08:28:35Z</time>
      </trkpt>
      <trkpt lat="48.09718" lon="7.60742">
        <ele>182.79</ele>
        <time>2017-01-04T08:28:43Z</time>
      </trkpt>
      <trkpt lat="48.09708" lon="7.60742">
        <ele>181.35</ele>
        <time>2017-01-04T08:28:51Z</time>
      </trkpt>
      <trkpt lat="48.09697" lon="7.60739">
        <ele>178.94</ele>
        <time>2017-01-04T08:28:59Z</time>
      </trkpt>
      <trkpt lat="48.09686" lon="7.60737">
        <ele>181.35</ele>
        <time>2017-01-04T08:29:08Z</time>
      </trkpt>
      <trkpt lat="48.09676" lon="7.60736">
        <ele>182.79</ele>
        <time>2017-01-04T08:29:16Z</time>
      </trkpt>
      <trkpt lat="48.09667" lon="7.60733">
        <ele>183.27</ele>
        <time>2017-01-04T08:29:24Z</time>
      </trkpt>
      <trkpt lat="48.09657" lon="7.60727">
        <ele>181.83</ele>
        <time>2017-01-04T08:29:32Z</time>
      </trkpt>
      <trkpt lat="48.09648" lon="7.6072">
        <ele>182.31</ele>
        <time>2017-01-04T08:29:40Z</time>
      </trkpt>
      <trkpt lat="48.09639" lon="7.60711">
        <ele>181.35</ele>
        <time>2017-01-04T08:29:48Z</time>
      </trkpt>
      <trkpt lat="48.0963" lon="7.60701">
        <ele>182.79</ele>
        <time>2017-01-04T08:29:57Z</time>
      </trkpt>
      <trkpt lat="48.09623" lon="7.60692">
        <ele>184.23</ele>
        <time>2017-01-04T08:30:05Z</time>
      </trkpt>
      <trkpt lat="48.09614" lon="7.60684">
        <ele>181.83</ele>
        <time>2017-01-04T08:30:14Z</time>
      </trkpt>
      <trkpt lat="48.09605" lon="7.60678">
        <ele>183.75</ele>
        <time>2017-01-04T08:30:27Z</time>
      </trkpt>
      <trkpt lat="48.09594" lon="7.60678">
        <ele>182.31</ele>
        <time>2017-01-04T08:30:36Z</time>
      </trkpt>
      <trkpt lat="48.09587" lon="7.60689">
        <ele>182.31</ele>
        <time>2017-01-04T08:30:45Z</time>
      </trkpt>
      <trkpt lat="48.09581" lon="7.607">
        <ele>182.79</ele>
        <time>2017-01-04T08:30:56Z</time>
      </trkpt>
      <trkpt lat="48.09574" lon="7.60711">
        <ele>184.23</ele>
        <time>2017-01-04T08:31:06Z</time>
      </trkpt>
      <trkpt lat="48.09566" lon="7.6072">
        <ele>183.75</ele>
        <time>2017-01-04T08:31:15Z</time>
      </trkpt>
      <trkpt lat="48.09558" lon="7.60729">
        <ele>183.27</ele>
        <time>2017-01-04T08:31:24Z</time>
      </trkpt>
      <trkpt lat="48.09552" lon="7.60739">
        <ele>185.67</ele>
        <time>2017-01-04T08:31:33Z</time>
      </trkpt>
      <trkpt lat="48.09545" lon="7.6075">
        <ele>185.67</ele>
        <time>2017-01-04T08:31:42Z</time>
      </trkpt>
      <trkpt lat="48.09538" lon="7.60761">
        <ele>186.63</ele>
        <time>2017-01-04T08:31:52Z</time>
      </trkpt>
      <trkpt lat="48.0953" lon="7.60776">
        <ele>187.11</ele>
        <time>2017-01-04T08:32:04Z</time>
      </trkpt>
      <trkpt lat="48.09522" lon="7.60785">
        <ele>189.04</ele>
        <time>2017-01-04T08:32:14Z</time>
      </trkpt>
      <trkpt lat="48.09515" lon="7.60797">
        <ele>189.04</ele>
        <time>2017-01-04T08:32:24Z</time>
      </trkpt>
      <trkpt lat="48.09508" lon="7.60805">
        <ele>188.08</ele>
        <time>2017-01-04T08:32:48Z</time>
      </trkpt>
      <trkpt lat="48.09504" lon="7.6079">
        <ele>190.48</ele>
        <time>2017-01-04T08:33:09Z</time>
      </trkpt>
      <trkpt lat="48.09496" lon="7.60771">
        <ele>189.52</ele>
        <time>2017-01-04T08:33:23Z</time>
      </trkpt>
      <trkpt lat="48.0949" lon="7.60754">
        <ele>190.96</ele>
        <time>2017-01-04T08:33:35Z</time>
      </trkpt>
      <trkpt lat="48.09486" lon="7.6074">
        <ele>193.36</ele>
        <time>2017-01-04T08:33:45Z</time>
      </trkpt>
      <trkpt lat="48.0948" lon="7.60725">
        <ele>193.36</ele>
        <time>2017-01-04T08:33:56Z</time>
      </trkpt>
      <trkpt lat="48.09474" lon="7.6071">
        <ele>191.92</ele>
        <time>2017-01-04T08:34:05Z</time>
      </trkpt>
      <trkpt lat="48.09468" lon="7.60698">
        <ele>192.4</ele>
        <time>2017-01-04T08:34:14Z</time>
      </trkpt>
      <trkpt lat="48.09462" lon="7.60686">
        <ele>192.4</ele>
        <time>2017-01-04T08:34:23Z</time>
      </trkpt>
      <trkpt lat="48.09456" lon="7.60674">
        <ele>192.88</ele>
        <time>2017-01-04T08:34:32Z</time>
      </trkpt>
      <trkpt lat="48.09447" lon="7.60665">
        <ele>192.4</ele>
        <time>2017-01-04T08:34:41Z</time>
      </trkpt>
      <trkpt lat="48.09441" lon="7.60653">
        <ele>194.32</ele>
        <time>2017-01-04T08:34:51Z</time>
      </trkpt>
      <trkpt lat="48.09431" lon="7.60653">
        <ele>194.32</ele>
        <time>2017-01-04T08:35:01Z</time>
      </trkpt>
      <trkpt lat="48.0942" lon="7.60652">
        <ele>196.25</ele>
        <time>2017-01-04T08:35:14Z</time>
      </trkpt>
      <trkpt lat="48.0941" lon="7.6065">
        <ele>197.69</ele>
        <time>2017-01-04T08:35:25Z</time>
      </trkpt>
      <trkpt lat="48.09399" lon="7.60653">
        <ele>196.73</ele>
        <time>2017-01-04T08:35:37Z</time>
      </trkpt>
      <trkpt lat="48.09389" lon="7.60654">
        <ele>197.69</ele>
        <time>2017-01-04T08:35:46Z</time>
      </trkpt>
      <trkpt lat="48.09379" lon="7.60656">
        <ele>200.57</ele>
        <time>2017-01-04T08:35:56Z</time>
      </trkpt>
      <trkpt lat="48.09369" lon="7.60659">
        <ele>199.13</ele>
        <time>2017-01-04T08:36:05Z</time>
      </trkpt>
      <trkpt lat="48.0936" lon="7.60661">
        <ele>199.13</ele>
        <time>2017-01-04T08:36:14Z</time>
      </trkpt>
      <trkpt lat="48.0935" lon="7.60665">
        <ele>198.65</ele>
        <time>2017-01-04T08:36:23Z</time>
      </trkpt>
      <trkpt lat="48.0934" lon="7.60671">
        <ele>199.61</ele>
        <time>2017-01-04T08:36:32Z</time>
      </trkpt>
      <trkpt lat="48.09332" lon="7.60677">
        <ele>199.61</ele>
        <time>2017-01-04T08:36:41Z</time>
      </trkpt>
      <trkpt lat="48.09325" lon="7.60686">
        <ele>199.61</ele>
        <time>2017-01-04T08:36:49Z</time>
      </trkpt>
      <trkpt lat="48.09319" lon="7.60697">
        <ele>199.61</ele>
        <time>2017-01-04T08:36:57Z</time>
      </trkpt>
      <trkpt lat="48.09311" lon="7.60702">
        <ele>199.61</ele>
        <time>2017-01-04T08:37:10Z</time>
      </trkpt>
      <trkpt lat="48.09298" lon="7.60702">
        <ele>200.09</ele>
        <time>2017-01-04T08:37:24Z</time>
      </trkpt>
      <trkpt lat="48.093" lon="7.60714">
        <ele>202.49</ele>
        <time>2017-01-04T08:37:38Z</time>
      </trkpt>
      <trkpt lat="48.09294" lon="7.60723">
        <ele>202.98</ele>
        <time>2017-01-04T08:37:49Z</time>
      </trkpt>
      <trkpt lat="48.09285" lon="7.6073">
        <ele>202.49</ele>
        <time>2017-01-04T08:37:57Z</time>
      </trkpt>
      <trkpt lat="48.09277" lon="7.60736">
        <ele>201.53</ele>
        <time>2017-01-04T08:38:05Z</time>
      </trkpt>
      <trkpt lat="48.09268" lon="7.60743">
        <ele>201.05</ele>
        <time>2017-01-04T08:38:13Z</time>
      </trkpt>
      <trkpt lat="48.0926" lon="7.60751">
        <ele>201.05</ele>
        <time>2017-01-04T08:38:21Z</time>
      </trkpt>
      <trkpt lat="48.09251" lon="7.60758">
        <ele>200.57</ele>
        <time>2017-01-04T08:38:29Z</time>
      </trkpt>
      <trkpt lat="48.09242" lon="7.60766">
        <ele>200.57</ele>
        <time>2017-01-04T08:38:37Z</time>
      </trkpt>
      <trkpt lat="48.09234" lon="7.60774">
        <ele>202.01</ele>
        <time>2017-01-04T08:38:45Z</time>
      </trkpt>
      <trkpt lat="48.09226" lon="7.60781">
        <ele>200.57</ele>
        <time>2017-01-04T08:38:53Z</time>
      </trkpt>
      <trkpt lat="48.09217" lon="7.60789">
        <ele>199.61</ele>
        <time>2017-01-04T08:39:02Z</time>
      </trkpt>
      <trkpt lat="48.09209" lon="7.60796">
        <ele>199.61</ele>
        <time>2017-01-04T08:39:10Z</time>
      </trkpt>
      <trkpt lat="48.09201" lon="7.60802">
        <ele>202.98</ele>
        <time>2017-01-04T08:39:18Z</time>
      </trkpt>
      <trkpt lat="48.09193" lon="7.60812">
        <ele>202.98</ele>
        <time>2017-01-04T08:39:26Z</time>
      </trkpt>
      <trkpt lat="48.09185" lon="7.60821">
        <ele>200.57</ele>
        <time>2017-01-04T08:39:35Z</time>
      </trkpt>
      <trkpt lat="48.09176" lon="7.60831">
        <ele>202.98</ele>
        <time>2017-01-04T08:39:43Z</time>
      </trkpt>
      <trkpt lat="48.09167" lon="7.60839">
        <ele>199.61</ele>
        <time>2017-01-04T08:39:51Z</time>
      </trkpt>
      <trkpt lat="48.0916" lon="7.60849">
        <ele>202.01</ele>
        <time>2017-01-04T08:39:59Z</time>
      </trkpt>
      <trkpt lat="48.09152" lon="7.60856">
        <ele>203.46</ele>
        <time>2017-01-04T08:40:07Z</time>
      </trkpt>
      <trkpt lat="48.09147" lon="7.60869">
        <ele>203.46</ele>
        <time>2017-01-04T08:40:15Z</time>
      </trkpt>
      <trkpt lat="48.09143" lon="7.60885">
        <ele>202.98</ele>
        <time>2017-01-04T08:40:23Z</time>
      </trkpt>
      <trkpt lat="48.0914" lon="7.60901">
        <ele>202.98</ele>
        <time>2017-01-04T08:40:32Z</time>
      </trkpt>
      <trkpt lat="48.09138" lon="7.60915">
        <ele>202.98</ele>
        <time>2017-01-04T08:40:41Z</time>
      </trkpt>
      <trkpt lat="48.09134" lon="7.6093">
        <ele>204.9</ele>
        <time>2017-01-04T08:40:50Z</time>
      </trkpt>
      <trkpt lat="48.0913" lon="7.60945">
        <ele>201.53</ele>
        <time>2017-01-04T08:40:59Z</time>
      </trkpt>
      <trkpt lat="48.09127" lon="7.60958">
        <ele>206.34</ele>
        <time>2017-01-04T08:41:12Z</time>
      </trkpt>
      <trkpt lat="48.09117" lon="7.60957">
        <ele>205.38</ele>
        <time>2017-01-04T08:41:25Z</time>
      </trkpt>
      <trkpt lat="48.09107" lon="7.60956">
        <ele>202.49</ele>
        <time>2017-01-04T08:41:34Z</time>
      </trkpt>
      <trkpt lat="48.09097" lon="7.60955">
        <ele>199.61</ele>
        <time>2017-01-04T08:41:45Z</time>
      </trkpt>
      <trkpt lat="48.09087" lon="7.60952">
        <ele>198.65</ele>
        <time>2017-01-04T08:41:55Z</time>
      </trkpt>
      <trkpt lat="48.09077" lon="7.60949">
        <ele>196.25</ele>
        <time>2017-01-04T08:42:04Z</time>
      </trkpt>
      <trkpt lat="48.09067" lon="7.60948">
        <ele>196.73</ele>
        <time>2017-01-04T08:42:13Z</time>
      </trkpt>
      <trkpt lat="48.09056" lon="7.6095">
        <ele>193.84</ele>
        <time>2017-01-04T08:42:23Z</time>
      </trkpt>
      <trkpt lat="48.09047" lon="7.60953">
        <ele>192.88</ele>
        <time>2017-01-04T08:42:32Z</time>
      </trkpt>
      <trkpt lat="48.09037" lon="7.60958">
        <ele>192.4</ele>
        <time>2017-01-04T08:42:42Z</time>
      </trkpt>
      <trkpt lat="48.09028" lon="7.60966">
        <ele>190.96</ele>
        <time>2017-01-04T08:42:52Z</time>
      </trkpt>
      <trkpt lat="48.09017" lon="7.60969">
        <ele>190.48</ele>
        <time>2017-01-04T08:43:03Z</time>
      </trkpt>
      <trkpt lat="48.09006" lon="7.60969">
        <ele>189.04</ele>
        <time>2017-01-04T08:43:12Z</time>
      </trkpt>
      <trkpt lat="48.08996" lon="7.60969">
        <ele>189.04</ele>
        <time>2017-01-04T08:43:21Z</time>
      </trkpt>
      <trkpt lat="48.08985" lon="7.6097">
        <ele>188.08</ele>
        <time>2017-01-04T08:43:30Z</time>
      </trkpt>
      <trkpt lat="48.08974" lon="7.6097">
        <ele>187.59</ele>
        <time>2017-01-04T08:43:38Z</time>
      </trkpt>
      <trkpt lat="48.08966" lon="7.60971">
        <ele>186.15</ele>
        <time>2017-01-04T08:43:49Z</time>
      </trkpt>
      <trkpt lat="48.08956" lon="7.6097">
        <ele>185.67</ele>
        <time>2017-01-04T08:44:03Z</time>
      </trkpt>
      <trkpt lat="48.0895" lon="7.6096">
        <ele>186.15</ele>
        <time>2017-01-04T08:44:12Z</time>
      </trkpt>
      <trkpt lat="48.0894" lon="7.60954">
        <ele>186.15</ele>
        <time>2017-01-04T08:44:20Z</time>
      </trkpt>
      <trkpt lat="48.08931" lon="7.60952">
        <ele>186.63</ele>
        <time>2017-01-04T08:44:28Z</time>
      </trkpt>
      <trkpt lat="48.08922" lon="7.60949">
        <ele>186.63</ele>
        <time>2017-01-04T08:44:36Z</time>
      </trkpt>
      <trkpt lat="48.08912" lon="7.60946">
        <ele>183.75</ele>
        <time>2017-01-04T08:44:44Z</time>
      </trkpt>
      <trkpt lat="48.08902" lon="7.60945">
        <ele>186.15</ele>
        <time>2017-01-04T08:44:52Z</time>
      </trkpt>
      <trkpt lat="48.08893" lon="7.60943">
        <ele>184.71</ele>
        <time>2017-01-04T08:45:01Z</time>
      </trkpt>
      <trkpt lat="48.08882" lon="7.6094">
        <ele>186.63</ele>
        <time>2017-01-04T08:45:11Z</time>
      </trkpt>
      <trkpt lat="48.08872" lon="7.60936">
        <ele>183.27</ele>
        <time>2017-01-04T08:45:19Z</time>
      </trkpt>
      <trkpt lat="48.08862" lon="7.60928">
        <ele>183.75</ele>
        <time>2017-01-04T08:45:27Z</time>
      </trkpt>
      <trkpt lat="48.08852" lon="7.60922">
        <ele>183.27</ele>
        <time>2017-01-04T08:45:36Z</time>
      </trkpt>
      <trkpt lat="48.08843" lon="7.60915">
        <ele>184.71</ele>
        <time>2017-01-04T08:45:44Z</time>
      </trkpt>
      <trkpt lat="48.08835" lon="7.6091">
        <ele>184.23</ele>
        <time>2017-01-04T08:45:52Z</time>
      </trkpt>
      <trkpt lat="48.08825" lon="7.60901">
        <ele>182.31</ele>
        <time>2017-01-04T08:46:00Z</time>
      </trkpt>
      <trkpt lat="48.08817" lon="7.60894">
        <ele>181.83</ele>
        <time>2017-01-04T08:46:08Z</time>
      </trkpt>
      <trkpt lat="48.08808" lon="7.60888">
        <ele>182.79</ele>
        <time>2017-01-04T08:46:16Z</time>
      </trkpt>
      <trkpt lat="48.08798" lon="7.60879">
        <ele>184.71</ele>
        <time>2017-01-04T08:46:25Z</time>
      </trkpt>
      <trkpt lat="48.0879" lon="7.60872">
        <ele>182.79</ele>
        <time>2017-01-04T08:46:34Z</time>
      </trkpt>
      <trkpt lat="48.08782" lon="7.60863">
        <ele>182.79</ele>
        <time>2017-01-04T08:46:43Z</time>
      </trkpt>
      <trkpt lat="48.08775" lon="7.60851">
        <ele>182.79</ele>
        <time>2017-01-04T08:46:52Z</time>
      </trkpt>
      <trkpt lat="48.08767" lon="7.60842">
        <ele>185.67</ele>
        <time>2017-01-04T08:47:01Z</time>
      </trkpt>
      <trkpt lat="48.08759" lon="7.60831">
        <ele>182.31</ele>
        <time>2017-01-04T08:47:09Z</time>
      </trkpt>
      <trkpt lat="48.08753" lon="7.60819">
        <ele>184.23</ele>
        <time>2017-01-04T08:47:18Z</time>
      </trkpt>
      <trkpt lat="48.08747" lon="7.60808">
        <ele>181.35</ele>
        <time>2017-01-04T08:47:27Z</time>
      </trkpt>
      <trkpt lat="48.08741" lon="7.60795">
        <ele>182.31</ele>
        <time>2017-01-04T08:47:36Z</time>
      </trkpt>
      <trkpt lat="48.08734" lon="7.60782">
        <ele>181.35</ele>
        <time>2017-01-04T08:47:44Z</time>
      </trkpt>
      <trkpt lat="48.08729" lon="7.6077">
        <ele>182.79</ele>
        <time>2017-01-04T08:47:52Z</time>
      </trkpt>
      <trkpt lat="48.08723" lon="7.60758">
        <ele>183.75</ele>
        <time>2017-01-04T08:48:01Z</time>
      </trkpt>
      <trkpt lat="48.08718" lon="7.60745">
        <ele>183.75</ele>
        <time>2017-01-04T08:48:09Z</time>
      </trkpt>
      <trkpt lat="48.08712" lon="7.60732">
        <ele>180.38</ele>
        <time>2017-01-04T08:48:18Z</time>
      </trkpt>
      <trkpt lat="48.08706" lon="7.6072">
        <ele>182.31</ele>
        <time>2017-01-04T08:48:26Z</time>
      </trkpt>
      <trkpt lat="48.08701" lon="7.60707">
        <ele>180.38</ele>
        <time>2017-01-04T08:48:34Z</time>
      </trkpt>
      <trkpt lat="48.08695" lon="7.60697">
        <ele>181.83</ele>
        <time>2017-01-04T08:48:42Z</time>
      </trkpt>
      <trkpt lat="48.08686" lon="7.60686">
        <ele>182.31</ele>
        <time>2017-01-04T08:48:50Z</time>
      </trkpt>
      <trkpt lat="48.08676" lon="7.60677">
        <ele>183.27</ele>
        <time>2017-01-04T08:48:59Z</time>
      </trkpt>
      <trkpt lat="48.08666" lon="7.60671">
        <ele>181.83</ele>
        <time>2017-01-04T08:49:08Z</time>
      </trkpt>
      <trkpt lat="48.08656" lon="7.60667">
        <ele>180.87</ele>
        <time>2017-01-04T08:49:16Z</time>
      </trkpt>
      <trkpt lat="48.08646" lon="7.60665">
        <ele>184.23</ele>
        <time>2017-01-04T08:49:25Z</time>
      </trkpt>
      <trkpt lat="48.08635" lon="7.60665">
        <ele>184.23</ele>
        <time>2017-01-04T08:49:34Z</time>
      </trkpt>
      <trkpt lat="48.08625" lon="7.60669">
        <ele>184.23</ele>
        <time>2017-01-04T08:49:42Z</time>
      </trkpt>
      <trkpt lat="48.08615" lon="7.60673">
        <ele>182.31</ele>
        <time>2017-01-04T08:49:50Z</time>
      </trkpt>
      <trkpt lat="48.08606" lon="7.60679">
        <ele>181.35</ele>
        <time>2017-01-04T08:49:58Z</time>
      </trkpt>
      <trkpt lat="48.086" lon="7.6069">
        <ele>184.71</ele>
        <time>2017-01-04T08:50:05Z</time>
      </trkpt>
      <trkpt lat="48.08595" lon="7.60702">
        <ele>180.38</ele>
        <time>2017-01-04T08:50:13Z</time>
      </trkpt>
      <trkpt lat="48.08592" lon="7.60717">
        <ele>183.27</ele>
        <time>2017-01-04T08:50:21Z</time>
      </trkpt>
      <trkpt lat="48.0859" lon="7.60732">
        <ele>184.71</ele>
        <time>2017-01-04T08:50:29Z</time>
      </trkpt>
      <trkpt lat="48.08588" lon="7.60748">
        <ele>184.23</ele>
        <time>2017-01-04T08:50:37Z</time>
      </trkpt>
      <trkpt lat="48.08585" lon="7.6076">
        <ele>180.87</ele>
        <time>2017-01-04T08:50:44Z</time>
      </trkpt>
      <trkpt lat="48.08582" lon="7.60774">
        <ele>180.87</ele>
        <time>2017-01-04T08:50:52Z</time>
      </trkpt>
      <trkpt lat="48.08579" lon="7.60788">
        <ele>181.35</ele>
        <time>2017-01-04T08:51:00Z</time>
      </trkpt>
      <trkpt lat="48.08576" lon="7.60801">
        <ele>182.31</ele>
        <time>2017-01-04T08:51:08Z</time>
      </trkpt>
      <trkpt lat="48.08572" lon="7.60813">
        <ele>184.71</ele>
        <time>2017-01-04T08:51:16Z</time>
      </trkpt>
      <trkpt lat="48.08567" lon="7.60826">
        <ele>182.79</ele>
        <time>2017-01-04T08:51:25Z</time>
      </trkpt>
      <trkpt lat="48.08559" lon="7.60836">
        <ele>181.83</ele>
        <time>2017-01-04T08:51:34Z</time>
      </trkpt>
      <trkpt lat="48.08551" lon="7.60841">
        <ele>182.31</ele>
        <time>2017-01-04T08:51:42Z</time>
      </trkpt>
      <trkpt lat="48.08544" lon="7.60851">
        <ele>183.75</ele>
        <time>2017-01-04T08:51:50Z</time>
      </trkpt>
      <trkpt lat="48.08536" lon="7.60862">
        <ele>184.23</ele>
        <time>2017-01-04T08:51:59Z</time>
      </trkpt>
      <trkpt lat="48.08529" lon="7.60872">
        <ele>184.71</ele>
        <time>2017-01-04T08:52:07Z</time>
      </trkpt>
      <trkpt lat="48.08522" lon="7.60884">
        <ele>184.71</ele>
        <time>2017-01-04T08:52:15Z</time>
      </trkpt>
      <trkpt lat="48.08515" lon="7.60895">
        <ele>181.83</ele>
        <time>2017-01-04T08:52:24Z</time>
      </trkpt>
      <trkpt lat="48.08509" lon="7.60907">
        <ele>183.75</ele>
        <time>2017-01-04T08:52:33Z</time>
      </trkpt>
      <trkpt lat="48.08502" lon="7.60916">
        <ele>182.79</ele>
        <time>2017-01-04T08:52:48Z</time>
      </trkpt>
      <trkpt lat="48.08491" lon="7.60918">
        <ele>181.83</ele>
        <time>2017-01-04T08:53:36Z</time>
      </trkpt>
      <trkpt lat="48.0848" lon="7.60909">
        <ele>183.27</ele>
        <time>2017-01-04T08:53:46Z</time>
      </trkpt>
      <trkpt lat="48.08472" lon="7.60902">
        <ele>181.35</ele>
        <time>2017-01-04T08:53:55Z</time>
      </trkpt>
      <trkpt lat="48.08463" lon="7.60894">
        <ele>182.79</ele>
        <time>2017-01-04T08:54:04Z</time>
      </trkpt>
      <trkpt lat="48.08455" lon="7.60883">
        <ele>181.83</ele>
        <time>2017-01-04T08:54:14Z</time>
      </trkpt>
      <trkpt lat="48.08446" lon="7.60874">
        <ele>183.27</ele>
        <time>2017-01-04T08:54:24Z</time>
      </trkpt>
      <trkpt lat="48.08437" lon="7.60867">
        <ele>181.83</ele>
        <time>2017-01-04T08:54:32Z</time>
      </trkpt>
      <trkpt lat="48.08429" lon="7.60856">
        <ele>181.83</ele>
        <time>2017-01-04T08:54:42Z</time>
      </trkpt>
      <trkpt lat="48.0842" lon="7.60849">
        <ele>183.75</ele>
        <time>2017-01-04T08:54:51Z</time>
      </trkpt>
      <trkpt lat="48.0841" lon="7.60842">
        <ele>185.67</ele>
        <time>2017-01-04T08:55:00Z</time>
      </trkpt>
      <trkpt lat="48.08401" lon="7.60834">
        <ele>184.71</ele>
        <time>2017-01-04T08:55:09Z</time>
      </trkpt>
      <trkpt lat="48.08392" lon="7.60827">
        <ele>182.31</ele>
        <time>2017-01-04T08:55:17Z</time>
      </trkpt>
      <trkpt lat="48.08384" lon="7.6082">
        <ele>183.27</ele>
        <time>2017-01-04T08:55:26Z</time>
      </trkpt>
      <trkpt lat="48.08375" lon="7.60813">
        <ele>182.31</ele>
        <time>2017-01-04T08:55:36Z</time>
      </trkpt>
      <trkpt lat="48.08368" lon="7.60808">
        <ele>182.31</ele>
        <time>2017-01-04T08:56:03Z</time>
      </trkpt>
      <trkpt lat="48.08358" lon="7.60801">
        <ele>181.83</ele>
        <time>2017-01-04T08:56:12Z</time>
      </trkpt>
      <trkpt lat="48.08348" lon="7.60793">
        <ele>182.79</ele>
        <time>2017-01-04T08:56:21Z</time>
      </trkpt>
      <trkpt lat="48.0834" lon="7.60786">
        <ele>180.87</ele>
        <time>2017-01-04T08:56:30Z</time>
      </trkpt>
      <trkpt lat="48.08331" lon="7.60779">
        <ele>182.79</ele>
        <time>2017-01-04T08:56:39Z</time>
      </trkpt>
      <trkpt lat="48.08322" lon="7.60774">
        <ele>181.83</ele>
        <time>2017-01-04T08:56:48Z</time>
      </trkpt>
      <trkpt lat="48.08313" lon="7.60766">
        <ele>184.23</ele>
        <time>2017-01-04T08:56:58Z</time>
      </trkpt>
      <trkpt lat="48.08303" lon="7.60758">
        <ele>181.83</ele>
        <time>2017-01-04T08:57:08Z</time>
      </trkpt>
      <trkpt lat="48.08295" lon="7.6075">
        <ele>181.35</ele>
        <time>2017-01-04T08:57:16Z</time>
      </trkpt>
      <trkpt lat="48.08286" lon="7.60743">
        <ele>182.31</ele>
        <time>2017-01-04T08:57:24Z</time>
      </trkpt>
      <trkpt lat="48.08277" lon="7.60746">
        <ele>181.35</ele>
        <time>2017-01-04T08:57:32Z</time>
      </trkpt>
      <trkpt lat="48.08271" lon="7.6076">
        <ele>180.87</ele>
        <time>2017-01-04T08:57:41Z</time>
      </trkpt>
      <trkpt lat="48.08266" lon="7.60772">
        <ele>182.79</ele>
        <time>2017-01-04T08:57:49Z</time>
      </trkpt>
      <trkpt lat="48.08261" lon="7.60786">
        <ele>181.83</ele>
        <time>2017-01-04T08:57:58Z</time>
      </trkpt>
      <trkpt lat="48.08258" lon="7.608">
        <ele>181.35</ele>
        <time>2017-01-04T08:58:08Z</time>
      </trkpt>
      <trkpt lat="48.08253" lon="7.60814">
        <ele>182.31</ele>
        <time>2017-01-04T08:58:18Z</time>
      </trkpt>
      <trkpt lat="48.08248" lon="7.60831">
        <ele>183.75</ele>
        <time>2017-01-04T08:58:28Z</time>
      </trkpt>
      <trkpt lat="48.08244" lon="7.60844">
        <ele>181.83</ele>
        <time>2017-01-04T08:58:36Z</time>
      </trkpt>
      <trkpt lat="48.08239" lon="7.60856">
        <ele>181.83</ele>
        <time>2017-01-04T08:58:44Z</time>
      </trkpt>
      <trkpt lat="48.08232" lon="7.60866">
        <ele>182.31</ele>
        <time>2017-01-04T08:58:52Z</time>
      </trkpt>
      <trkpt lat="48.08225" lon="7.60869">
        <ele>180.87</ele>
        <time>2017-01-04T08:59:01Z</time>
      </trkpt>
      <trkpt lat="48.08215" lon="7.60865">
        <ele>183.27</ele>
        <time>2017-01-04T08:59:11Z</time>
      </trkpt>
      <trkpt lat="48.08207" lon="7.60856">
        <ele>182.79</ele>
        <time>2017-01-04T08:59:19Z</time>
      </trkpt>
      <trkpt lat="48.082" lon="7.60846">
        <ele>185.19</ele>
        <time>2017-01-04T08:59:28Z</time>
      </trkpt>
      <trkpt lat="48.08192" lon="7.60838">
        <ele>181.83</ele>
        <time>2017-01-04T08:59:36Z</time>
      </trkpt>
      <trkpt lat="48.08184" lon="7.60828">
        <ele>183.27</ele>
        <time>2017-01-04T08:59:44Z</time>
      </trkpt>
      <trkpt lat="48.08176" lon="7.60819">
        <ele>185.19</ele>
        <time>2017-01-04T08:59:52Z</time>
      </trkpt>
      <trkpt lat="48.08168" lon="7.60811">
        <ele>181.35</ele>
        <time>2017-01-04T09:00:00Z</time>
      </trkpt>
      <trkpt lat="48.08159" lon="7.60803">
        <ele>184.23</ele>
        <time>2017-01-04T09:00:09Z</time>
      </trkpt>
      <trkpt lat="48.08148" lon="7.60796">
        <ele>182.31</ele>
        <time>2017-01-04T09:00:19Z</time>
      </trkpt>
      <trkpt lat="48.08138" lon="7.60789">
        <ele>183.75</ele>
        <time>2017-01-04T09:00:28Z</time>
      </trkpt>
      <trkpt lat="48.08127" lon="7.60784">
        <ele>184.23</ele>
        <time>2017-01-04T09:00:37Z</time>
      </trkpt>
      <trkpt lat="48.08118" lon="7.60778">
        <ele>184.23</ele>
        <time>2017-01-04T09:00:45Z</time>
      </trkpt>
      <trkpt lat="48.08108" lon="7.60773">
        <ele>181.83</ele>
        <time>2017-01-04T09:00:53Z</time>
      </trkpt>
      <trkpt lat="48.08099" lon="7.60768">
        <ele>184.23</ele>
        <time>2017-01-04T09:01:01Z</time>
      </trkpt>
      <trkpt lat="48.0809" lon="7.60763">
        <ele>182.79</ele>
        <time>2017-01-04T09:01:10Z</time>
      </trkpt>
      <trkpt lat="48.08079" lon="7.60758">
        <ele>184.71</ele>
        <time>2017-01-04T09:01:19Z</time>
      </trkpt>
      <trkpt lat="48.0807" lon="7.60753">
        <ele>181.83</ele>
        <time>2017-01-04T09:01:27Z</time>
      </trkpt>
      <trkpt lat="48.0806" lon="7.60748">
        <ele>183.27</ele>
        <time>2017-01-04T09:01:35Z</time>
      </trkpt>
      <trkpt lat="48.08051" lon="7.60743">
        <ele>184.71</ele>
        <time>2017-01-04T09:01:43Z</time>
      </trkpt>
      <trkpt lat="48.08042" lon="7.60737">
        <ele>184.71</ele>
        <time>2017-01-04T09:01:52Z</time>
      </trkpt>
      <trkpt lat="48.08033" lon="7.60729">
        <ele>182.79</ele>
        <time>2017-01-04T09:02:00Z</time>
      </trkpt>
      <trkpt lat="48.08024" lon="7.60724">
        <ele>182.31</ele>
        <time>2017-01-04T09:02:08Z</time>
      </trkpt>
      <trkpt lat="48.08014" lon="7.60716">
        <ele>182.79</ele>
        <time>2017-01-04T09:02:17Z</time>
      </trkpt>
      <trkpt lat="48.08005" lon="7.60708">
        <ele>184.23</ele>
        <time>2017-01-04T09:02:26Z</time>
      </trkpt>
      <trkpt lat="48.07995" lon="7.60698">
        <ele>181.35</ele>
        <time>2017-01-04T09:02:35Z</time>
      </trkpt>
      <trkpt lat="48.07985" lon="7.6069">
        <ele>181.83</ele>
        <time>2017-01-04T09:02:44Z</time>
      </trkpt>
      <trkpt lat="48.07976" lon="7.60681">
        <ele>180.87</ele>
        <time>2017-01-04T09:02:53Z</time>
      </trkpt>
      <trkpt lat="48.07967" lon="7.60675">
        <ele>181.83</ele>
        <time>2017-01-04T09:03:01Z</time>
      </trkpt>
      <trkpt lat="48.07958" lon="7.60667">
        <ele>182.31</ele>
        <time>2017-01-04T09:03:09Z</time>
      </trkpt>
      <trkpt lat="48.07949" lon="7.60659">
        <ele>180.87</ele>
        <time>2017-01-04T09:03:17Z</time>
      </trkpt>
      <trkpt lat="48.0794" lon="7.60652">
        <ele>184.23</ele>
        <time>2017-01-04T09:03:26Z</time>
      </trkpt>
      <trkpt lat="48.07931" lon="7.60643">
        <ele>181.83</ele>
        <time>2017-01-04T09:03:34Z</time>
      </trkpt>
      <trkpt lat="48.07922" lon="7.60637">
        <ele>183.27</ele>
        <time>2017-01-04T09:03:42Z</time>
      </trkpt>
      <trkpt lat="48.07915" lon="7.60627">
        <ele>182.31</ele>
        <time>2017-01-04T09:03:51Z</time>
      </trkpt>
      <trkpt lat="48.07907" lon="7.60619">
        <ele>184.71</ele>
        <time>2017-01-04T09:04:00Z</time>
      </trkpt>
      <trkpt lat="48.07897" lon="7.6061">
        <ele>183.27</ele>
        <time>2017-01-04T09:04:09Z</time>
      </trkpt>
      <trkpt lat="48.07889" lon="7.60602">
        <ele>182.79</ele>
        <time>2017-01-04T09:04:17Z</time>
      </trkpt>
      <trkpt lat="48.0788" lon="7.60595">
        <ele>184.71</ele>
        <time>2017-01-04T09:04:25Z</time>
      </trkpt>
      <trkpt lat="48.07873" lon="7.60589">
        <ele>183.27</ele>
        <time>2017-01-04T09:04:35Z</time>
      </trkpt>
      <trkpt lat="48.07879" lon="7.60602">
        <ele>183.75</ele>
        <time>2017-01-04T09:04:44Z</time>
      </trkpt>
      <trkpt lat="48.07882" lon="7.60617">
        <ele>182.79</ele>
        <time>2017-01-04T09:04:52Z</time>
      </trkpt>
      <trkpt lat="48.0788" lon="7.60633">
        <ele>182.31</ele>
        <time>2017-01-04T09:05:02Z</time>
      </trkpt>
      <trkpt lat="48.07878" lon="7.60648">
        <ele>181.35</ele>
        <time>2017-01-04T09:05:30Z</time>
      </trkpt>
      <trkpt lat="48.07888" lon="7.60654">
        <ele>182.79</ele>
        <time>2017-01-04T09:05:42Z</time>
      </trkpt>
      <trkpt lat="48.079" lon="7.60657">
        <ele>182.31</ele>
        <time>2017-01-04T09:05:57Z</time>
      </trkpt>
      <trkpt lat="48.07908" lon="7.60656">
        <ele>183.27</ele>
        <time>2017-01-04T09:06:26Z</time>
      </trkpt>
      <trkpt lat="48.0791" lon="7.60669">
        <ele>181.83</ele>
        <time>2017-01-04T09:07:30Z</time>
      </trkpt>
      <trkpt lat="48.07914" lon="7.60671">
        <ele>183.27</ele>
        <time>2017-01-04T09:09:38Z</time>
      </trkpt>
      <trkpt lat="48.07912" lon="7.60668">
        <ele>183.75</ele>
        <time>2017-01-04T09:13:05Z</time>
      </trkpt>
      <trkpt lat="48.07914" lon="7.60667">
        <ele>186.15</ele>
        <time>2017-01-04T09:17:21Z</time>
      </trkpt>
      <trkpt lat="48.07915" lon="7.60667">
        <ele>187.59</ele>
        <time>2017-01-04T09:18:24Z</time>
      </trkpt>
      <trkpt lat="48.07914" lon="7.60655">
        <ele>186.15</ele>
        <time>2017-01-04T09:19:30Z</time>
      </trkpt>
      <trkpt lat="48.07916" lon="7.60643">
        <ele>188.56</ele>
        <time>2017-01-04T09:19:57Z</time>
      </trkpt>
      <trkpt lat="48.07926" lon="7.60645">
        <ele>187.11</ele>
        <time>2017-01-04T09:20:09Z</time>
      </trkpt>
      <trkpt lat="48.07918" lon="7.60633">
        <ele>187.59</ele>
        <time>2017-01-04T09:20:17Z</time>
      </trkpt>
      <trkpt lat="48.07907" lon="7.6062">
        <ele>186.63</ele>
        <time>2017-01-04T09:20:26Z</time>
      </trkpt>
      <trkpt lat="48.07897" lon="7.60611">
        <ele>185.67</ele>
        <time>2017-01-04T09:20:35Z</time>
      </trkpt>
      <trkpt lat="48.07887" lon="7.60613">
        <ele>187.11</ele>
        <time>2017-01-04T09:20:43Z</time>
      </trkpt>
      <trkpt lat="48.0788" lon="7.60625">
        <ele>185.67</ele>
        <time>2017-01-04T09:20:51Z</time>
      </trkpt>
      <trkpt lat="48.07878" lon="7.6064">
        <ele>186.63</ele>
        <time>2017-01-04T09:20:59Z</time>
      </trkpt>
      <trkpt lat="48.07875" lon="7.60654">
        <ele>186.15</ele>
        <time>2017-01-04T09:21:07Z</time>
      </trkpt>
      <trkpt lat="48.07872" lon="7.60669">
        <ele>186.63</ele>
        <time>2017-01-04T09:21:17Z</time>
      </trkpt>
      <trkpt lat="48.07868" lon="7.60683">
        <ele>186.15</ele>
        <time>2017-01-04T09:21:26Z</time>
      </trkpt>
      <trkpt lat="48.07865" lon="7.60696">
        <ele>186.63</ele>
        <time>2017-01-04T09:21:35Z</time>
      </trkpt>
      <trkpt lat="48.07862" lon="7.6071">
        <ele>185.67</ele>
        <time>2017-01-04T09:21:44Z</time>
      </trkpt>
      <trkpt lat="48.07858" lon="7.60727">
        <ele>184.71</ele>
        <time>2017-01-04T09:21:54Z</time>
      </trkpt>
      <trkpt lat="48.07854" lon="7.60741">
        <ele>188.08</ele>
        <time>2017-01-04T09:22:03Z</time>
      </trkpt>
      <trkpt lat="48.07851" lon="7.60756">
        <ele>188.56</ele>
        <time>2017-01-04T09:22:12Z</time>
      </trkpt>
      <trkpt lat="48.07847" lon="7.6077">
        <ele>187.11</ele>
        <time>2017-01-04T09:22:21Z</time>
      </trkpt>
      <trkpt lat="48.07842" lon="7.60784">
        <ele>187.11</ele>
        <time>2017-01-04T09:22:31Z</time>
      </trkpt>
      <trkpt lat="48.07833" lon="7.60788">
        <ele>187.11</ele>
        <time>2017-01-04T09:22:41Z</time>
      </trkpt>
      <trkpt lat="48.0782" lon="7.60785">
        <ele>188.56</ele>
        <time>2017-01-04T09:22:52Z</time>
      </trkpt>
      <trkpt lat="48.07809" lon="7.60783">
        <ele>189.04</ele>
        <time>2017-01-04T09:23:02Z</time>
      </trkpt>
      <trkpt lat="48.07797" lon="7.60778">
        <ele>188.08</ele>
        <time>2017-01-04T09:23:12Z</time>
      </trkpt>
      <trkpt lat="48.07785" lon="7.60774">
        <ele>185.67</ele>
        <time>2017-01-04T09:23:21Z</time>
      </trkpt>
      <trkpt lat="48.07775" lon="7.60771">
        <ele>186.63</ele>
        <time>2017-01-04T09:23:29Z</time>
      </trkpt>
      <trkpt lat="48.07765" lon="7.60769">
        <ele>186.15</ele>
        <time>2017-01-04T09:23:38Z</time>
      </trkpt>
      <trkpt lat="48.07755" lon="7.60767">
        <ele>184.23</ele>
        <time>2017-01-04T09:23:46Z</time>
      </trkpt>
      <trkpt lat="48.07745" lon="7.60766">
        <ele>190</ele>
        <time>2017-01-04T09:23:53Z</time>
      </trkpt>
      <trkpt lat="48.07737" lon="7.60764">
        <ele>188.08</ele>
        <time>2017-01-04T09:24:01Z</time>
      </trkpt>
      <trkpt lat="48.07727" lon="7.60762">
        <ele>188.08</ele>
        <time>2017-01-04T09:24:09Z</time>
      </trkpt>
      <trkpt lat="48.07717" lon="7.6076">
        <ele>186.63</ele>
        <time>2017-01-04T09:24:17Z</time>
      </trkpt>
      <trkpt lat="48.07708" lon="7.60758">
        <ele>188.56</ele>
        <time>2017-01-04T09:24:25Z</time>
      </trkpt>
      <trkpt lat="48.07698" lon="7.60755">
        <ele>188.08</ele>
        <time>2017-01-04T09:24:34Z</time>
      </trkpt>
      <trkpt lat="48.07689" lon="7.60751">
        <ele>188.56</ele>
        <time>2017-01-04T09:24:46Z</time>
      </trkpt>
      <trkpt lat="48.07678" lon="7.60749">
        <ele>188.08</ele>
        <time>2017-01-04T09:24:55Z</time>
      </trkpt>
      <trkpt lat="48.07669" lon="7.60746">
        <ele>187.11</ele>
        <time>2017-01-04T09:25:03Z</time>
      </trkpt>
      <trkpt lat="48.07659" lon="7.60744">
        <ele>187.11</ele>
        <time>2017-01-04T09:25:11Z</time>
      </trkpt>
      <trkpt lat="48.07649" lon="7.60742">
        <ele>185.67</ele>
        <time>2017-01-04T09:25:20Z</time>
      </trkpt>
      <trkpt lat="48.07639" lon="7.6074">
        <ele>187.11</ele>
        <time>2017-01-04T09:25:29Z</time>
      </trkpt>
      <trkpt lat="48.07628" lon="7.60737">
        <ele>187.59</ele>
        <time>2017-01-04T09:25:38Z</time>
      </trkpt>
      <trkpt lat="48.07619" lon="7.60735">
        <ele>187.11</ele>
        <time>2017-01-04T09:25:46Z</time>
      </trkpt>
      <trkpt lat="48.07608" lon="7.60733">
        <ele>187.11</ele>
        <time>2017-01-04T09:25:54Z</time>
      </trkpt>
      <trkpt lat="48.07598" lon="7.6073">
        <ele>186.15</ele>
        <time>2017-01-04T09:26:02Z</time>
      </trkpt>
      <trkpt lat="48.07588" lon="7.60727">
        <ele>183.75</ele>
        <time>2017-01-04T09:26:11Z</time>
      </trkpt>
      <trkpt lat="48.07578" lon="7.60725">
        <ele>187.59</ele>
        <time>2017-01-04T09:26:19Z</time>
      </trkpt>
      <trkpt lat="48.07567" lon="7.60723">
        <ele>187.11</ele>
        <time>2017-01-04T09:26:27Z</time>
      </trkpt>
      <trkpt lat="48.07558" lon="7.6072">
        <ele>185.67</ele>
        <time>2017-01-04T09:26:35Z</time>
      </trkpt>
      <trkpt lat="48.07548" lon="7.60718">
        <ele>184.71</ele>
        <time>2017-01-04T09:26:43Z</time>
      </trkpt>
      <trkpt lat="48.07538" lon="7.60715">
        <ele>185.19</ele>
        <time>2017-01-04T09:26:51Z</time>
      </trkpt>
      <trkpt lat="48.07528" lon="7.60712">
        <ele>186.63</ele>
        <time>2017-01-04T09:26:59Z</time>
      </trkpt>
      <trkpt lat="48.0752" lon="7.60708">
        <ele>188.08</ele>
        <time>2017-01-04T09:27:07Z</time>
      </trkpt>
      <trkpt lat="48.07509" lon="7.60706">
        <ele>186.15</ele>
        <time>2017-01-04T09:27:15Z</time>
      </trkpt>
      <trkpt lat="48.075" lon="7.60703">
        <ele>184.71</ele>
        <time>2017-01-04T09:27:23Z</time>
      </trkpt>
      <trkpt lat="48.07491" lon="7.60703">
        <ele>185.67</ele>
        <time>2017-01-04T09:27:31Z</time>
      </trkpt>
      <trkpt lat="48.07481" lon="7.60699">
        <ele>188.56</ele>
        <time>2017-01-04T09:27:40Z</time>
      </trkpt>
      <trkpt lat="48.07471" lon="7.60699">
        <ele>188.08</ele>
        <time>2017-01-04T09:27:48Z</time>
      </trkpt>
      <trkpt lat="48.07462" lon="7.60696">
        <ele>186.15</ele>
        <time>2017-01-04T09:27:56Z</time>
      </trkpt>
      <trkpt lat="48.07453" lon="7.60694">
        <ele>186.63</ele>
        <time>2017-01-04T09:28:04Z</time>
      </trkpt>
      <trkpt lat="48.07443" lon="7.60691">
        <ele>187.11</ele>
        <time>2017-01-04T09:28:13Z</time>
      </trkpt>
      <trkpt lat="48.07433" lon="7.60688">
        <ele>185.67</ele>
        <time>2017-01-04T09:28:21Z</time>
      </trkpt>
      <trkpt lat="48.07424" lon="7.60686">
        <ele>186.15</ele>
        <time>2017-01-04T09:28:29Z</time>
      </trkpt>
      <trkpt lat="48.07414" lon="7.60683">
        <ele>187.59</ele>
        <time>2017-01-04T09:28:37Z</time>
      </trkpt>
      <trkpt lat="48.07404" lon="7.6068">
        <ele>188.56</ele>
        <time>2017-01-04T09:28:46Z</time>
      </trkpt>
      <trkpt lat="48.07393" lon="7.60679">
        <ele>188.08</ele>
        <time>2017-01-04T09:28:55Z</time>
      </trkpt>
      <trkpt lat="48.07383" lon="7.60675">
        <ele>185.67</ele>
        <time>2017-01-04T09:29:04Z</time>
      </trkpt>
      <trkpt lat="48.07373" lon="7.60672">
        <ele>190</ele>
        <time>2017-01-04T09:29:13Z</time>
      </trkpt>
      <trkpt lat="48.07363" lon="7.60669">
        <ele>189.04</ele>
        <time>2017-01-04T09:29:21Z</time>
      </trkpt>
      <trkpt lat="48.07353" lon="7.60667">
        <ele>187.59</ele>
        <time>2017-01-04T09:29:31Z</time>
      </trkpt>
      <trkpt lat="48.07342" lon="7.60665">
        <ele>187.59</ele>
        <time>2017-01-04T09:29:40Z</time>
      </trkpt>
      <trkpt lat="48.07331" lon="7.60661">
        <ele>189.04</ele>
        <time>2017-01-04T09:29:49Z</time>
      </trkpt>
      <trkpt lat="48.07322" lon="7.6066">
        <ele>190</ele>
        <time>2017-01-04T09:29:57Z</time>
      </trkpt>
      <trkpt lat="48.07311" lon="7.60656">
        <ele>186.63</ele>
        <time>2017-01-04T09:30:06Z</time>
      </trkpt>
      <trkpt lat="48.07301" lon="7.60656">
        <ele>187.11</ele>
        <time>2017-01-04T09:30:14Z</time>
      </trkpt>
      <trkpt lat="48.07291" lon="7.60652">
        <ele>188.08</ele>
        <time>2017-01-04T09:30:23Z</time>
      </trkpt>
      <trkpt lat="48.07281" lon="7.60651">
        <ele>189.04</ele>
        <time>2017-01-04T09:30:32Z</time>
      </trkpt>
      <trkpt lat="48.07271" lon="7.60649">
        <ele>189.04</ele>
        <time>2017-01-04T09:30:41Z</time>
      </trkpt>
      <trkpt lat="48.07261" lon="7.60648">
        <ele>187.11</ele>
        <time>2017-01-04T09:30:50Z</time>
      </trkpt>
      <trkpt lat="48.07251" lon="7.60646">
        <ele>189.52</ele>
        <time>2017-01-04T09:30:59Z</time>
      </trkpt>
      <trkpt lat="48.07241" lon="7.60647">
        <ele>188.08</ele>
        <time>2017-01-04T09:31:08Z</time>
      </trkpt>
      <trkpt lat="48.07232" lon="7.60646">
        <ele>190</ele>
        <time>2017-01-04T09:31:28Z</time>
      </trkpt>
      <trkpt lat="48.07222" lon="7.60645">
        <ele>188.56</ele>
        <time>2017-01-04T09:31:36Z</time>
      </trkpt>
      <trkpt lat="48.07213" lon="7.60645">
        <ele>187.11</ele>
        <time>2017-01-04T09:31:44Z</time>
      </trkpt>
      <trkpt lat="48.07203" lon="7.60644">
        <ele>187.59</ele>
        <time>2017-01-04T09:31:52Z</time>
      </trkpt>
      <trkpt lat="48.07193" lon="7.60643">
        <ele>190</ele>
        <time>2017-01-04T09:32:00Z</time>
      </trkpt>
      <trkpt lat="48.07182" lon="7.60643">
        <ele>190</ele>
        <time>2017-01-04T09:32:08Z</time>
      </trkpt>
      <trkpt lat="48.07172" lon="7.60642">
        <ele>190.48</ele>
        <time>2017-01-04T09:32:16Z</time>
      </trkpt>
      <trkpt lat="48.07162" lon="7.60643">
        <ele>187.11</ele>
        <time>2017-01-04T09:32:25Z</time>
      </trkpt>
      <trkpt lat="48.07152" lon="7.60642">
        <ele>187.11</ele>
        <time>2017-01-04T09:32:33Z</time>
      </trkpt>
      <trkpt lat="48.07142" lon="7.60642">
        <ele>187.59</ele>
        <time>2017-01-04T09:32:41Z</time>
      </trkpt>
      <trkpt lat="48.07132" lon="7.60643">
        <ele>188.08</ele>
        <time>2017-01-04T09:32:49Z</time>
      </trkpt>
      <trkpt lat="48.07121" lon="7.60643">
        <ele>189.04</ele>
        <time>2017-01-04T09:32:57Z</time>
      </trkpt>
      <trkpt lat="48.07111" lon="7.60643">
        <ele>190</ele>
        <time>2017-01-04T09:33:05Z</time>
      </trkpt>
      <trkpt lat="48.07101" lon="7.60643">
        <ele>186.63</ele>
        <time>2017-01-04T09:33:13Z</time>
      </trkpt>
      <trkpt lat="48.07091" lon="7.60643">
        <ele>190</ele>
        <time>2017-01-04T09:33:21Z</time>
      </trkpt>
      <trkpt lat="48.0708" lon="7.60643">
        <ele>189.04</ele>
        <time>2017-01-04T09:33:28Z</time>
      </trkpt>
      <trkpt lat="48.07069" lon="7.60643">
        <ele>186.15</ele>
        <time>2017-01-04T09:33:35Z</time>
      </trkpt>
      <trkpt lat="48.0706" lon="7.60643">
        <ele>187.59</ele>
        <time>2017-01-04T09:33:42Z</time>
      </trkpt>
      <trkpt lat="48.0705" lon="7.60643">
        <ele>189.52</ele>
        <time>2017-01-04T09:33:49Z</time>
      </trkpt>
      <trkpt lat="48.07039" lon="7.60644">
        <ele>190.96</ele>
        <time>2017-01-04T09:33:56Z</time>
      </trkpt>
      <trkpt lat="48.07029" lon="7.60645">
        <ele>186.63</ele>
        <time>2017-01-04T09:34:03Z</time>
      </trkpt>
      <trkpt lat="48.0702" lon="7.60644">
        <ele>190</ele>
        <time>2017-01-04T09:34:10Z</time>
      </trkpt>
      <trkpt lat="48.0701" lon="7.60644">
        <ele>189.04</ele>
        <time>2017-01-04T09:34:17Z</time>
      </trkpt>
      <trkpt lat="48.07" lon="7.60644">
        <ele>190</ele>
        <time>2017-01-04T09:34:25Z</time>
      </trkpt>
      <trkpt lat="48.06989" lon="7.60644">
        <ele>191.44</ele>
        <time>2017-01-04T09:34:33Z</time>
      </trkpt>
      <trkpt lat="48.0698" lon="7.60644">
        <ele>189.04</ele>
        <time>2017-01-04T09:34:40Z</time>
      </trkpt>
      <trkpt lat="48.0697" lon="7.60644">
        <ele>185.67</ele>
        <time>2017-01-04T09:34:48Z</time>
      </trkpt>
      <trkpt lat="48.06959" lon="7.60644">
        <ele>190</ele>
        <time>2017-01-04T09:34:56Z</time>
      </trkpt>
      <trkpt lat="48.06949" lon="7.60645">
        <ele>186.15</ele>
        <time>2017-01-04T09:35:04Z</time>
      </trkpt>
      <trkpt lat="48.06939" lon="7.60644">
        <ele>190.48</ele>
        <time>2017-01-04T09:35:12Z</time>
      </trkpt>
      <trkpt lat="48.06928" lon="7.60643">
        <ele>187.11</ele>
        <time>2017-01-04T09:35:20Z</time>
      </trkpt>
      <trkpt lat="48.06918" lon="7.60643">
        <ele>190.48</ele>
        <time>2017-01-04T09:35:28Z</time>
      </trkpt>
      <trkpt lat="48.06907" lon="7.60643">
        <ele>190</ele>
        <time>2017-01-04T09:35:42Z</time>
      </trkpt>
      <trkpt lat="48.06897" lon="7.60644">
        <ele>190</ele>
        <time>2017-01-04T09:35:51Z</time>
      </trkpt>
      <trkpt lat="48.06887" lon="7.60643">
        <ele>188.56</ele>
        <time>2017-01-04T09:35:59Z</time>
      </trkpt>
      <trkpt lat="48.06878" lon="7.60645">
        <ele>189.04</ele>
        <time>2017-01-04T09:36:12Z</time>
      </trkpt>
      <trkpt lat="48.06867" lon="7.60646">
        <ele>190.96</ele>
        <time>2017-01-04T09:36:20Z</time>
      </trkpt>
      <trkpt lat="48.06857" lon="7.60645">
        <ele>190.48</ele>
        <time>2017-01-04T09:36:28Z</time>
      </trkpt>
      <trkpt lat="48.06848" lon="7.60646">
        <ele>191.44</ele>
        <time>2017-01-04T09:36:37Z</time>
      </trkpt>
      <trkpt lat="48.06838" lon="7.60645">
        <ele>189.04</ele>
        <time>2017-01-04T09:36:45Z</time>
      </trkpt>
      <trkpt lat="48.06827" lon="7.60646">
        <ele>189.52</ele>
        <time>2017-01-04T09:37:10Z</time>
      </trkpt>
      <trkpt lat="48.06818" lon="7.60646">
        <ele>190.48</ele>
        <time>2017-01-04T09:37:17Z</time>
      </trkpt>
      <trkpt lat="48.06808" lon="7.60646">
        <ele>190.48</ele>
        <time>2017-01-04T09:37:25Z</time>
      </trkpt>
      <trkpt lat="48.06797" lon="7.60646">
        <ele>189.04</ele>
        <time>2017-01-04T09:37:33Z</time>
      </trkpt>
      <trkpt lat="48.06789" lon="7.60649">
        <ele>190.48</ele>
        <time>2017-01-04T09:37:41Z</time>
      </trkpt>
      <trkpt lat="48.06779" lon="7.60648">
        <ele>189.52</ele>
        <time>2017-01-04T09:37:49Z</time>
      </trkpt>
      <trkpt lat="48.06769" lon="7.60649">
        <ele>189.52</ele>
        <time>2017-01-04T09:37:56Z</time>
      </trkpt>
      <trkpt lat="48.06758" lon="7.60651">
        <ele>190</ele>
        <time>2017-01-04T09:38:04Z</time>
      </trkpt>
      <trkpt lat="48.06749" lon="7.60652">
        <ele>190.48</ele>
        <time>2017-01-04T09:38:11Z</time>
      </trkpt>
      <trkpt lat="48.06739" lon="7.60654">
        <ele>190</ele>
        <time>2017-01-04T09:38:19Z</time>
      </trkpt>
      <trkpt lat="48.06731" lon="7.60654">
        <ele>190.48</ele>
        <time>2017-01-04T09:38:27Z</time>
      </trkpt>
      <trkpt lat="48.0672" lon="7.60657">
        <ele>189.04</ele>
        <time>2017-01-04T09:38:35Z</time>
      </trkpt>
      <trkpt lat="48.0671" lon="7.6066">
        <ele>187.59</ele>
        <time>2017-01-04T09:38:43Z</time>
      </trkpt>
      <trkpt lat="48.06701" lon="7.6066">
        <ele>188.56</ele>
        <time>2017-01-04T09:38:51Z</time>
      </trkpt>
      <trkpt lat="48.06693" lon="7.60657">
        <ele>189.52</ele>
        <time>2017-01-04T09:38:58Z</time>
      </trkpt>
      <trkpt lat="48.06683" lon="7.60652">
        <ele>190</ele>
        <time>2017-01-04T09:39:06Z</time>
      </trkpt>
      <trkpt lat="48.06673" lon="7.60648">
        <ele>188.08</ele>
        <time>2017-01-04T09:39:14Z</time>
      </trkpt>
      <trkpt lat="48.06664" lon="7.60645">
        <ele>189.04</ele>
        <time>2017-01-04T09:39:22Z</time>
      </trkpt>
      <trkpt lat="48.06656" lon="7.60653">
        <ele>186.63</ele>
        <time>2017-01-04T09:40:46Z</time>
      </trkpt>
      <trkpt lat="48.06646" lon="7.6066">
        <ele>188.56</ele>
        <time>2017-01-04T09:40:55Z</time>
      </trkpt>
      <trkpt lat="48.06636" lon="7.60666">
        <ele>190.48</ele>
        <time>2017-01-04T09:41:03Z</time>
      </trkpt>
      <trkpt lat="48.06628" lon="7.60671">
        <ele>187.11</ele>
        <time>2017-01-04T09:41:10Z</time>
      </trkpt>
      <trkpt lat="48.06619" lon="7.60675">
        <ele>185.67</ele>
        <time>2017-01-04T09:41:18Z</time>
      </trkpt>
      <trkpt lat="48.06609" lon="7.60677">
        <ele>188.08</ele>
        <time>2017-01-04T09:41:26Z</time>
      </trkpt>
      <trkpt lat="48.06599" lon="7.60679">
        <ele>186.15</ele>
        <time>2017-01-04T09:41:33Z</time>
      </trkpt>
      <trkpt lat="48.0659" lon="7.6068">
        <ele>188.56</ele>
        <time>2017-01-04T09:41:40Z</time>
      </trkpt>
      <trkpt lat="48.06581" lon="7.60682">
        <ele>188.56</ele>
        <time>2017-01-04T09:41:48Z</time>
      </trkpt>
      <trkpt lat="48.06571" lon="7.60683">
        <ele>184.71</ele>
        <time>2017-01-04T09:41:56Z</time>
      </trkpt>
      <trkpt lat="48.06562" lon="7.60685">
        <ele>186.15</ele>
        <time>2017-01-04T09:42:04Z</time>
      </trkpt>
      <trkpt lat="48.06552" lon="7.60687">
        <ele>189.52</ele>
        <time>2017-01-04T09:42:12Z</time>
      </trkpt>
      <trkpt lat="48.06543" lon="7.6069">
        <ele>188.56</ele>
        <time>2017-01-04T09:42:23Z</time>
      </trkpt>
      <trkpt lat="48.06533" lon="7.60691">
        <ele>186.63</ele>
        <time>2017-01-04T09:42:31Z</time>
      </trkpt>
      <trkpt lat="48.06523" lon="7.60692">
        <ele>187.11</ele>
        <time>2017-01-04T09:42:40Z</time>
      </trkpt>
      <trkpt lat="48.06512" lon="7.60692">
        <ele>189.52</ele>
        <time>2017-01-04T09:42:48Z</time>
      </trkpt>
      <trkpt lat="48.06502" lon="7.60694">
        <ele>187.59</ele>
        <time>2017-01-04T09:42:56Z</time>
      </trkpt>
      <trkpt lat="48.06493" lon="7.60695">
        <ele>187.11</ele>
        <time>2017-01-04T09:43:04Z</time>
      </trkpt>
      <trkpt lat="48.06483" lon="7.60698">
        <ele>188.08</ele>
        <time>2017-01-04T09:43:12Z</time>
      </trkpt>
      <trkpt lat="48.06474" lon="7.607">
        <ele>187.59</ele>
        <time>2017-01-04T09:43:20Z</time>
      </trkpt>
      <trkpt lat="48.06463" lon="7.60702">
        <ele>188.56</ele>
        <time>2017-01-04T09:43:28Z</time>
      </trkpt>
      <trkpt lat="48.06453" lon="7.60704">
        <ele>187.59</ele>
        <time>2017-01-04T09:43:36Z</time>
      </trkpt>
      <trkpt lat="48.06444" lon="7.60706">
        <ele>187.11</ele>
        <time>2017-01-04T09:43:44Z</time>
      </trkpt>
      <trkpt lat="48.06434" lon="7.60707">
        <ele>187.59</ele>
        <time>2017-01-04T09:43:52Z</time>
      </trkpt>
      <trkpt lat="48.06423" lon="7.60707">
        <ele>187.59</ele>
        <time>2017-01-04T09:44:01Z</time>
      </trkpt>
      <trkpt lat="48.06414" lon="7.6071">
        <ele>189.04</ele>
        <time>2017-01-04T09:44:09Z</time>
      </trkpt>
      <trkpt lat="48.06405" lon="7.60712">
        <ele>188.56</ele>
        <time>2017-01-04T09:44:18Z</time>
      </trkpt>
      <trkpt lat="48.06395" lon="7.60713">
        <ele>188.56</ele>
        <time>2017-01-04T09:44:25Z</time>
      </trkpt>
      <trkpt lat="48.06385" lon="7.60716">
        <ele>188.56</ele>
        <time>2017-01-04T09:44:33Z</time>
      </trkpt>
      <trkpt lat="48.06374" lon="7.60717">
        <ele>187.59</ele>
        <time>2017-01-04T09:44:41Z</time>
      </trkpt>
      <trkpt lat="48.06366" lon="7.60718">
        <ele>186.63</ele>
        <time>2017-01-04T09:44:48Z</time>
      </trkpt>
      <trkpt lat="48.06357" lon="7.6072">
        <ele>190</ele>
        <time>2017-01-04T09:44:55Z</time>
      </trkpt>
      <trkpt lat="48.06348" lon="7.60722">
        <ele>186.63</ele>
        <time>2017-01-04T09:45:02Z</time>
      </trkpt>
      <trkpt lat="48.06338" lon="7.60725">
        <ele>187.11</ele>
        <time>2017-01-04T09:45:10Z</time>
      </trkpt>
      <trkpt lat="48.06329" lon="7.60726">
        <ele>190</ele>
        <time>2017-01-04T09:45:17Z</time>
      </trkpt>
      <trkpt lat="48.06319" lon="7.60727">
        <ele>188.08</ele>
        <time>2017-01-04T09:45:24Z</time>
      </trkpt>
      <trkpt lat="48.06308" lon="7.60729">
        <ele>187.11</ele>
        <time>2017-01-04T09:45:32Z</time>
      </trkpt>
      <trkpt lat="48.06299" lon="7.60732">
        <ele>187.59</ele>
        <time>2017-01-04T09:45:40Z</time>
      </trkpt>
      <trkpt lat="48.06288" lon="7.60734">
        <ele>189.52</ele>
        <time>2017-01-04T09:45:49Z</time>
      </trkpt>
      <trkpt lat="48.06277" lon="7.60733">
        <ele>187.59</ele>
        <time>2017-01-04T09:45:57Z</time>
      </trkpt>
      <trkpt lat="48.06269" lon="7.60736">
        <ele>188.08</ele>
        <time>2017-01-04T09:46:08Z</time>
      </trkpt>
      <trkpt lat="48.06258" lon="7.60739">
        <ele>188.56</ele>
        <time>2017-01-04T09:46:17Z</time>
      </trkpt>
      <trkpt lat="48.06246" lon="7.6074">
        <ele>189.04</ele>
        <time>2017-01-04T09:46:25Z</time>
      </trkpt>
      <trkpt lat="48.06237" lon="7.60741">
        <ele>188.56</ele>
        <time>2017-01-04T09:46:33Z</time>
      </trkpt>
      <trkpt lat="48.06228" lon="7.60743">
        <ele>187.59</ele>
        <time>2017-01-04T09:46:42Z</time>
      </trkpt>
      <trkpt lat="48.06218" lon="7.60745">
        <ele>187.11</ele>
        <time>2017-01-04T09:46:50Z</time>
      </trkpt>
      <trkpt lat="48.06208" lon="7.60747">
        <ele>188.08</ele>
        <time>2017-01-04T09:46:59Z</time>
      </trkpt>
      <trkpt lat="48.06198" lon="7.6075">
        <ele>187.59</ele>
        <time>2017-01-04T09:47:07Z</time>
      </trkpt>
      <trkpt lat="48.06187" lon="7.60751">
        <ele>187.59</ele>
        <time>2017-01-04T09:47:16Z</time>
      </trkpt>
      <trkpt lat="48.06177" lon="7.60753">
        <ele>187.59</ele>
        <time>2017-01-04T09:47:24Z</time>
      </trkpt>
      <trkpt lat="48.06166" lon="7.60755">
        <ele>188.56</ele>
        <time>2017-01-04T09:47:32Z</time>
      </trkpt>
      <trkpt lat="48.06156" lon="7.60757">
        <ele>188.08</ele>
        <time>2017-01-04T09:47:40Z</time>
      </trkpt>
      <trkpt lat="48.06144" lon="7.60758">
        <ele>188.56</ele>
        <time>2017-01-04T09:47:50Z</time>
      </trkpt>
      <trkpt lat="48.06133" lon="7.60759">
        <ele>189.04</ele>
        <time>2017-01-04T09:47:58Z</time>
      </trkpt>
      <trkpt lat="48.06123" lon="7.60761">
        <ele>189.04</ele>
        <time>2017-01-04T09:48:06Z</time>
      </trkpt>
      <trkpt lat="48.06112" lon="7.60763">
        <ele>187.59</ele>
        <time>2017-01-04T09:48:14Z</time>
      </trkpt>
      <trkpt lat="48.06102" lon="7.60764">
        <ele>189.04</ele>
        <time>2017-01-04T09:48:22Z</time>
      </trkpt>
      <trkpt lat="48.06092" lon="7.60766">
        <ele>188.08</ele>
        <time>2017-01-04T09:48:30Z</time>
      </trkpt>
      <trkpt lat="48.06081" lon="7.60768">
        <ele>188.56</ele>
        <time>2017-01-04T09:48:38Z</time>
      </trkpt>
      <trkpt lat="48.06072" lon="7.6077">
        <ele>186.63</ele>
        <time>2017-01-04T09:48:45Z</time>
      </trkpt>
      <trkpt lat="48.06062" lon="7.6077">
        <ele>188.08</ele>
        <time>2017-01-04T09:48:52Z</time>
      </trkpt>
      <trkpt lat="48.06053" lon="7.60772">
        <ele>188.08</ele>
        <time>2017-01-04T09:48:59Z</time>
      </trkpt>
      <trkpt lat="48.06044" lon="7.60774">
        <ele>186.63</ele>
        <time>2017-01-04T09:49:06Z</time>
      </trkpt>
      <trkpt lat="48.06034" lon="7.60774">
        <ele>188.08</ele>
        <time>2017-01-04T09:49:13Z</time>
      </trkpt>
      <trkpt lat="48.06025" lon="7.60775">
        <ele>188.08</ele>
        <time>2017-01-04T09:49:20Z</time>
      </trkpt>
      <trkpt lat="48.06016" lon="7.60778">
        <ele>187.11</ele>
        <time>2017-01-04T09:49:27Z</time>
      </trkpt>
      <trkpt lat="48.06006" lon="7.6078">
        <ele>188.08</ele>
        <time>2017-01-04T09:49:34Z</time>
      </trkpt>
      <trkpt lat="48.05997" lon="7.60782">
        <ele>188.56</ele>
        <time>2017-01-04T09:49:41Z</time>
      </trkpt>
      <trkpt lat="48.05988" lon="7.60785">
        <ele>186.15</ele>
        <time>2017-01-04T09:49:49Z</time>
      </trkpt>
      <trkpt lat="48.05977" lon="7.60788">
        <ele>186.15</ele>
        <time>2017-01-04T09:49:58Z</time>
      </trkpt>
      <trkpt lat="48.05967" lon="7.6079">
        <ele>188.56</ele>
        <time>2017-01-04T09:50:07Z</time>
      </trkpt>
      <trkpt lat="48.05955" lon="7.60792">
        <ele>187.59</ele>
        <time>2017-01-04T09:50:18Z</time>
      </trkpt>
      <trkpt lat="48.05945" lon="7.60792">
        <ele>188.08</ele>
        <time>2017-01-04T09:50:26Z</time>
      </trkpt>
      <trkpt lat="48.05935" lon="7.60796">
        <ele>186.63</ele>
        <time>2017-01-04T09:50:34Z</time>
      </trkpt>
      <trkpt lat="48.05923" lon="7.60795">
        <ele>188.56</ele>
        <time>2017-01-04T09:50:43Z</time>
      </trkpt>
      <trkpt lat="48.05915" lon="7.60785">
        <ele>188.08</ele>
        <time>2017-01-04T09:50:52Z</time>
      </trkpt>
      <trkpt lat="48.05906" lon="7.60775">
        <ele>189.52</ele>
        <time>2017-01-04T09:51:02Z</time>
      </trkpt>
      <trkpt lat="48.05899" lon="7.60776">
        <ele>188.08</ele>
        <time>2017-01-04T09:52:46Z</time>
      </trkpt>
      <trkpt lat="48.05888" lon="7.60777">
        <ele>190</ele>
        <time>2017-01-04T09:52:58Z</time>
      </trkpt>
      <trkpt lat="48.05889" lon="7.60766">
        <ele>188.56</ele>
        <time>2017-01-04T09:53:28Z</time>
      </trkpt>
      <trkpt lat="48.0589" lon="7.60751">
        <ele>188.08</ele>
        <time>2017-01-04T09:53:37Z</time>
      </trkpt>
      <trkpt lat="48.0589" lon="7.60736">
        <ele>187.59</ele>
        <time>2017-01-04T09:53:46Z</time>
      </trkpt>
      <trkpt lat="48.05891" lon="7.6072">
        <ele>186.63</ele>
        <time>2017-01-04T09:53:55Z</time>
      </trkpt>
      <trkpt lat="48.05893" lon="7.60702">
        <ele>188.08</ele>
        <time>2017-01-04T09:54:03Z</time>
      </trkpt>
      <trkpt lat="48.05898" lon="7.60685">
        <ele>190.96</ele>
        <time>2017-01-04T09:54:11Z</time>
      </trkpt>
      <trkpt lat="48.05896" lon="7.60668">
        <ele>187.59</ele>
        <time>2017-01-04T09:54:19Z</time>
      </trkpt>
      <trkpt lat="48.05895" lon="7.60651">
        <ele>189.04</ele>
        <time>2017-01-04T09:54:28Z</time>
      </trkpt>
      <trkpt lat="48.05894" lon="7.60635">
        <ele>187.59</ele>
        <time>2017-01-04T09:54:37Z</time>
      </trkpt>
      <trkpt lat="48.05894" lon="7.60617">
        <ele>189.52</ele>
        <time>2017-01-04T09:54:45Z</time>
      </trkpt>
      <trkpt lat="48.05892" lon="7.60601">
        <ele>189.52</ele>
        <time>2017-01-04T09:54:53Z</time>
      </trkpt>
      <trkpt lat="48.05892" lon="7.60584">
        <ele>187.59</ele>
        <time>2017-01-04T09:55:01Z</time>
      </trkpt>
      <trkpt lat="48.05892" lon="7.6057">
        <ele>188.08</ele>
        <time>2017-01-04T09:55:08Z</time>
      </trkpt>
      <trkpt lat="48.05891" lon="7.60556">
        <ele>186.15</ele>
        <time>2017-01-04T09:55:16Z</time>
      </trkpt>
      <trkpt lat="48.0589" lon="7.60541">
        <ele>188.56</ele>
        <time>2017-01-04T09:55:24Z</time>
      </trkpt>
      <trkpt lat="48.05888" lon="7.60526">
        <ele>186.15</ele>
        <time>2017-01-04T09:55:32Z</time>
      </trkpt>
      <trkpt lat="48.05884" lon="7.60513">
        <ele>189.04</ele>
        <time>2017-01-04T09:55:40Z</time>
      </trkpt>
      <trkpt lat="48.0588" lon="7.60498">
        <ele>186.63</ele>
        <time>2017-01-04T09:55:48Z</time>
      </trkpt>
      <trkpt lat="48.05875" lon="7.60483">
        <ele>188.56</ele>
        <time>2017-01-04T09:55:56Z</time>
      </trkpt>
      <trkpt lat="48.05871" lon="7.60467">
        <ele>187.59</ele>
        <time>2017-01-04T09:56:04Z</time>
      </trkpt>
      <trkpt lat="48.05867" lon="7.60453">
        <ele>187.59</ele>
        <time>2017-01-04T09:56:12Z</time>
      </trkpt>
      <trkpt lat="48.05862" lon="7.60439">
        <ele>187.11</ele>
        <time>2017-01-04T09:56:20Z</time>
      </trkpt>
      <trkpt lat="48.05858" lon="7.60426">
        <ele>188.08</ele>
        <time>2017-01-04T09:56:27Z</time>
      </trkpt>
      <trkpt lat="48.05855" lon="7.60412">
        <ele>188.08</ele>
        <time>2017-01-04T09:56:34Z</time>
      </trkpt>
      <trkpt lat="48.05852" lon="7.60399">
        <ele>187.59</ele>
        <time>2017-01-04T09:56:41Z</time>
      </trkpt>
      <trkpt lat="48.05849" lon="7.60387">
        <ele>188.56</ele>
        <time>2017-01-04T09:56:48Z</time>
      </trkpt>
      <trkpt lat="48.05846" lon="7.60373">
        <ele>189.52</ele>
        <time>2017-01-04T09:56:56Z</time>
      </trkpt>
      <trkpt lat="48.05842" lon="7.60361">
        <ele>187.59</ele>
        <time>2017-01-04T09:57:03Z</time>
      </trkpt>
      <trkpt lat="48.05839" lon="7.60348">
        <ele>186.15</ele>
        <time>2017-01-04T09:57:11Z</time>
      </trkpt>
      <trkpt lat="48.05835" lon="7.60333">
        <ele>186.15</ele>
        <time>2017-01-04T09:57:19Z</time>
      </trkpt>
      <trkpt lat="48.05831" lon="7.60321">
        <ele>188.56</ele>
        <time>2017-01-04T09:57:26Z</time>
      </trkpt>
      <trkpt lat="48.05824" lon="7.60311">
        <ele>188.08</ele>
        <time>2017-01-04T09:57:34Z</time>
      </trkpt>
      <trkpt lat="48.05817" lon="7.60302">
        <ele>187.59</ele>
        <time>2017-01-04T09:58:39Z</time>
      </trkpt>
      <trkpt lat="48.05815" lon="7.60295">
        <ele>188.08</ele>
        <time>2017-01-04T09:59:11Z</time>
      </trkpt>
      <trkpt lat="48.05813" lon="7.60281">
        <ele>186.63</ele>
        <time>2017-01-04T09:59:23Z</time>
      </trkpt>
      <trkpt lat="48.05813" lon="7.60267">
        <ele>186.63</ele>
        <time>2017-01-04T09:59:34Z</time>
      </trkpt>
      <trkpt lat="48.05809" lon="7.60254">
        <ele>186.63</ele>
        <time>2017-01-04T09:59:42Z</time>
      </trkpt>
      <trkpt lat="48.05805" lon="7.60242">
        <ele>188.56</ele>
        <time>2017-01-04T09:59:50Z</time>
      </trkpt>
      <trkpt lat="48.05801" lon="7.6023">
        <ele>186.63</ele>
        <time>2017-01-04T10:00:01Z</time>
      </trkpt>
      <trkpt lat="48.05795" lon="7.60219">
        <ele>187.11</ele>
        <time>2017-01-04T10:00:09Z</time>
      </trkpt>
      <trkpt lat="48.0579" lon="7.60207">
        <ele>185.67</ele>
        <time>2017-01-04T10:00:18Z</time>
      </trkpt>
      <trkpt lat="48.05783" lon="7.60196">
        <ele>185.19</ele>
        <time>2017-01-04T10:00:27Z</time>
      </trkpt>
      <trkpt lat="48.05777" lon="7.60186">
        <ele>186.63</ele>
        <time>2017-01-04T10:00:35Z</time>
      </trkpt>
      <trkpt lat="48.05772" lon="7.60174">
        <ele>186.15</ele>
        <time>2017-01-04T10:00:44Z</time>
      </trkpt>
      <trkpt lat="48.05765" lon="7.60164">
        <ele>188.08</ele>
        <time>2017-01-04T10:00:52Z</time>
      </trkpt>
      <trkpt lat="48.05759" lon="7.60153">
        <ele>185.67</ele>
        <time>2017-01-04T10:01:00Z</time>
      </trkpt>
      <trkpt lat="48.05752" lon="7.60144">
        <ele>187.11</ele>
        <time>2017-01-04T10:01:08Z</time>
      </trkpt>
      <trkpt lat="48.05746" lon="7.60133">
        <ele>183.75</ele>
        <time>2017-01-04T10:01:17Z</time>
      </trkpt>
      <trkpt lat="48.05739" lon="7.60123">
        <ele>187.59</ele>
        <time>2017-01-04T10:01:24Z</time>
      </trkpt>
      <trkpt lat="48.05733" lon="7.60114">
        <ele>184.23</ele>
        <time>2017-01-04T10:01:31Z</time>
      </trkpt>
      <trkpt lat="48.05726" lon="7.60104">
        <ele>186.63</ele>
        <time>2017-01-04T10:01:39Z</time>
      </trkpt>
      <trkpt lat="48.05719" lon="7.60093">
        <ele>185.19</ele>
        <time>2017-01-04T10:01:47Z</time>
      </trkpt>
      <trkpt lat="48.05712" lon="7.60084">
        <ele>185.19</ele>
        <time>2017-01-04T10:01:54Z</time>
      </trkpt>
      <trkpt lat="48.05706" lon="7.60074">
        <ele>184.71</ele>
        <time>2017-01-04T10:02:01Z</time>
      </trkpt>
      <trkpt lat="48.057" lon="7.60065">
        <ele>188.08</ele>
        <time>2017-01-04T10:02:08Z</time>
      </trkpt>
      <trkpt lat="48.05694" lon="7.60055">
        <ele>185.67</ele>
        <time>2017-01-04T10:02:15Z</time>
      </trkpt>
      <trkpt lat="48.05688" lon="7.60046">
        <ele>186.63</ele>
        <time>2017-01-04T10:02:22Z</time>
      </trkpt>
      <trkpt lat="48.05683" lon="7.60036">
        <ele>186.63</ele>
        <time>2017-01-04T10:02:30Z</time>
      </trkpt>
      <trkpt lat="48.05676" lon="7.60025">
        <ele>186.15</ele>
        <time>2017-01-04T10:02:38Z</time>
      </trkpt>
      <trkpt lat="48.05669" lon="7.60015">
        <ele>182.31</ele>
        <time>2017-01-04T10:02:46Z</time>
      </trkpt>
      <trkpt lat="48.05663" lon="7.60004">
        <ele>185.67</ele>
        <time>2017-01-04T10:02:54Z</time>
      </trkpt>
      <trkpt lat="48.05657" lon="7.59992">
        <ele>185.67</ele>
        <time>2017-01-04T10:03:02Z</time>
      </trkpt>
      <trkpt lat="48.05651" lon="7.59982">
        <ele>185.67</ele>
        <time>2017-01-04T10:03:09Z</time>
      </trkpt>
      <trkpt lat="48.05646" lon="7.59971">
        <ele>183.75</ele>
        <time>2017-01-04T10:03:17Z</time>
      </trkpt>
      <trkpt lat="48.05642" lon="7.59959">
        <ele>181.83</ele>
        <time>2017-01-04T10:03:26Z</time>
      </trkpt>
      <trkpt lat="48.05638" lon="7.59946">
        <ele>184.71</ele>
        <time>2017-01-04T10:03:35Z</time>
      </trkpt>
      <trkpt lat="48.05634" lon="7.59934">
        <ele>186.63</ele>
        <time>2017-01-04T10:03:42Z</time>
      </trkpt>
      <trkpt lat="48.0563" lon="7.59922">
        <ele>182.31</ele>
        <time>2017-01-04T10:03:50Z</time>
      </trkpt>
      <trkpt lat="48.05624" lon="7.59909">
        <ele>186.63</ele>
        <time>2017-01-04T10:03:58Z</time>
      </trkpt>
      <trkpt lat="48.0562" lon="7.59896">
        <ele>184.23</ele>
        <time>2017-01-04T10:04:06Z</time>
      </trkpt>
      <trkpt lat="48.05615" lon="7.59883">
        <ele>186.15</ele>
        <time>2017-01-04T10:04:14Z</time>
      </trkpt>
      <trkpt lat="48.0561" lon="7.5987">
        <ele>186.15</ele>
        <time>2017-01-04T10:04:22Z</time>
      </trkpt>
      <trkpt lat="48.05606" lon="7.59857">
        <ele>184.23</ele>
        <time>2017-01-04T10:04:30Z</time>
      </trkpt>
      <trkpt lat="48.05601" lon="7.59845">
        <ele>183.75</ele>
        <time>2017-01-04T10:04:38Z</time>
      </trkpt>
      <trkpt lat="48.05597" lon="7.59832">
        <ele>186.15</ele>
        <time>2017-01-04T10:04:46Z</time>
      </trkpt>
      <trkpt lat="48.05592" lon="7.59819">
        <ele>184.71</ele>
        <time>2017-01-04T10:04:54Z</time>
      </trkpt>
      <trkpt lat="48.05587" lon="7.59806">
        <ele>187.11</ele>
        <time>2017-01-04T10:05:02Z</time>
      </trkpt>
      <trkpt lat="48.05582" lon="7.59794">
        <ele>185.19</ele>
        <time>2017-01-04T10:05:10Z</time>
      </trkpt>
      <trkpt lat="48.05577" lon="7.59781">
        <ele>184.71</ele>
        <time>2017-01-04T10:05:18Z</time>
      </trkpt>
      <trkpt lat="48.05571" lon="7.59769">
        <ele>186.63</ele>
        <time>2017-01-04T10:05:26Z</time>
      </trkpt>
      <trkpt lat="48.05566" lon="7.59756">
        <ele>185.19</ele>
        <time>2017-01-04T10:05:34Z</time>
      </trkpt>
      <trkpt lat="48.05558" lon="7.59745">
        <ele>185.67</ele>
        <time>2017-01-04T10:05:42Z</time>
      </trkpt>
      <trkpt lat="48.05552" lon="7.59735">
        <ele>185.67</ele>
        <time>2017-01-04T10:05:49Z</time>
      </trkpt>
      <trkpt lat="48.05546" lon="7.59725">
        <ele>185.67</ele>
        <time>2017-01-04T10:05:56Z</time>
      </trkpt>
      <trkpt lat="48.05539" lon="7.59716">
        <ele>186.63</ele>
        <time>2017-01-04T10:06:04Z</time>
      </trkpt>
      <trkpt lat="48.05532" lon="7.59707">
        <ele>183.27</ele>
        <time>2017-01-04T10:06:12Z</time>
      </trkpt>
      <trkpt lat="48.05525" lon="7.59697">
        <ele>184.71</ele>
        <time>2017-01-04T10:06:20Z</time>
      </trkpt>
      <trkpt lat="48.05517" lon="7.59687">
        <ele>185.19</ele>
        <time>2017-01-04T10:06:28Z</time>
      </trkpt>
      <trkpt lat="48.0551" lon="7.59677">
        <ele>185.19</ele>
        <time>2017-01-04T10:06:36Z</time>
      </trkpt>
      <trkpt lat="48.05503" lon="7.59666">
        <ele>182.79</ele>
        <time>2017-01-04T10:06:44Z</time>
      </trkpt>
      <trkpt lat="48.05496" lon="7.59656">
        <ele>182.79</ele>
        <time>2017-01-04T10:06:52Z</time>
      </trkpt>
      <trkpt lat="48.05489" lon="7.59646">
        <ele>185.67</ele>
        <time>2017-01-04T10:07:00Z</time>
      </trkpt>
      <trkpt lat="48.05482" lon="7.59637">
        <ele>184.23</ele>
        <time>2017-01-04T10:07:08Z</time>
      </trkpt>
      <trkpt lat="48.05475" lon="7.59627">
        <ele>184.23</ele>
        <time>2017-01-04T10:07:15Z</time>
      </trkpt>
      <trkpt lat="48.05469" lon="7.59618">
        <ele>184.23</ele>
        <time>2017-01-04T10:07:22Z</time>
      </trkpt>
      <trkpt lat="48.05462" lon="7.59609">
        <ele>182.79</ele>
        <time>2017-01-04T10:07:30Z</time>
      </trkpt>
      <trkpt lat="48.05456" lon="7.59599">
        <ele>183.75</ele>
        <time>2017-01-04T10:07:37Z</time>
      </trkpt>
      <trkpt lat="48.05449" lon="7.59589">
        <ele>186.15</ele>
        <time>2017-01-04T10:07:45Z</time>
      </trkpt>
      <trkpt lat="48.05441" lon="7.59579">
        <ele>184.71</ele>
        <time>2017-01-04T10:07:53Z</time>
      </trkpt>
      <trkpt lat="48.05434" lon="7.59569">
        <ele>183.27</ele>
        <time>2017-01-04T10:08:01Z</time>
      </trkpt>
      <trkpt lat="48.05427" lon="7.5956">
        <ele>185.19</ele>
        <time>2017-01-04T10:08:08Z</time>
      </trkpt>
      <trkpt lat="48.0542" lon="7.5955">
        <ele>183.27</ele>
        <time>2017-01-04T10:08:16Z</time>
      </trkpt>
      <trkpt lat="48.05413" lon="7.5954">
        <ele>185.67</ele>
        <time>2017-01-04T10:08:24Z</time>
      </trkpt>
      <trkpt lat="48.05407" lon="7.59531">
        <ele>185.67</ele>
        <time>2017-01-04T10:08:32Z</time>
      </trkpt>
      <trkpt lat="48.05401" lon="7.59519">
        <ele>183.27</ele>
        <time>2017-01-04T10:08:40Z</time>
      </trkpt>
      <trkpt lat="48.05395" lon="7.59508">
        <ele>184.23</ele>
        <time>2017-01-04T10:08:55Z</time>
      </trkpt>
      <trkpt lat="48.05388" lon="7.59495">
        <ele>185.19</ele>
        <time>2017-01-04T10:09:04Z</time>
      </trkpt>
      <trkpt lat="48.05383" lon="7.59482">
        <ele>182.79</ele>
        <time>2017-01-04T10:09:13Z</time>
      </trkpt>
      <trkpt lat="48.05377" lon="7.59468">
        <ele>183.27</ele>
        <time>2017-01-04T10:09:22Z</time>
      </trkpt>
      <trkpt lat="48.05372" lon="7.59455">
        <ele>184.23</ele>
        <time>2017-01-04T10:09:30Z</time>
      </trkpt>
      <trkpt lat="48.05367" lon="7.59442">
        <ele>185.19</ele>
        <time>2017-01-04T10:09:38Z</time>
      </trkpt>
      <trkpt lat="48.05362" lon="7.59428">
        <ele>185.67</ele>
        <time>2017-01-04T10:09:47Z</time>
      </trkpt>
      <trkpt lat="48.05358" lon="7.59413">
        <ele>184.23</ele>
        <time>2017-01-04T10:09:55Z</time>
      </trkpt>
      <trkpt lat="48.05353" lon="7.59401">
        <ele>184.23</ele>
        <time>2017-01-04T10:10:03Z</time>
      </trkpt>
      <trkpt lat="48.05348" lon="7.59387">
        <ele>183.27</ele>
        <time>2017-01-04T10:10:11Z</time>
      </trkpt>
      <trkpt lat="48.05343" lon="7.59375">
        <ele>182.31</ele>
        <time>2017-01-04T10:10:19Z</time>
      </trkpt>
      <trkpt lat="48.05338" lon="7.59363">
        <ele>183.75</ele>
        <time>2017-01-04T10:10:27Z</time>
      </trkpt>
      <trkpt lat="48.05333" lon="7.59349">
        <ele>184.71</ele>
        <time>2017-01-04T10:10:35Z</time>
      </trkpt>
      <trkpt lat="48.05329" lon="7.59337">
        <ele>183.75</ele>
        <time>2017-01-04T10:10:42Z</time>
      </trkpt>
      <trkpt lat="48.05325" lon="7.59324">
        <ele>185.67</ele>
        <time>2017-01-04T10:10:50Z</time>
      </trkpt>
      <trkpt lat="48.05321" lon="7.59311">
        <ele>186.15</ele>
        <time>2017-01-04T10:10:58Z</time>
      </trkpt>
      <trkpt lat="48.05316" lon="7.59298">
        <ele>184.71</ele>
        <time>2017-01-04T10:11:06Z</time>
      </trkpt>
      <trkpt lat="48.05313" lon="7.59285">
        <ele>184.23</ele>
        <time>2017-01-04T10:11:14Z</time>
      </trkpt>
      <trkpt lat="48.05309" lon="7.59272">
        <ele>183.75</ele>
        <time>2017-01-04T10:11:22Z</time>
      </trkpt>
      <trkpt lat="48.05305" lon="7.5926">
        <ele>184.71</ele>
        <time>2017-01-04T10:11:30Z</time>
      </trkpt>
      <trkpt lat="48.053" lon="7.59246">
        <ele>185.19</ele>
        <time>2017-01-04T10:11:38Z</time>
      </trkpt>
      <trkpt lat="48.05294" lon="7.59235">
        <ele>183.27</ele>
        <time>2017-01-04T10:11:47Z</time>
      </trkpt>
      <trkpt lat="48.05286" lon="7.59238">
        <ele>183.75</ele>
        <time>2017-01-04T10:13:38Z</time>
      </trkpt>
      <trkpt lat="48.05276" lon="7.59242">
        <ele>186.63</ele>
        <time>2017-01-04T10:13:46Z</time>
      </trkpt>
      <trkpt lat="48.05266" lon="7.59249">
        <ele>182.31</ele>
        <time>2017-01-04T10:13:55Z</time>
      </trkpt>
      <trkpt lat="48.05257" lon="7.59255">
        <ele>185.19</ele>
        <time>2017-01-04T10:14:04Z</time>
      </trkpt>
      <trkpt lat="48.05248" lon="7.59263">
        <ele>185.19</ele>
        <time>2017-01-04T10:14:12Z</time>
      </trkpt>
      <trkpt lat="48.05237" lon="7.59269">
        <ele>183.75</ele>
        <time>2017-01-04T10:14:20Z</time>
      </trkpt>
      <trkpt lat="48.05228" lon="7.59275">
        <ele>185.67</ele>
        <time>2017-01-04T10:14:29Z</time>
      </trkpt>
      <trkpt lat="48.05217" lon="7.5928">
        <ele>185.67</ele>
        <time>2017-01-04T10:14:37Z</time>
      </trkpt>
      <trkpt lat="48.05205" lon="7.59284">
        <ele>184.71</ele>
        <time>2017-01-04T10:14:45Z</time>
      </trkpt>
      <trkpt lat="48.05194" lon="7.59286">
        <ele>185.19</ele>
        <time>2017-01-04T10:14:54Z</time>
      </trkpt>
      <trkpt lat="48.05184" lon="7.59286">
        <ele>185.19</ele>
        <time>2017-01-04T10:15:03Z</time>
      </trkpt>
      <trkpt lat="48.05173" lon="7.59285">
        <ele>185.67</ele>
        <time>2017-01-04T10:15:12Z</time>
      </trkpt>
      <trkpt lat="48.05162" lon="7.59285">
        <ele>185.19</ele>
        <time>2017-01-04T10:15:20Z</time>
      </trkpt>
      <trkpt lat="48.05152" lon="7.59287">
        <ele>186.63</ele>
        <time>2017-01-04T10:15:29Z</time>
      </trkpt>
      <trkpt lat="48.0514" lon="7.59288">
        <ele>185.19</ele>
        <time>2017-01-04T10:15:39Z</time>
      </trkpt>
      <trkpt lat="48.05129" lon="7.59289">
        <ele>182.79</ele>
        <time>2017-01-04T10:15:48Z</time>
      </trkpt>
      <trkpt lat="48.05117" lon="7.59289">
        <ele>181.83</ele>
        <time>2017-01-04T10:15:56Z</time>
      </trkpt>
      <trkpt lat="48.05107" lon="7.5929">
        <ele>185.19</ele>
        <time>2017-01-04T10:16:04Z</time>
      </trkpt>
      <trkpt lat="48.05096" lon="7.59292">
        <ele>185.67</ele>
        <time>2017-01-04T10:16:12Z</time>
      </trkpt>
      <trkpt lat="48.05086" lon="7.59292">
        <ele>185.67</ele>
        <time>2017-01-04T10:16:21Z</time>
      </trkpt>
      <trkpt lat="48.05073" lon="7.59293">
        <ele>184.71</ele>
        <time>2017-01-04T10:16:30Z</time>
      </trkpt>
      <trkpt lat="48.05062" lon="7.59292">
        <ele>184.71</ele>
        <time>2017-01-04T10:16:39Z</time>
      </trkpt>
      <trkpt lat="48.0505" lon="7.59292">
        <ele>183.27</ele>
        <time>2017-01-04T10:16:48Z</time>
      </trkpt>
      <trkpt lat="48.05037" lon="7.59293">
        <ele>182.79</ele>
        <time>2017-01-04T10:16:57Z</time>
      </trkpt>
      <trkpt lat="48.05028" lon="7.59294">
        <ele>185.67</ele>
        <time>2017-01-04T10:17:05Z</time>
      </trkpt>
      <trkpt lat="48.05016" lon="7.59294">
        <ele>184.71</ele>
        <time>2017-01-04T10:17:14Z</time>
      </trkpt>
      <trkpt lat="48.05005" lon="7.59296">
        <ele>182.79</ele>
        <time>2017-01-04T10:17:24Z</time>
      </trkpt>
      <trkpt lat="48.04994" lon="7.59297">
        <ele>181.83</ele>
        <time>2017-01-04T10:17:33Z</time>
      </trkpt>
      <trkpt lat="48.04991" lon="7.59294">
        <ele>186.15</ele>
        <time>2017-01-04T10:17:49Z</time>
      </trkpt>
      <trkpt lat="48.04996" lon="7.59284">
        <ele>185.19</ele>
        <time>2017-01-04T10:17:57Z</time>
      </trkpt>
      <trkpt lat="48.05006" lon="7.59274">
        <ele>185.19</ele>
        <time>2017-01-04T10:18:07Z</time>
      </trkpt>
      <trkpt lat="48.05014" lon="7.59263">
        <ele>184.23</ele>
        <time>2017-01-04T10:18:17Z</time>
      </trkpt>
      <trkpt lat="48.05022" lon="7.59252">
        <ele>184.71</ele>
        <time>2017-01-04T10:18:26Z</time>
      </trkpt>
      <trkpt lat="48.05029" lon="7.59242">
        <ele>186.63</ele>
        <time>2017-01-04T10:18:35Z</time>
      </trkpt>
      <trkpt lat="48.05037" lon="7.5923">
        <ele>184.23</ele>
        <time>2017-01-04T10:18:44Z</time>
      </trkpt>
      <trkpt lat="48.05043" lon="7.5922">
        <ele>184.71</ele>
        <time>2017-01-04T10:18:52Z</time>
      </trkpt>
      <trkpt lat="48.0505" lon="7.59208">
        <ele>184.71</ele>
        <time>2017-01-04T10:19:01Z</time>
      </trkpt>
      <trkpt lat="48.05057" lon="7.59198">
        <ele>185.67</ele>
        <time>2017-01-04T10:19:09Z</time>
      </trkpt>
      <trkpt lat="48.05064" lon="7.59188">
        <ele>184.23</ele>
        <time>2017-01-04T10:19:17Z</time>
      </trkpt>
      <trkpt lat="48.05071" lon="7.59176">
        <ele>185.19</ele>
        <time>2017-01-04T10:19:25Z</time>
      </trkpt>
      <trkpt lat="48.05077" lon="7.59166">
        <ele>185.19</ele>
        <time>2017-01-04T10:19:33Z</time>
      </trkpt>
      <trkpt lat="48.05083" lon="7.59154">
        <ele>186.63</ele>
        <time>2017-01-04T10:19:41Z</time>
      </trkpt>
      <trkpt lat="48.05089" lon="7.59143">
        <ele>186.15</ele>
        <time>2017-01-04T10:19:49Z</time>
      </trkpt>
      <trkpt lat="48.05091" lon="7.59129">
        <ele>185.19</ele>
        <time>2017-01-04T10:19:57Z</time>
      </trkpt>
      <trkpt lat="48.05085" lon="7.59119">
        <ele>184.23</ele>
        <time>2017-01-04T10:20:05Z</time>
      </trkpt>
      <trkpt lat="48.05076" lon="7.59115">
        <ele>183.75</ele>
        <time>2017-01-04T10:20:12Z</time>
      </trkpt>
      <trkpt lat="48.05067" lon="7.5911">
        <ele>185.67</ele>
        <time>2017-01-04T10:20:20Z</time>
      </trkpt>
      <trkpt lat="48.05058" lon="7.59106">
        <ele>183.27</ele>
        <time>2017-01-04T10:20:28Z</time>
      </trkpt>
      <trkpt lat="48.05049" lon="7.59102">
        <ele>185.19</ele>
        <time>2017-01-04T10:20:35Z</time>
      </trkpt>
      <trkpt lat="48.05041" lon="7.59096">
        <ele>186.15</ele>
        <time>2017-01-04T10:20:42Z</time>
      </trkpt>
      <trkpt lat="48.05032" lon="7.59092">
        <ele>187.59</ele>
        <time>2017-01-04T10:20:50Z</time>
      </trkpt>
      <trkpt lat="48.05022" lon="7.59087">
        <ele>184.71</ele>
        <time>2017-01-04T10:20:58Z</time>
      </trkpt>
      <trkpt lat="48.05013" lon="7.5908">
        <ele>184.71</ele>
        <time>2017-01-04T10:21:06Z</time>
      </trkpt>
      <trkpt lat="48.05004" lon="7.59075">
        <ele>183.75</ele>
        <time>2017-01-04T10:21:14Z</time>
      </trkpt>
      <trkpt lat="48.04995" lon="7.5907">
        <ele>187.11</ele>
        <time>2017-01-04T10:21:22Z</time>
      </trkpt>
      <trkpt lat="48.04986" lon="7.59063">
        <ele>185.67</ele>
        <time>2017-01-04T10:21:30Z</time>
      </trkpt>
      <trkpt lat="48.04976" lon="7.59057">
        <ele>184.23</ele>
        <time>2017-01-04T10:21:38Z</time>
      </trkpt>
      <trkpt lat="48.04967" lon="7.59051">
        <ele>184.23</ele>
        <time>2017-01-04T10:21:46Z</time>
      </trkpt>
      <trkpt lat="48.04959" lon="7.59045">
        <ele>186.15</ele>
        <time>2017-01-04T10:21:54Z</time>
      </trkpt>
      <trkpt lat="48.0495" lon="7.59039">
        <ele>187.11</ele>
        <time>2017-01-04T10:22:02Z</time>
      </trkpt>
      <trkpt lat="48.0494" lon="7.59033">
        <ele>187.59</ele>
        <time>2017-01-04T10:22:10Z</time>
      </trkpt>
      <trkpt lat="48.04932" lon="7.59026">
        <ele>184.71</ele>
        <time>2017-01-04T10:22:18Z</time>
      </trkpt>
      <trkpt lat="48.04923" lon="7.5902">
        <ele>186.63</ele>
        <time>2017-01-04T10:22:26Z</time>
      </trkpt>
      <trkpt lat="48.04913" lon="7.59013">
        <ele>184.71</ele>
        <time>2017-01-04T10:22:34Z</time>
      </trkpt>
      <trkpt lat="48.04906" lon="7.59007">
        <ele>184.23</ele>
        <time>2017-01-04T10:22:41Z</time>
      </trkpt>
      <trkpt lat="48.04897" lon="7.59">
        <ele>186.15</ele>
        <time>2017-01-04T10:22:49Z</time>
      </trkpt>
      <trkpt lat="48.04889" lon="7.58992">
        <ele>187.11</ele>
        <time>2017-01-04T10:22:57Z</time>
      </trkpt>
      <trkpt lat="48.0488" lon="7.58986">
        <ele>184.71</ele>
        <time>2017-01-04T10:23:05Z</time>
      </trkpt>
      <trkpt lat="48.04872" lon="7.58979">
        <ele>187.11</ele>
        <time>2017-01-04T10:23:12Z</time>
      </trkpt>
      <trkpt lat="48.04864" lon="7.58972">
        <ele>185.67</ele>
        <time>2017-01-04T10:23:20Z</time>
      </trkpt>
      <trkpt lat="48.04856" lon="7.58967">
        <ele>188.08</ele>
        <time>2017-01-04T10:23:27Z</time>
      </trkpt>
      <trkpt lat="48.04847" lon="7.58959">
        <ele>186.63</ele>
        <time>2017-01-04T10:23:35Z</time>
      </trkpt>
      <trkpt lat="48.04839" lon="7.58953">
        <ele>186.15</ele>
        <time>2017-01-04T10:23:43Z</time>
      </trkpt>
      <trkpt lat="48.0483" lon="7.58946">
        <ele>186.15</ele>
        <time>2017-01-04T10:23:51Z</time>
      </trkpt>
      <trkpt lat="48.04822" lon="7.58938">
        <ele>186.15</ele>
        <time>2017-01-04T10:23:59Z</time>
      </trkpt>
      <trkpt lat="48.04813" lon="7.58931">
        <ele>185.19</ele>
        <time>2017-01-04T10:24:07Z</time>
      </trkpt>
      <trkpt lat="48.04805" lon="7.58926">
        <ele>186.63</ele>
        <time>2017-01-04T10:24:14Z</time>
      </trkpt>
      <trkpt lat="48.04797" lon="7.58918">
        <ele>185.19</ele>
        <time>2017-01-04T10:24:22Z</time>
      </trkpt>
      <trkpt lat="48.04788" lon="7.58911">
        <ele>185.67</ele>
        <time>2017-01-04T10:24:30Z</time>
      </trkpt>
      <trkpt lat="48.04779" lon="7.58906">
        <ele>188.56</ele>
        <time>2017-01-04T10:24:37Z</time>
      </trkpt>
      <trkpt lat="48.04772" lon="7.58899">
        <ele>186.63</ele>
        <time>2017-01-04T10:24:44Z</time>
      </trkpt>
      <trkpt lat="48.04764" lon="7.58893">
        <ele>187.11</ele>
        <time>2017-01-04T10:24:52Z</time>
      </trkpt>
      <trkpt lat="48.04755" lon="7.58887">
        <ele>187.59</ele>
        <time>2017-01-04T10:24:59Z</time>
      </trkpt>
      <trkpt lat="48.04747" lon="7.58881">
        <ele>185.67</ele>
        <time>2017-01-04T10:25:06Z</time>
      </trkpt>
      <trkpt lat="48.04737" lon="7.58874">
        <ele>186.15</ele>
        <time>2017-01-04T10:25:14Z</time>
      </trkpt>
      <trkpt lat="48.04729" lon="7.58867">
        <ele>185.67</ele>
        <time>2017-01-04T10:25:21Z</time>
      </trkpt>
      <trkpt lat="48.0472" lon="7.5886">
        <ele>187.11</ele>
        <time>2017-01-04T10:25:29Z</time>
      </trkpt>
      <trkpt lat="48.04712" lon="7.58854">
        <ele>185.19</ele>
        <time>2017-01-04T10:25:37Z</time>
      </trkpt>
      <trkpt lat="48.04704" lon="7.5885">
        <ele>185.67</ele>
        <time>2017-01-04T10:25:44Z</time>
      </trkpt>
      <trkpt lat="48.04694" lon="7.58843">
        <ele>187.59</ele>
        <time>2017-01-04T10:25:52Z</time>
      </trkpt>
      <trkpt lat="48.04686" lon="7.58839">
        <ele>188.08</ele>
        <time>2017-01-04T10:25:59Z</time>
      </trkpt>
      <trkpt lat="48.04678" lon="7.58834">
        <ele>189.52</ele>
        <time>2017-01-04T10:26:06Z</time>
      </trkpt>
      <trkpt lat="48.0467" lon="7.58829">
        <ele>185.19</ele>
        <time>2017-01-04T10:26:13Z</time>
      </trkpt>
      <trkpt lat="48.04662" lon="7.58823">
        <ele>185.19</ele>
        <time>2017-01-04T10:26:20Z</time>
      </trkpt>
      <trkpt lat="48.04654" lon="7.58819">
        <ele>186.15</ele>
        <time>2017-01-04T10:26:27Z</time>
      </trkpt>
      <trkpt lat="48.04645" lon="7.58813">
        <ele>187.59</ele>
        <time>2017-01-04T10:26:35Z</time>
      </trkpt>
      <trkpt lat="48.04636" lon="7.58809">
        <ele>187.11</ele>
        <time>2017-01-04T10:26:42Z</time>
      </trkpt>
      <trkpt lat="48.04626" lon="7.58805">
        <ele>186.15</ele>
        <time>2017-01-04T10:26:50Z</time>
      </trkpt>
      <trkpt lat="48.04618" lon="7.58799">
        <ele>186.15</ele>
        <time>2017-01-04T10:26:57Z</time>
      </trkpt>
      <trkpt lat="48.04609" lon="7.58796">
        <ele>186.63</ele>
        <time>2017-01-04T10:27:04Z</time>
      </trkpt>
      <trkpt lat="48.046" lon="7.58792">
        <ele>187.11</ele>
        <time>2017-01-04T10:27:11Z</time>
      </trkpt>
      <trkpt lat="48.04592" lon="7.58788">
        <ele>185.19</ele>
        <time>2017-01-04T10:27:18Z</time>
      </trkpt>
      <trkpt lat="48.04583" lon="7.58784">
        <ele>187.59</ele>
        <time>2017-01-04T10:27:25Z</time>
      </trkpt>
      <trkpt lat="48.04574" lon="7.58781">
        <ele>188.56</ele>
        <time>2017-01-04T10:27:32Z</time>
      </trkpt>
      <trkpt lat="48.04565" lon="7.58778">
        <ele>188.08</ele>
        <time>2017-01-04T10:27:39Z</time>
      </trkpt>
      <trkpt lat="48.04556" lon="7.58775">
        <ele>187.11</ele>
        <time>2017-01-04T10:27:46Z</time>
      </trkpt>
      <trkpt lat="48.04547" lon="7.58772">
        <ele>186.63</ele>
        <time>2017-01-04T10:27:53Z</time>
      </trkpt>
      <trkpt lat="48.04538" lon="7.58769">
        <ele>187.11</ele>
        <time>2017-01-04T10:28:00Z</time>
      </trkpt>
      <trkpt lat="48.04529" lon="7.58766">
        <ele>186.63</ele>
        <time>2017-01-04T10:28:09Z</time>
      </trkpt>
      <trkpt lat="48.0452" lon="7.58762">
        <ele>188.08</ele>
        <time>2017-01-04T10:28:16Z</time>
      </trkpt>
      <trkpt lat="48.04511" lon="7.58759">
        <ele>188.08</ele>
        <time>2017-01-04T10:28:23Z</time>
      </trkpt>
      <trkpt lat="48.045" lon="7.58758">
        <ele>189.04</ele>
        <time>2017-01-04T10:28:32Z</time>
      </trkpt>
      <trkpt lat="48.04487" lon="7.58754">
        <ele>188.08</ele>
        <time>2017-01-04T10:28:43Z</time>
      </trkpt>
      <trkpt lat="48.04473" lon="7.58752">
        <ele>186.63</ele>
        <time>2017-01-04T10:28:53Z</time>
      </trkpt>
      <trkpt lat="48.04462" lon="7.58749">
        <ele>187.11</ele>
        <time>2017-01-04T10:29:02Z</time>
      </trkpt>
      <trkpt lat="48.04452" lon="7.58748">
        <ele>187.11</ele>
        <time>2017-01-04T10:29:10Z</time>
      </trkpt>
      <trkpt lat="48.04441" lon="7.58747">
        <ele>186.15</ele>
        <time>2017-01-04T10:29:19Z</time>
      </trkpt>
      <trkpt lat="48.04442" lon="7.5875">
        <ele>185.67</ele>
        <time>2017-01-04T10:30:27Z</time>
      </trkpt>
      <trkpt lat="48.04437" lon="7.58761">
        <ele>186.63</ele>
        <time>2017-01-04T10:30:37Z</time>
      </trkpt>
      <trkpt lat="48.04429" lon="7.5877">
        <ele>186.63</ele>
        <time>2017-01-04T10:30:47Z</time>
      </trkpt>
      <trkpt lat="48.0442" lon="7.58778">
        <ele>187.11</ele>
        <time>2017-01-04T10:30:56Z</time>
      </trkpt>
      <trkpt lat="48.04412" lon="7.58785">
        <ele>187.59</ele>
        <time>2017-01-04T10:31:05Z</time>
      </trkpt>
      <trkpt lat="48.04404" lon="7.58793">
        <ele>188.56</ele>
        <time>2017-01-04T10:31:14Z</time>
      </trkpt>
      <trkpt lat="48.04397" lon="7.58801">
        <ele>187.59</ele>
        <time>2017-01-04T10:31:22Z</time>
      </trkpt>
      <trkpt lat="48.04389" lon="7.5881">
        <ele>185.67</ele>
        <time>2017-01-04T10:31:31Z</time>
      </trkpt>
      <trkpt lat="48.04379" lon="7.58816">
        <ele>186.15</ele>
        <time>2017-01-04T10:31:40Z</time>
      </trkpt>
      <trkpt lat="48.04371" lon="7.58828">
        <ele>188.08</ele>
        <time>2017-01-04T10:31:49Z</time>
      </trkpt>
      <trkpt lat="48.04362" lon="7.58838">
        <ele>187.59</ele>
        <time>2017-01-04T10:31:58Z</time>
      </trkpt>
      <trkpt lat="48.04353" lon="7.58846">
        <ele>187.11</ele>
        <time>2017-01-04T10:32:06Z</time>
      </trkpt>
      <trkpt lat="48.04346" lon="7.58853">
        <ele>189.04</ele>
        <time>2017-01-04T10:32:14Z</time>
      </trkpt>
      <trkpt lat="48.04337" lon="7.58863">
        <ele>185.67</ele>
        <time>2017-01-04T10:32:23Z</time>
      </trkpt>
      <trkpt lat="48.04328" lon="7.58873">
        <ele>186.63</ele>
        <time>2017-01-04T10:32:32Z</time>
      </trkpt>
      <trkpt lat="48.0432" lon="7.58883">
        <ele>186.63</ele>
        <time>2017-01-04T10:32:42Z</time>
      </trkpt>
      <trkpt lat="48.0431" lon="7.5888">
        <ele>186.15</ele>
        <time>2017-01-04T10:32:53Z</time>
      </trkpt>
      <trkpt lat="48.04298" lon="7.58873">
        <ele>187.11</ele>
        <time>2017-01-04T10:33:02Z</time>
      </trkpt>
      <trkpt lat="48.04288" lon="7.58867">
        <ele>186.63</ele>
        <time>2017-01-04T10:33:11Z</time>
      </trkpt>
      <trkpt lat="48.04279" lon="7.5886">
        <ele>187.11</ele>
        <time>2017-01-04T10:33:22Z</time>
      </trkpt>
      <trkpt lat="48.0427" lon="7.58864">
        <ele>186.63</ele>
        <time>2017-01-04T10:34:06Z</time>
      </trkpt>
      <trkpt lat="48.04261" lon="7.58872">
        <ele>188.08</ele>
        <time>2017-01-04T10:34:14Z</time>
      </trkpt>
      <trkpt lat="48.04252" lon="7.5888">
        <ele>188.08</ele>
        <time>2017-01-04T10:34:23Z</time>
      </trkpt>
      <trkpt lat="48.04243" lon="7.58889">
        <ele>187.11</ele>
        <time>2017-01-04T10:34:33Z</time>
      </trkpt>
      <trkpt lat="48.04235" lon="7.58898">
        <ele>187.11</ele>
        <time>2017-01-04T10:34:43Z</time>
      </trkpt>
      <trkpt lat="48.04226" lon="7.58903">
        <ele>186.15</ele>
        <time>2017-01-04T10:35:09Z</time>
      </trkpt>
      <trkpt lat="48.04215" lon="7.58903">
        <ele>187.11</ele>
        <time>2017-01-04T10:35:18Z</time>
      </trkpt>
      <trkpt lat="48.04206" lon="7.58903">
        <ele>187.11</ele>
        <time>2017-01-04T10:35:27Z</time>
      </trkpt>
      <trkpt lat="48.04196" lon="7.58901">
        <ele>189.52</ele>
        <time>2017-01-04T10:35:34Z</time>
      </trkpt>
      <trkpt lat="48.04186" lon="7.58899">
        <ele>187.59</ele>
        <time>2017-01-04T10:35:43Z</time>
      </trkpt>
      <trkpt lat="48.04176" lon="7.58896">
        <ele>188.08</ele>
        <time>2017-01-04T10:35:55Z</time>
      </trkpt>
      <trkpt lat="48.04166" lon="7.58886">
        <ele>186.63</ele>
        <time>2017-01-04T10:36:04Z</time>
      </trkpt>
      <trkpt lat="48.04161" lon="7.58874">
        <ele>187.11</ele>
        <time>2017-01-04T10:36:16Z</time>
      </trkpt>
      <trkpt lat="48.0417" lon="7.58861">
        <ele>188.08</ele>
        <time>2017-01-04T10:36:27Z</time>
      </trkpt>
      <trkpt lat="48.04177" lon="7.58848">
        <ele>190</ele>
        <time>2017-01-04T10:36:38Z</time>
      </trkpt>
      <trkpt lat="48.04184" lon="7.58834">
        <ele>190.96</ele>
        <time>2017-01-04T10:36:48Z</time>
      </trkpt>
      <trkpt lat="48.0419" lon="7.5882">
        <ele>192.88</ele>
        <time>2017-01-04T10:36:58Z</time>
      </trkpt>
      <trkpt lat="48.04198" lon="7.58807">
        <ele>192.88</ele>
        <time>2017-01-04T10:37:08Z</time>
      </trkpt>
      <trkpt lat="48.04199" lon="7.58791">
        <ele>192.88</ele>
        <time>2017-01-04T10:37:18Z</time>
      </trkpt>
      <trkpt lat="48.04196" lon="7.58776">
        <ele>194.32</ele>
        <time>2017-01-04T10:37:29Z</time>
      </trkpt>
      <trkpt lat="48.04193" lon="7.58758">
        <ele>194.8</ele>
        <time>2017-01-04T10:37:41Z</time>
      </trkpt>
      <trkpt lat="48.04191" lon="7.58742">
        <ele>195.77</ele>
        <time>2017-01-04T10:37:52Z</time>
      </trkpt>
      <trkpt lat="48.0419" lon="7.58728">
        <ele>196.73</ele>
        <time>2017-01-04T10:38:14Z</time>
      </trkpt>
      <trkpt lat="48.04203" lon="7.58724">
        <ele>193.36</ele>
        <time>2017-01-04T10:38:30Z</time>
      </trkpt>
      <trkpt lat="48.04218" lon="7.58721">
        <ele>191.44</ele>
        <time>2017-01-04T10:38:48Z</time>
      </trkpt>
      <trkpt lat="48.04226" lon="7.58713">
        <ele>191.44</ele>
        <time>2017-01-04T10:39:18Z</time>
      </trkpt>
      <trkpt lat="48.04233" lon="7.58691">
        <ele>189.52</ele>
        <time>2017-01-04T10:39:32Z</time>
      </trkpt>
      <trkpt lat="48.04242" lon="7.58681">
        <ele>190</ele>
        <time>2017-01-04T10:39:44Z</time>
      </trkpt>
      <trkpt lat="48.04251" lon="7.58662">
        <ele>189.52</ele>
        <time>2017-01-04T10:39:55Z</time>
      </trkpt>
      <trkpt lat="48.04258" lon="7.58644">
        <ele>188.08</ele>
        <time>2017-01-04T10:40:05Z</time>
      </trkpt>
      <trkpt lat="48.04256" lon="7.5863">
        <ele>189.04</ele>
        <time>2017-01-04T10:40:15Z</time>
      </trkpt>
      <trkpt lat="48.04257" lon="7.58613">
        <ele>189.04</ele>
        <time>2017-01-04T10:40:26Z</time>
      </trkpt>
      <trkpt lat="48.04257" lon="7.58594">
        <ele>190</ele>
        <time>2017-01-04T10:40:36Z</time>
      </trkpt>
      <trkpt lat="48.04256" lon="7.58575">
        <ele>190.48</ele>
        <time>2017-01-04T10:40:48Z</time>
      </trkpt>
      <trkpt lat="48.04259" lon="7.58555">
        <ele>190.96</ele>
        <time>2017-01-04T10:41:02Z</time>
      </trkpt>
      <trkpt lat="48.04259" lon="7.58535">
        <ele>190.96</ele>
        <time>2017-01-04T10:41:13Z</time>
      </trkpt>
      <trkpt lat="48.04258" lon="7.58517">
        <ele>190.48</ele>
        <time>2017-01-04T10:41:23Z</time>
      </trkpt>
      <trkpt lat="48.04251" lon="7.58503">
        <ele>189.52</ele>
        <time>2017-01-04T10:41:33Z</time>
      </trkpt>
      <trkpt lat="48.04256" lon="7.5849">
        <ele>189.52</ele>
        <time>2017-01-04T10:41:44Z</time>
      </trkpt>
      <trkpt lat="48.04259" lon="7.58474">
        <ele>190</ele>
        <time>2017-01-04T10:41:53Z</time>
      </trkpt>
      <trkpt lat="48.04263" lon="7.58458">
        <ele>190</ele>
        <time>2017-01-04T10:42:03Z</time>
      </trkpt>
      <trkpt lat="48.04266" lon="7.58443">
        <ele>189.52</ele>
        <time>2017-01-04T10:42:14Z</time>
      </trkpt>
      <trkpt lat="48.04262" lon="7.58424">
        <ele>190.96</ele>
        <time>2017-01-04T10:42:24Z</time>
      </trkpt>
      <trkpt lat="48.04261" lon="7.58405">
        <ele>190.96</ele>
        <time>2017-01-04T10:42:33Z</time>
      </trkpt>
      <trkpt lat="48.0426" lon="7.58386">
        <ele>191.92</ele>
        <time>2017-01-04T10:42:42Z</time>
      </trkpt>
      <trkpt lat="48.04256" lon="7.5837">
        <ele>190</ele>
        <time>2017-01-04T10:42:52Z</time>
      </trkpt>
      <trkpt lat="48.04254" lon="7.58354">
        <ele>191.44</ele>
        <time>2017-01-04T10:43:02Z</time>
      </trkpt>
      <trkpt lat="48.04251" lon="7.5834">
        <ele>190.48</ele>
        <time>2017-01-04T10:43:13Z</time>
      </trkpt>
      <trkpt lat="48.0425" lon="7.58331">
        <ele>190</ele>
        <time>2017-01-04T10:43:30Z</time>
      </trkpt>
      <trkpt lat="48.04254" lon="7.5831">
        <ele>190.96</ele>
        <time>2017-01-04T10:43:42Z</time>
      </trkpt>
      <trkpt lat="48.04256" lon="7.58293">
        <ele>191.44</ele>
        <time>2017-01-04T10:43:52Z</time>
      </trkpt>
      <trkpt lat="48.04257" lon="7.58273">
        <ele>190.96</ele>
        <time>2017-01-04T10:44:04Z</time>
      </trkpt>
      <trkpt lat="48.0426" lon="7.58249">
        <ele>190.96</ele>
        <time>2017-01-04T10:44:15Z</time>
      </trkpt>
      <trkpt lat="48.04261" lon="7.58231">
        <ele>188.08</ele>
        <time>2017-01-04T10:44:26Z</time>
      </trkpt>
      <trkpt lat="48.04257" lon="7.58214">
        <ele>190</ele>
        <time>2017-01-04T10:44:36Z</time>
      </trkpt>
      <trkpt lat="48.04255" lon="7.58199">
        <ele>191.44</ele>
        <time>2017-01-04T10:44:45Z</time>
      </trkpt>
      <trkpt lat="48.04255" lon="7.58179">
        <ele>191.44</ele>
        <time>2017-01-04T10:44:57Z</time>
      </trkpt>
      <trkpt lat="48.04255" lon="7.58161">
        <ele>190</ele>
        <time>2017-01-04T10:45:09Z</time>
      </trkpt>
      <trkpt lat="48.04257" lon="7.58143">
        <ele>189.52</ele>
        <time>2017-01-04T10:45:21Z</time>
      </trkpt>
      <trkpt lat="48.04259" lon="7.58126">
        <ele>190.48</ele>
        <time>2017-01-04T10:45:32Z</time>
      </trkpt>
      <trkpt lat="48.0426" lon="7.5811">
        <ele>189.52</ele>
        <time>2017-01-04T10:45:42Z</time>
      </trkpt>
      <trkpt lat="48.0426" lon="7.58094">
        <ele>189.52</ele>
        <time>2017-01-04T10:45:52Z</time>
      </trkpt>
      <trkpt lat="48.04265" lon="7.58078">
        <ele>190.96</ele>
        <time>2017-01-04T10:46:02Z</time>
      </trkpt>
      <trkpt lat="48.04265" lon="7.58063">
        <ele>189.04</ele>
        <time>2017-01-04T10:46:11Z</time>
      </trkpt>
      <trkpt lat="48.04268" lon="7.58048">
        <ele>188.56</ele>
        <time>2017-01-04T10:46:20Z</time>
      </trkpt>
      <trkpt lat="48.04272" lon="7.58033">
        <ele>190.96</ele>
        <time>2017-01-04T10:46:30Z</time>
      </trkpt>
      <trkpt lat="48.04277" lon="7.58021">
        <ele>190.48</ele>
        <time>2017-01-04T10:46:40Z</time>
      </trkpt>
      <trkpt lat="48.04286" lon="7.58012">
        <ele>191.44</ele>
        <time>2017-01-04T10:46:49Z</time>
      </trkpt>
      <trkpt lat="48.0429" lon="7.57999">
        <ele>191.44</ele>
        <time>2017-01-04T10:46:58Z</time>
      </trkpt>
      <trkpt lat="48.04293" lon="7.57985">
        <ele>190.48</ele>
        <time>2017-01-04T10:47:08Z</time>
      </trkpt>
      <trkpt lat="48.04302" lon="7.57972">
        <ele>190.48</ele>
        <time>2017-01-04T10:47:21Z</time>
      </trkpt>
      <trkpt lat="48.04311" lon="7.57953">
        <ele>190.96</ele>
        <time>2017-01-04T10:47:32Z</time>
      </trkpt>
      <trkpt lat="48.04315" lon="7.57934">
        <ele>191.44</ele>
        <time>2017-01-04T10:47:42Z</time>
      </trkpt>
      <trkpt lat="48.04316" lon="7.57918">
        <ele>189.04</ele>
        <time>2017-01-04T10:47:52Z</time>
      </trkpt>
      <trkpt lat="48.04314" lon="7.579">
        <ele>192.4</ele>
        <time>2017-01-04T10:48:04Z</time>
      </trkpt>
      <trkpt lat="48.04313" lon="7.57881">
        <ele>191.92</ele>
        <time>2017-01-04T10:48:15Z</time>
      </trkpt>
      <trkpt lat="48.04314" lon="7.57862">
        <ele>191.92</ele>
        <time>2017-01-04T10:48:27Z</time>
      </trkpt>
      <trkpt lat="48.04312" lon="7.57846">
        <ele>190</ele>
        <time>2017-01-04T10:48:37Z</time>
      </trkpt>
      <trkpt lat="48.04312" lon="7.57827">
        <ele>190</ele>
        <time>2017-01-04T10:48:47Z</time>
      </trkpt>
      <trkpt lat="48.04313" lon="7.5781">
        <ele>189.04</ele>
        <time>2017-01-04T10:48:56Z</time>
      </trkpt>
      <trkpt lat="48.04311" lon="7.57796">
        <ele>190.48</ele>
        <time>2017-01-04T10:49:05Z</time>
      </trkpt>
      <trkpt lat="48.04314" lon="7.57778">
        <ele>191.44</ele>
        <time>2017-01-04T10:49:15Z</time>
      </trkpt>
      <trkpt lat="48.04314" lon="7.57763">
        <ele>190.48</ele>
        <time>2017-01-04T10:49:26Z</time>
      </trkpt>
      <trkpt lat="48.04312" lon="7.57744">
        <ele>191.44</ele>
        <time>2017-01-04T10:49:37Z</time>
      </trkpt>
      <trkpt lat="48.04311" lon="7.57726">
        <ele>191.92</ele>
        <time>2017-01-04T10:49:46Z</time>
      </trkpt>
      <trkpt lat="48.04312" lon="7.57711">
        <ele>190.96</ele>
        <time>2017-01-04T10:49:57Z</time>
      </trkpt>
      <trkpt lat="48.04313" lon="7.57695">
        <ele>189.52</ele>
        <time>2017-01-04T10:50:06Z</time>
      </trkpt>
      <trkpt lat="48.04315" lon="7.57677">
        <ele>192.4</ele>
        <time>2017-01-04T10:50:17Z</time>
      </trkpt>
      <trkpt lat="48.04315" lon="7.57658">
        <ele>189.52</ele>
        <time>2017-01-04T10:50:28Z</time>
      </trkpt>
      <trkpt lat="48.04315" lon="7.5764">
        <ele>190</ele>
        <time>2017-01-04T10:50:37Z</time>
      </trkpt>
      <trkpt lat="48.04315" lon="7.57624">
        <ele>190.96</ele>
        <time>2017-01-04T10:50:46Z</time>
      </trkpt>
      <trkpt lat="48.04315" lon="7.57606">
        <ele>190.96</ele>
        <time>2017-01-04T10:50:58Z</time>
      </trkpt>
      <trkpt lat="48.04317" lon="7.57598">
        <ele>192.88</ele>
        <time>2017-01-04T10:51:50Z</time>
      </trkpt>
      <trkpt lat="48.04327" lon="7.57592">
        <ele>190.48</ele>
        <time>2017-01-04T10:52:08Z</time>
      </trkpt>
      <trkpt lat="48.04341" lon="7.57591">
        <ele>190.96</ele>
        <time>2017-01-04T10:52:20Z</time>
      </trkpt>
      <trkpt lat="48.04354" lon="7.57593">
        <ele>190.96</ele>
        <time>2017-01-04T10:52:32Z</time>
      </trkpt>
      <trkpt lat="48.04367" lon="7.57595">
        <ele>192.4</ele>
        <time>2017-01-04T10:52:44Z</time>
      </trkpt>
      <trkpt lat="48.04378" lon="7.57589">
        <ele>191.92</ele>
        <time>2017-01-04T10:52:56Z</time>
      </trkpt>
      <trkpt lat="48.04391" lon="7.57584">
        <ele>190.96</ele>
        <time>2017-01-04T10:53:08Z</time>
      </trkpt>
      <trkpt lat="48.04403" lon="7.57584">
        <ele>190.96</ele>
        <time>2017-01-04T10:53:21Z</time>
      </trkpt>
      <trkpt lat="48.04411" lon="7.57581">
        <ele>191.92</ele>
        <time>2017-01-04T10:53:43Z</time>
      </trkpt>
      <trkpt lat="48.04425" lon="7.5758">
        <ele>190.96</ele>
        <time>2017-01-04T10:53:54Z</time>
      </trkpt>
      <trkpt lat="48.04437" lon="7.57579">
        <ele>193.36</ele>
        <time>2017-01-04T10:54:05Z</time>
      </trkpt>
      <trkpt lat="48.04448" lon="7.57581">
        <ele>192.88</ele>
        <time>2017-01-04T10:54:16Z</time>
      </trkpt>
      <trkpt lat="48.0446" lon="7.57586">
        <ele>192.4</ele>
        <time>2017-01-04T10:54:27Z</time>
      </trkpt>
      <trkpt lat="48.04472" lon="7.57594">
        <ele>191.44</ele>
        <time>2017-01-04T10:54:39Z</time>
      </trkpt>
      <trkpt lat="48.04487" lon="7.57604">
        <ele>192.4</ele>
        <time>2017-01-04T10:54:53Z</time>
      </trkpt>
      <trkpt lat="48.04498" lon="7.57613">
        <ele>191.92</ele>
        <time>2017-01-04T10:55:05Z</time>
      </trkpt>
      <trkpt lat="48.04512" lon="7.57621">
        <ele>192.88</ele>
        <time>2017-01-04T10:55:17Z</time>
      </trkpt>
      <trkpt lat="48.04524" lon="7.57629">
        <ele>191.44</ele>
        <time>2017-01-04T10:55:27Z</time>
      </trkpt>
      <trkpt lat="48.04529" lon="7.57631">
        <ele>191.44</ele>
        <time>2017-01-04T10:55:56Z</time>
      </trkpt>
      <trkpt lat="48.04543" lon="7.57644">
        <ele>192.4</ele>
        <time>2017-01-04T10:56:07Z</time>
      </trkpt>
      <trkpt lat="48.04553" lon="7.57654">
        <ele>190.48</ele>
        <time>2017-01-04T10:56:17Z</time>
      </trkpt>
      <trkpt lat="48.04565" lon="7.57657">
        <ele>191.92</ele>
        <time>2017-01-04T10:56:28Z</time>
      </trkpt>
      <trkpt lat="48.04577" lon="7.57657">
        <ele>191.44</ele>
        <time>2017-01-04T10:56:41Z</time>
      </trkpt>
      <trkpt lat="48.04581" lon="7.57657">
        <ele>192.4</ele>
        <time>2017-01-04T10:57:02Z</time>
      </trkpt>
      <trkpt lat="48.04577" lon="7.57638">
        <ele>193.84</ele>
        <time>2017-01-04T10:57:15Z</time>
      </trkpt>
      <trkpt lat="48.04574" lon="7.57619">
        <ele>192.4</ele>
        <time>2017-01-04T10:57:27Z</time>
      </trkpt>
      <trkpt lat="48.0457" lon="7.57602">
        <ele>191.92</ele>
        <time>2017-01-04T10:57:39Z</time>
      </trkpt>
      <trkpt lat="48.04565" lon="7.57582">
        <ele>192.4</ele>
        <time>2017-01-04T10:57:51Z</time>
      </trkpt>
      <trkpt lat="48.04561" lon="7.57567">
        <ele>191.92</ele>
        <time>2017-01-04T10:58:03Z</time>
      </trkpt>
      <trkpt lat="48.04554" lon="7.5755">
        <ele>192.4</ele>
        <time>2017-01-04T10:58:19Z</time>
      </trkpt>
      <trkpt lat="48.04547" lon="7.57538">
        <ele>192.4</ele>
        <time>2017-01-04T10:58:32Z</time>
      </trkpt>
      <trkpt lat="48.04541" lon="7.57526">
        <ele>193.84</ele>
        <time>2017-01-04T10:58:44Z</time>
      </trkpt>
      <trkpt lat="48.04535" lon="7.57513">
        <ele>191.44</ele>
        <time>2017-01-04T10:58:55Z</time>
      </trkpt>
      <trkpt lat="48.04528" lon="7.57497">
        <ele>193.84</ele>
        <time>2017-01-04T10:59:07Z</time>
      </trkpt>
      <trkpt lat="48.04521" lon="7.57478">
        <ele>192.4</ele>
        <time>2017-01-04T10:59:18Z</time>
      </trkpt>
      <trkpt lat="48.04514" lon="7.57467">
        <ele>192.4</ele>
        <time>2017-01-04T10:59:30Z</time>
      </trkpt>
      <trkpt lat="48.04508" lon="7.57447">
        <ele>192.4</ele>
        <time>2017-01-04T10:59:42Z</time>
      </trkpt>
      <trkpt lat="48.04497" lon="7.57434">
        <ele>190</ele>
        <time>2017-01-04T10:59:54Z</time>
      </trkpt>
      <trkpt lat="48.04489" lon="7.57426">
        <ele>189.04</ele>
        <time>2017-01-04T11:00:07Z</time>
      </trkpt>
      <trkpt lat="48.04483" lon="7.57411">
        <ele>187.59</ele>
        <time>2017-01-04T11:00:17Z</time>
      </trkpt>
      <trkpt lat="48.04475" lon="7.57396">
        <ele>189.52</ele>
        <time>2017-01-04T11:00:29Z</time>
      </trkpt>
      <trkpt lat="48.04464" lon="7.57393">
        <ele>189.04</ele>
        <time>2017-01-04T11:00:39Z</time>
      </trkpt>
      <trkpt lat="48.04451" lon="7.57389">
        <ele>191.44</ele>
        <time>2017-01-04T11:00:52Z</time>
      </trkpt>
      <trkpt lat="48.0444" lon="7.57383">
        <ele>189.04</ele>
        <time>2017-01-04T11:01:02Z</time>
      </trkpt>
      <trkpt lat="48.04431" lon="7.57377">
        <ele>189.52</ele>
        <time>2017-01-04T11:01:12Z</time>
      </trkpt>
      <trkpt lat="48.04421" lon="7.57369">
        <ele>188.56</ele>
        <time>2017-01-04T11:01:22Z</time>
      </trkpt>
      <trkpt lat="48.04411" lon="7.57364">
        <ele>189.52</ele>
        <time>2017-01-04T11:01:33Z</time>
      </trkpt>
      <trkpt lat="48.04402" lon="7.57358">
        <ele>190.96</ele>
        <time>2017-01-04T11:01:42Z</time>
      </trkpt>
      <trkpt lat="48.04391" lon="7.57354">
        <ele>189.04</ele>
        <time>2017-01-04T11:01:51Z</time>
      </trkpt>
      <trkpt lat="48.04381" lon="7.57348">
        <ele>188.08</ele>
        <time>2017-01-04T11:02:00Z</time>
      </trkpt>
      <trkpt lat="48.04372" lon="7.57343">
        <ele>189.52</ele>
        <time>2017-01-04T11:02:09Z</time>
      </trkpt>
      <trkpt lat="48.04363" lon="7.57338">
        <ele>190.96</ele>
        <time>2017-01-04T11:02:19Z</time>
      </trkpt>
      <trkpt lat="48.04353" lon="7.57334">
        <ele>188.56</ele>
        <time>2017-01-04T11:02:28Z</time>
      </trkpt>
      <trkpt lat="48.04343" lon="7.5733">
        <ele>190.96</ele>
        <time>2017-01-04T11:02:39Z</time>
      </trkpt>
      <trkpt lat="48.04336" lon="7.57316">
        <ele>191.92</ele>
        <time>2017-01-04T11:02:49Z</time>
      </trkpt>
      <trkpt lat="48.04328" lon="7.5731">
        <ele>191.44</ele>
        <time>2017-01-04T11:03:07Z</time>
      </trkpt>
      <trkpt lat="48.04327" lon="7.5731">
        <ele>190</ele>
        <time>2017-01-04T11:04:14Z</time>
      </trkpt>
      <trkpt lat="48.04327" lon="7.5731">
        <ele>191.92</ele>
        <time>2017-01-04T13:05:31Z</time>
      </trkpt>
      <trkpt lat="48.04535" lon="7.57523">
        <ele>201.53</ele>
        <time>2017-01-04T13:05:37Z</time>
      </trkpt>
      <trkpt lat="48.04545" lon="7.57538">
        <ele>201.53</ele>
        <time>2017-01-04T13:05:52Z</time>
      </trkpt>
      <trkpt lat="48.0455" lon="7.57551">
        <ele>199.61</ele>
        <time>2017-01-04T13:06:03Z</time>
      </trkpt>
      <trkpt lat="48.04554" lon="7.57564">
        <ele>198.17</ele>
        <time>2017-01-04T13:06:12Z</time>
      </trkpt>
      <trkpt lat="48.04558" lon="7.57577">
        <ele>196.25</ele>
        <time>2017-01-04T13:06:21Z</time>
      </trkpt>
      <trkpt lat="48.04566" lon="7.57589">
        <ele>192.88</ele>
        <time>2017-01-04T13:06:32Z</time>
      </trkpt>
      <trkpt lat="48.04571" lon="7.57601">
        <ele>191.92</ele>
        <time>2017-01-04T13:06:41Z</time>
      </trkpt>
      <trkpt lat="48.04574" lon="7.5762">
        <ele>195.28</ele>
        <time>2017-01-04T13:06:49Z</time>
      </trkpt>
      <trkpt lat="48.04582" lon="7.57632">
        <ele>193.84</ele>
        <time>2017-01-04T13:06:59Z</time>
      </trkpt>
      <trkpt lat="48.04587" lon="7.5766">
        <ele>196.73</ele>
        <time>2017-01-04T13:07:33Z</time>
      </trkpt>
      <trkpt lat="48.04597" lon="7.57668">
        <ele>194.32</ele>
        <time>2017-01-04T13:08:03Z</time>
      </trkpt>
      <trkpt lat="48.04607" lon="7.57675">
        <ele>194.32</ele>
        <time>2017-01-04T13:08:13Z</time>
      </trkpt>
      <trkpt lat="48.04616" lon="7.57684">
        <ele>196.25</ele>
        <time>2017-01-04T13:08:28Z</time>
      </trkpt>
      <trkpt lat="48.04625" lon="7.57693">
        <ele>194.8</ele>
        <time>2017-01-04T13:08:37Z</time>
      </trkpt>
      <trkpt lat="48.04634" lon="7.57701">
        <ele>196.25</ele>
        <time>2017-01-04T13:08:46Z</time>
      </trkpt>
      <trkpt lat="48.04642" lon="7.57711">
        <ele>196.73</ele>
        <time>2017-01-04T13:08:55Z</time>
      </trkpt>
      <trkpt lat="48.04651" lon="7.5772">
        <ele>193.84</ele>
        <time>2017-01-04T13:09:05Z</time>
      </trkpt>
      <trkpt lat="48.04664" lon="7.57733">
        <ele>194.8</ele>
        <time>2017-01-04T13:09:18Z</time>
      </trkpt>
      <trkpt lat="48.04673" lon="7.57749">
        <ele>194.8</ele>
        <time>2017-01-04T13:09:33Z</time>
      </trkpt>
      <trkpt lat="48.04683" lon="7.57756">
        <ele>194.8</ele>
        <time>2017-01-04T13:09:43Z</time>
      </trkpt>
      <trkpt lat="48.04695" lon="7.57766">
        <ele>193.36</ele>
        <time>2017-01-04T13:09:54Z</time>
      </trkpt>
      <trkpt lat="48.04706" lon="7.57774">
        <ele>194.32</ele>
        <time>2017-01-04T13:10:06Z</time>
      </trkpt>
      <trkpt lat="48.0472" lon="7.57787">
        <ele>193.84</ele>
        <time>2017-01-04T13:10:24Z</time>
      </trkpt>
      <trkpt lat="48.04731" lon="7.57797">
        <ele>196.73</ele>
        <time>2017-01-04T13:10:35Z</time>
      </trkpt>
      <trkpt lat="48.0474" lon="7.57804">
        <ele>193.84</ele>
        <time>2017-01-04T13:10:45Z</time>
      </trkpt>
      <trkpt lat="48.04748" lon="7.57815">
        <ele>195.77</ele>
        <time>2017-01-04T13:10:55Z</time>
      </trkpt>
      <trkpt lat="48.04757" lon="7.57822">
        <ele>194.32</ele>
        <time>2017-01-04T13:11:03Z</time>
      </trkpt>
      <trkpt lat="48.04766" lon="7.57828">
        <ele>193.84</ele>
        <time>2017-01-04T13:11:12Z</time>
      </trkpt>
      <trkpt lat="48.04775" lon="7.57835">
        <ele>196.25</ele>
        <time>2017-01-04T13:11:21Z</time>
      </trkpt>
      <trkpt lat="48.04783" lon="7.57841">
        <ele>194.32</ele>
        <time>2017-01-04T13:11:29Z</time>
      </trkpt>
      <trkpt lat="48.04791" lon="7.57847">
        <ele>194.32</ele>
        <time>2017-01-04T13:11:37Z</time>
      </trkpt>
      <trkpt lat="48.04798" lon="7.57856">
        <ele>194.32</ele>
        <time>2017-01-04T13:11:46Z</time>
      </trkpt>
      <trkpt lat="48.04806" lon="7.57862">
        <ele>196.25</ele>
        <time>2017-01-04T13:11:55Z</time>
      </trkpt>
      <trkpt lat="48.04814" lon="7.57868">
        <ele>194.32</ele>
        <time>2017-01-04T13:12:04Z</time>
      </trkpt>
      <trkpt lat="48.04826" lon="7.57865">
        <ele>194.32</ele>
        <time>2017-01-04T13:12:14Z</time>
      </trkpt>
      <trkpt lat="48.04836" lon="7.5786">
        <ele>194.8</ele>
        <time>2017-01-04T13:12:24Z</time>
      </trkpt>
      <trkpt lat="48.04846" lon="7.57855">
        <ele>197.69</ele>
        <time>2017-01-04T13:12:34Z</time>
      </trkpt>
      <trkpt lat="48.04856" lon="7.57849">
        <ele>195.28</ele>
        <time>2017-01-04T13:12:44Z</time>
      </trkpt>
      <trkpt lat="48.04867" lon="7.57846">
        <ele>194.32</ele>
        <time>2017-01-04T13:12:54Z</time>
      </trkpt>
      <trkpt lat="48.04877" lon="7.57847">
        <ele>196.25</ele>
        <time>2017-01-04T13:13:04Z</time>
      </trkpt>
      <trkpt lat="48.04887" lon="7.57848">
        <ele>197.69</ele>
        <time>2017-01-04T13:13:13Z</time>
      </trkpt>
      <trkpt lat="48.04896" lon="7.57851">
        <ele>197.21</ele>
        <time>2017-01-04T13:13:21Z</time>
      </trkpt>
      <trkpt lat="48.04905" lon="7.57853">
        <ele>194.32</ele>
        <time>2017-01-04T13:13:29Z</time>
      </trkpt>
      <trkpt lat="48.04915" lon="7.57857">
        <ele>193.84</ele>
        <time>2017-01-04T13:13:38Z</time>
      </trkpt>
      <trkpt lat="48.04925" lon="7.5786">
        <ele>194.32</ele>
        <time>2017-01-04T13:13:46Z</time>
      </trkpt>
      <trkpt lat="48.04934" lon="7.57862">
        <ele>194.8</ele>
        <time>2017-01-04T13:13:54Z</time>
      </trkpt>
      <trkpt lat="48.04942" lon="7.57867">
        <ele>195.28</ele>
        <time>2017-01-04T13:14:03Z</time>
      </trkpt>
      <trkpt lat="48.04952" lon="7.57868">
        <ele>196.73</ele>
        <time>2017-01-04T13:14:12Z</time>
      </trkpt>
      <trkpt lat="48.04962" lon="7.57869">
        <ele>197.21</ele>
        <time>2017-01-04T13:14:20Z</time>
      </trkpt>
      <trkpt lat="48.04971" lon="7.57873">
        <ele>196.73</ele>
        <time>2017-01-04T13:14:29Z</time>
      </trkpt>
      <trkpt lat="48.04981" lon="7.57876">
        <ele>196.73</ele>
        <time>2017-01-04T13:14:37Z</time>
      </trkpt>
      <trkpt lat="48.04991" lon="7.57879">
        <ele>194.8</ele>
        <time>2017-01-04T13:14:46Z</time>
      </trkpt>
      <trkpt lat="48.05001" lon="7.57883">
        <ele>197.69</ele>
        <time>2017-01-04T13:14:56Z</time>
      </trkpt>
      <trkpt lat="48.05012" lon="7.57879">
        <ele>195.28</ele>
        <time>2017-01-04T13:15:06Z</time>
      </trkpt>
      <trkpt lat="48.05023" lon="7.57881">
        <ele>194.32</ele>
        <time>2017-01-04T13:15:16Z</time>
      </trkpt>
      <trkpt lat="48.05034" lon="7.57882">
        <ele>193.84</ele>
        <time>2017-01-04T13:15:27Z</time>
      </trkpt>
      <trkpt lat="48.05047" lon="7.57882">
        <ele>194.8</ele>
        <time>2017-01-04T13:15:36Z</time>
      </trkpt>
      <trkpt lat="48.05059" lon="7.57882">
        <ele>193.84</ele>
        <time>2017-01-04T13:15:46Z</time>
      </trkpt>
      <trkpt lat="48.05069" lon="7.57884">
        <ele>194.32</ele>
        <time>2017-01-04T13:15:54Z</time>
      </trkpt>
      <trkpt lat="48.05082" lon="7.5789">
        <ele>194.8</ele>
        <time>2017-01-04T13:16:03Z</time>
      </trkpt>
      <trkpt lat="48.05093" lon="7.57894">
        <ele>193.36</ele>
        <time>2017-01-04T13:16:12Z</time>
      </trkpt>
      <trkpt lat="48.05103" lon="7.57895">
        <ele>195.77</ele>
        <time>2017-01-04T13:16:20Z</time>
      </trkpt>
      <trkpt lat="48.05113" lon="7.57896">
        <ele>194.8</ele>
        <time>2017-01-04T13:16:29Z</time>
      </trkpt>
      <trkpt lat="48.05124" lon="7.57898">
        <ele>195.28</ele>
        <time>2017-01-04T13:16:38Z</time>
      </trkpt>
      <trkpt lat="48.05134" lon="7.57898">
        <ele>194.8</ele>
        <time>2017-01-04T13:16:46Z</time>
      </trkpt>
      <trkpt lat="48.05146" lon="7.57901">
        <ele>195.77</ele>
        <time>2017-01-04T13:16:56Z</time>
      </trkpt>
      <trkpt lat="48.05156" lon="7.579">
        <ele>194.8</ele>
        <time>2017-01-04T13:17:06Z</time>
      </trkpt>
      <trkpt lat="48.05165" lon="7.57898">
        <ele>195.28</ele>
        <time>2017-01-04T13:17:15Z</time>
      </trkpt>
      <trkpt lat="48.0518" lon="7.57897">
        <ele>195.77</ele>
        <time>2017-01-04T13:17:25Z</time>
      </trkpt>
      <trkpt lat="48.05191" lon="7.57897">
        <ele>192.4</ele>
        <time>2017-01-04T13:17:35Z</time>
      </trkpt>
      <trkpt lat="48.05202" lon="7.57896">
        <ele>196.25</ele>
        <time>2017-01-04T13:17:44Z</time>
      </trkpt>
      <trkpt lat="48.05206" lon="7.57897">
        <ele>192.4</ele>
        <time>2017-01-04T13:18:10Z</time>
      </trkpt>
      <trkpt lat="48.05208" lon="7.57879">
        <ele>193.36</ele>
        <time>2017-01-04T13:19:16Z</time>
      </trkpt>
      <trkpt lat="48.05213" lon="7.57845">
        <ele>191.92</ele>
        <time>2017-01-04T13:19:35Z</time>
      </trkpt>
      <trkpt lat="48.05222" lon="7.57836">
        <ele>191.92</ele>
        <time>2017-01-04T13:20:02Z</time>
      </trkpt>
      <trkpt lat="48.05237" lon="7.57833">
        <ele>191.92</ele>
        <time>2017-01-04T13:20:18Z</time>
      </trkpt>
      <trkpt lat="48.05261" lon="7.57824">
        <ele>191.44</ele>
        <time>2017-01-04T13:20:34Z</time>
      </trkpt>
      <trkpt lat="48.05279" lon="7.57815">
        <ele>190.96</ele>
        <time>2017-01-04T13:20:51Z</time>
      </trkpt>
      <trkpt lat="48.05294" lon="7.57807">
        <ele>188.56</ele>
        <time>2017-01-04T13:21:07Z</time>
      </trkpt>
      <trkpt lat="48.05311" lon="7.57797">
        <ele>191.44</ele>
        <time>2017-01-04T13:21:23Z</time>
      </trkpt>
      <trkpt lat="48.05331" lon="7.57794">
        <ele>188.56</ele>
        <time>2017-01-04T13:21:52Z</time>
      </trkpt>
      <trkpt lat="48.05364" lon="7.57799">
        <ele>190.48</ele>
        <time>2017-01-04T13:22:08Z</time>
      </trkpt>
      <trkpt lat="48.05386" lon="7.57802">
        <ele>190.48</ele>
        <time>2017-01-04T13:22:26Z</time>
      </trkpt>
      <trkpt lat="48.05403" lon="7.57808">
        <ele>190.48</ele>
        <time>2017-01-04T13:22:38Z</time>
      </trkpt>
      <trkpt lat="48.05415" lon="7.57814">
        <ele>190.96</ele>
        <time>2017-01-04T13:22:51Z</time>
      </trkpt>
      <trkpt lat="48.05429" lon="7.57822">
        <ele>191.44</ele>
        <time>2017-01-04T13:23:08Z</time>
      </trkpt>
      <trkpt lat="48.05447" lon="7.57829">
        <ele>190.96</ele>
        <time>2017-01-04T13:23:25Z</time>
      </trkpt>
      <trkpt lat="48.05463" lon="7.57835">
        <ele>189.04</ele>
        <time>2017-01-04T13:23:42Z</time>
      </trkpt>
      <trkpt lat="48.05479" lon="7.57841">
        <ele>191.92</ele>
        <time>2017-01-04T13:23:54Z</time>
      </trkpt>
      <trkpt lat="48.05492" lon="7.57848">
        <ele>190.48</ele>
        <time>2017-01-04T13:24:06Z</time>
      </trkpt>
      <trkpt lat="48.05508" lon="7.57853">
        <ele>191.44</ele>
        <time>2017-01-04T13:24:21Z</time>
      </trkpt>
      <trkpt lat="48.05527" lon="7.57861">
        <ele>189.04</ele>
        <time>2017-01-04T13:24:36Z</time>
      </trkpt>
      <trkpt lat="48.05544" lon="7.57871">
        <ele>189.52</ele>
        <time>2017-01-04T13:24:49Z</time>
      </trkpt>
      <trkpt lat="48.05557" lon="7.57873">
        <ele>191.92</ele>
        <time>2017-01-04T13:24:59Z</time>
      </trkpt>
      <trkpt lat="48.0557" lon="7.57877">
        <ele>190.48</ele>
        <time>2017-01-04T13:25:09Z</time>
      </trkpt>
      <trkpt lat="48.05583" lon="7.57878">
        <ele>189.52</ele>
        <time>2017-01-04T13:25:20Z</time>
      </trkpt>
      <trkpt lat="48.05595" lon="7.57888">
        <ele>188.08</ele>
        <time>2017-01-04T13:25:31Z</time>
      </trkpt>
      <trkpt lat="48.05606" lon="7.57895">
        <ele>187.59</ele>
        <time>2017-01-04T13:25:45Z</time>
      </trkpt>
      <trkpt lat="48.05616" lon="7.5791">
        <ele>190</ele>
        <time>2017-01-04T13:25:57Z</time>
      </trkpt>
      <trkpt lat="48.05627" lon="7.57921">
        <ele>188.08</ele>
        <time>2017-01-04T13:26:08Z</time>
      </trkpt>
      <trkpt lat="48.0564" lon="7.57941">
        <ele>190</ele>
        <time>2017-01-04T13:26:23Z</time>
      </trkpt>
      <trkpt lat="48.0565" lon="7.57952">
        <ele>189.04</ele>
        <time>2017-01-04T13:26:34Z</time>
      </trkpt>
      <trkpt lat="48.05664" lon="7.57963">
        <ele>187.59</ele>
        <time>2017-01-04T13:26:45Z</time>
      </trkpt>
      <trkpt lat="48.05677" lon="7.57971">
        <ele>188.08</ele>
        <time>2017-01-04T13:26:56Z</time>
      </trkpt>
      <trkpt lat="48.05687" lon="7.57986">
        <ele>189.52</ele>
        <time>2017-01-04T13:27:08Z</time>
      </trkpt>
      <trkpt lat="48.05696" lon="7.58001">
        <ele>187.59</ele>
        <time>2017-01-04T13:27:20Z</time>
      </trkpt>
      <trkpt lat="48.05708" lon="7.58007">
        <ele>189.04</ele>
        <time>2017-01-04T13:27:31Z</time>
      </trkpt>
      <trkpt lat="48.05719" lon="7.58015">
        <ele>186.63</ele>
        <time>2017-01-04T13:27:40Z</time>
      </trkpt>
      <trkpt lat="48.0573" lon="7.58019">
        <ele>188.56</ele>
        <time>2017-01-04T13:27:56Z</time>
      </trkpt>
      <trkpt lat="48.05735" lon="7.58025">
        <ele>188.56</ele>
        <time>2017-01-04T13:29:09Z</time>
      </trkpt>
      <trkpt lat="48.05724" lon="7.58052">
        <ele>188.08</ele>
        <time>2017-01-04T13:29:23Z</time>
      </trkpt>
      <trkpt lat="48.0572" lon="7.58067">
        <ele>188.08</ele>
        <time>2017-01-04T13:29:38Z</time>
      </trkpt>
      <trkpt lat="48.05717" lon="7.58085">
        <ele>188.56</ele>
        <time>2017-01-04T13:30:03Z</time>
      </trkpt>
      <trkpt lat="48.05718" lon="7.5811">
        <ele>186.63</ele>
        <time>2017-01-04T13:30:15Z</time>
      </trkpt>
      <trkpt lat="48.05716" lon="7.58127">
        <ele>190</ele>
        <time>2017-01-04T13:30:37Z</time>
      </trkpt>
      <trkpt lat="48.0572" lon="7.58139">
        <ele>190.48</ele>
        <time>2017-01-04T13:30:49Z</time>
      </trkpt>
      <trkpt lat="48.0573" lon="7.58143">
        <ele>191.92</ele>
        <time>2017-01-04T13:31:10Z</time>
      </trkpt>
      <trkpt lat="48.05738" lon="7.58149">
        <ele>190</ele>
        <time>2017-01-04T13:32:01Z</time>
      </trkpt>
      <trkpt lat="48.05748" lon="7.58155">
        <ele>190</ele>
        <time>2017-01-04T13:32:36Z</time>
      </trkpt>
      <trkpt lat="48.05758" lon="7.58159">
        <ele>190</ele>
        <time>2017-01-04T13:32:55Z</time>
      </trkpt>
      <trkpt lat="48.05766" lon="7.58162">
        <ele>191.44</ele>
        <time>2017-01-04T13:33:04Z</time>
      </trkpt>
      <trkpt lat="48.05775" lon="7.58168">
        <ele>190.96</ele>
        <time>2017-01-04T13:33:13Z</time>
      </trkpt>
      <trkpt lat="48.05785" lon="7.58172">
        <ele>188.56</ele>
        <time>2017-01-04T13:33:22Z</time>
      </trkpt>
      <trkpt lat="48.05795" lon="7.58177">
        <ele>190</ele>
        <time>2017-01-04T13:33:31Z</time>
      </trkpt>
      <trkpt lat="48.05804" lon="7.58182">
        <ele>189.04</ele>
        <time>2017-01-04T13:33:40Z</time>
      </trkpt>
      <trkpt lat="48.05814" lon="7.58186">
        <ele>189.52</ele>
        <time>2017-01-04T13:33:49Z</time>
      </trkpt>
      <trkpt lat="48.05823" lon="7.58188">
        <ele>190.48</ele>
        <time>2017-01-04T13:33:57Z</time>
      </trkpt>
      <trkpt lat="48.05832" lon="7.58192">
        <ele>190.48</ele>
        <time>2017-01-04T13:34:06Z</time>
      </trkpt>
      <trkpt lat="48.05842" lon="7.58196">
        <ele>190.48</ele>
        <time>2017-01-04T13:34:16Z</time>
      </trkpt>
      <trkpt lat="48.05852" lon="7.58199">
        <ele>190.96</ele>
        <time>2017-01-04T13:34:26Z</time>
      </trkpt>
      <trkpt lat="48.05863" lon="7.58202">
        <ele>190</ele>
        <time>2017-01-04T13:34:36Z</time>
      </trkpt>
      <trkpt lat="48.05872" lon="7.58204">
        <ele>189.52</ele>
        <time>2017-01-04T13:34:45Z</time>
      </trkpt>
      <trkpt lat="48.05882" lon="7.58206">
        <ele>189.04</ele>
        <time>2017-01-04T13:34:54Z</time>
      </trkpt>
      <trkpt lat="48.05893" lon="7.58205">
        <ele>191.44</ele>
        <time>2017-01-04T13:35:03Z</time>
      </trkpt>
      <trkpt lat="48.05904" lon="7.58202">
        <ele>188.56</ele>
        <time>2017-01-04T13:35:14Z</time>
      </trkpt>
      <trkpt lat="48.05916" lon="7.58198">
        <ele>191.92</ele>
        <time>2017-01-04T13:35:26Z</time>
      </trkpt>
      <trkpt lat="48.05927" lon="7.58198">
        <ele>189.52</ele>
        <time>2017-01-04T13:35:36Z</time>
      </trkpt>
      <trkpt lat="48.05938" lon="7.58196">
        <ele>191.44</ele>
        <time>2017-01-04T13:35:48Z</time>
      </trkpt>
      <trkpt lat="48.05948" lon="7.58194">
        <ele>189.04</ele>
        <time>2017-01-04T13:35:57Z</time>
      </trkpt>
      <trkpt lat="48.05959" lon="7.58192">
        <ele>188.56</ele>
        <time>2017-01-04T13:36:06Z</time>
      </trkpt>
      <trkpt lat="48.0597" lon="7.58189">
        <ele>188.56</ele>
        <time>2017-01-04T13:36:16Z</time>
      </trkpt>
      <trkpt lat="48.0598" lon="7.58187">
        <ele>190</ele>
        <time>2017-01-04T13:36:26Z</time>
      </trkpt>
      <trkpt lat="48.0599" lon="7.58185">
        <ele>189.52</ele>
        <time>2017-01-04T13:36:35Z</time>
      </trkpt>
      <trkpt lat="48.06" lon="7.58184">
        <ele>187.59</ele>
        <time>2017-01-04T13:36:47Z</time>
      </trkpt>
      <trkpt lat="48.0601" lon="7.58183">
        <ele>189.04</ele>
        <time>2017-01-04T13:36:55Z</time>
      </trkpt>
      <trkpt lat="48.0602" lon="7.58183">
        <ele>190.48</ele>
        <time>2017-01-04T13:37:03Z</time>
      </trkpt>
      <trkpt lat="48.0603" lon="7.58184">
        <ele>190</ele>
        <time>2017-01-04T13:37:12Z</time>
      </trkpt>
      <trkpt lat="48.0604" lon="7.58184">
        <ele>188.08</ele>
        <time>2017-01-04T13:37:21Z</time>
      </trkpt>
      <trkpt lat="48.0605" lon="7.58185">
        <ele>188.08</ele>
        <time>2017-01-04T13:37:30Z</time>
      </trkpt>
      <trkpt lat="48.06061" lon="7.58186">
        <ele>188.08</ele>
        <time>2017-01-04T13:37:39Z</time>
      </trkpt>
      <trkpt lat="48.06072" lon="7.58187">
        <ele>187.11</ele>
        <time>2017-01-04T13:37:48Z</time>
      </trkpt>
      <trkpt lat="48.06083" lon="7.58187">
        <ele>188.56</ele>
        <time>2017-01-04T13:37:57Z</time>
      </trkpt>
      <trkpt lat="48.06093" lon="7.58187">
        <ele>187.59</ele>
        <time>2017-01-04T13:38:05Z</time>
      </trkpt>
      <trkpt lat="48.06102" lon="7.58189">
        <ele>189.52</ele>
        <time>2017-01-04T13:38:13Z</time>
      </trkpt>
      <trkpt lat="48.06112" lon="7.58188">
        <ele>190.48</ele>
        <time>2017-01-04T13:38:23Z</time>
      </trkpt>
      <trkpt lat="48.06124" lon="7.58183">
        <ele>190</ele>
        <time>2017-01-04T13:38:32Z</time>
      </trkpt>
      <trkpt lat="48.06134" lon="7.5818">
        <ele>190.48</ele>
        <time>2017-01-04T13:38:41Z</time>
      </trkpt>
      <trkpt lat="48.06144" lon="7.58175">
        <ele>190.48</ele>
        <time>2017-01-04T13:38:50Z</time>
      </trkpt>
      <trkpt lat="48.06154" lon="7.58169">
        <ele>190</ele>
        <time>2017-01-04T13:39:00Z</time>
      </trkpt>
      <trkpt lat="48.06162" lon="7.58165">
        <ele>190.96</ele>
        <time>2017-01-04T13:39:09Z</time>
      </trkpt>
      <trkpt lat="48.06172" lon="7.5816">
        <ele>188.56</ele>
        <time>2017-01-04T13:39:18Z</time>
      </trkpt>
      <trkpt lat="48.06183" lon="7.5816">
        <ele>190</ele>
        <time>2017-01-04T13:39:28Z</time>
      </trkpt>
      <trkpt lat="48.06192" lon="7.58161">
        <ele>188.08</ele>
        <time>2017-01-04T13:39:37Z</time>
      </trkpt>
      <trkpt lat="48.06202" lon="7.58165">
        <ele>190.96</ele>
        <time>2017-01-04T13:39:46Z</time>
      </trkpt>
      <trkpt lat="48.06212" lon="7.58169">
        <ele>190</ele>
        <time>2017-01-04T13:39:55Z</time>
      </trkpt>
      <trkpt lat="48.0622" lon="7.58175">
        <ele>190.48</ele>
        <time>2017-01-04T13:40:03Z</time>
      </trkpt>
      <trkpt lat="48.06227" lon="7.58184">
        <ele>189.52</ele>
        <time>2017-01-04T13:40:12Z</time>
      </trkpt>
      <trkpt lat="48.06234" lon="7.58195">
        <ele>190.48</ele>
        <time>2017-01-04T13:40:21Z</time>
      </trkpt>
      <trkpt lat="48.06241" lon="7.58205">
        <ele>190</ele>
        <time>2017-01-04T13:40:30Z</time>
      </trkpt>
      <trkpt lat="48.06248" lon="7.58216">
        <ele>189.52</ele>
        <time>2017-01-04T13:40:40Z</time>
      </trkpt>
      <trkpt lat="48.06255" lon="7.58227">
        <ele>190</ele>
        <time>2017-01-04T13:40:51Z</time>
      </trkpt>
      <trkpt lat="48.06261" lon="7.58236">
        <ele>188.56</ele>
        <time>2017-01-04T13:41:00Z</time>
      </trkpt>
      <trkpt lat="48.06267" lon="7.58247">
        <ele>188.56</ele>
        <time>2017-01-04T13:41:09Z</time>
      </trkpt>
      <trkpt lat="48.06274" lon="7.58259">
        <ele>190.48</ele>
        <time>2017-01-04T13:41:18Z</time>
      </trkpt>
      <trkpt lat="48.06281" lon="7.58269">
        <ele>189.04</ele>
        <time>2017-01-04T13:41:27Z</time>
      </trkpt>
      <trkpt lat="48.06286" lon="7.58281">
        <ele>190.96</ele>
        <time>2017-01-04T13:41:36Z</time>
      </trkpt>
      <trkpt lat="48.06293" lon="7.58291">
        <ele>190.48</ele>
        <time>2017-01-04T13:41:44Z</time>
      </trkpt>
      <trkpt lat="48.063" lon="7.58301">
        <ele>190.96</ele>
        <time>2017-01-04T13:41:53Z</time>
      </trkpt>
      <trkpt lat="48.06306" lon="7.58314">
        <ele>188.56</ele>
        <time>2017-01-04T13:42:02Z</time>
      </trkpt>
      <trkpt lat="48.06314" lon="7.58324">
        <ele>188.56</ele>
        <time>2017-01-04T13:42:12Z</time>
      </trkpt>
      <trkpt lat="48.06324" lon="7.58334">
        <ele>190.48</ele>
        <time>2017-01-04T13:42:21Z</time>
      </trkpt>
      <trkpt lat="48.06331" lon="7.58345">
        <ele>188.08</ele>
        <time>2017-01-04T13:42:28Z</time>
      </trkpt>
      <trkpt lat="48.06336" lon="7.58357">
        <ele>187.59</ele>
        <time>2017-01-04T13:42:36Z</time>
      </trkpt>
      <trkpt lat="48.06341" lon="7.58367">
        <ele>188.56</ele>
        <time>2017-01-04T13:42:44Z</time>
      </trkpt>
      <trkpt lat="48.06348" lon="7.58377">
        <ele>188.08</ele>
        <time>2017-01-04T13:42:52Z</time>
      </trkpt>
      <trkpt lat="48.06355" lon="7.58387">
        <ele>190</ele>
        <time>2017-01-04T13:43:00Z</time>
      </trkpt>
      <trkpt lat="48.0636" lon="7.58397">
        <ele>188.08</ele>
        <time>2017-01-04T13:43:08Z</time>
      </trkpt>
      <trkpt lat="48.06367" lon="7.58407">
        <ele>189.04</ele>
        <time>2017-01-04T13:43:16Z</time>
      </trkpt>
      <trkpt lat="48.06372" lon="7.58416">
        <ele>188.56</ele>
        <time>2017-01-04T13:43:24Z</time>
      </trkpt>
      <trkpt lat="48.06378" lon="7.58426">
        <ele>189.04</ele>
        <time>2017-01-04T13:43:32Z</time>
      </trkpt>
      <trkpt lat="48.06384" lon="7.58438">
        <ele>189.04</ele>
        <time>2017-01-04T13:43:41Z</time>
      </trkpt>
      <trkpt lat="48.06392" lon="7.58447">
        <ele>190</ele>
        <time>2017-01-04T13:43:50Z</time>
      </trkpt>
      <trkpt lat="48.06397" lon="7.58458">
        <ele>190</ele>
        <time>2017-01-04T13:44:00Z</time>
      </trkpt>
      <trkpt lat="48.06404" lon="7.58466">
        <ele>188.56</ele>
        <time>2017-01-04T13:44:10Z</time>
      </trkpt>
      <trkpt lat="48.06409" lon="7.58478">
        <ele>189.52</ele>
        <time>2017-01-04T13:44:21Z</time>
      </trkpt>
      <trkpt lat="48.06415" lon="7.5849">
        <ele>190.96</ele>
        <time>2017-01-04T13:44:32Z</time>
      </trkpt>
      <trkpt lat="48.06422" lon="7.585">
        <ele>190.48</ele>
        <time>2017-01-04T13:44:41Z</time>
      </trkpt>
      <trkpt lat="48.06429" lon="7.58512">
        <ele>188.08</ele>
        <time>2017-01-04T13:44:50Z</time>
      </trkpt>
      <trkpt lat="48.06437" lon="7.58523">
        <ele>189.04</ele>
        <time>2017-01-04T13:44:59Z</time>
      </trkpt>
      <trkpt lat="48.06444" lon="7.58535">
        <ele>190</ele>
        <time>2017-01-04T13:45:08Z</time>
      </trkpt>
      <trkpt lat="48.0645" lon="7.58545">
        <ele>190</ele>
        <time>2017-01-04T13:45:16Z</time>
      </trkpt>
      <trkpt lat="48.06458" lon="7.58551">
        <ele>189.04</ele>
        <time>2017-01-04T13:45:24Z</time>
      </trkpt>
      <trkpt lat="48.06465" lon="7.5856">
        <ele>189.52</ele>
        <time>2017-01-04T13:45:33Z</time>
      </trkpt>
      <trkpt lat="48.06472" lon="7.58567">
        <ele>188.08</ele>
        <time>2017-01-04T13:45:41Z</time>
      </trkpt>
      <trkpt lat="48.06481" lon="7.58574">
        <ele>190.48</ele>
        <time>2017-01-04T13:45:49Z</time>
      </trkpt>
      <trkpt lat="48.0649" lon="7.58582">
        <ele>187.59</ele>
        <time>2017-01-04T13:45:58Z</time>
      </trkpt>
      <trkpt lat="48.065" lon="7.58587">
        <ele>188.08</ele>
        <time>2017-01-04T13:46:06Z</time>
      </trkpt>
      <trkpt lat="48.06508" lon="7.58592">
        <ele>190</ele>
        <time>2017-01-04T13:46:13Z</time>
      </trkpt>
      <trkpt lat="48.06515" lon="7.586">
        <ele>189.52</ele>
        <time>2017-01-04T13:46:22Z</time>
      </trkpt>
      <trkpt lat="48.06524" lon="7.58606">
        <ele>190</ele>
        <time>2017-01-04T13:46:30Z</time>
      </trkpt>
      <trkpt lat="48.06532" lon="7.58612">
        <ele>190.96</ele>
        <time>2017-01-04T13:46:38Z</time>
      </trkpt>
      <trkpt lat="48.06541" lon="7.58619">
        <ele>187.59</ele>
        <time>2017-01-04T13:46:46Z</time>
      </trkpt>
      <trkpt lat="48.06549" lon="7.58624">
        <ele>187.59</ele>
        <time>2017-01-04T13:46:54Z</time>
      </trkpt>
      <trkpt lat="48.06557" lon="7.5863">
        <ele>188.08</ele>
        <time>2017-01-04T13:47:02Z</time>
      </trkpt>
      <trkpt lat="48.06564" lon="7.58637">
        <ele>191.44</ele>
        <time>2017-01-04T13:47:10Z</time>
      </trkpt>
      <trkpt lat="48.06573" lon="7.58642">
        <ele>188.08</ele>
        <time>2017-01-04T13:47:18Z</time>
      </trkpt>
      <trkpt lat="48.0658" lon="7.5865">
        <ele>187.11</ele>
        <time>2017-01-04T13:47:26Z</time>
      </trkpt>
      <trkpt lat="48.06589" lon="7.58657">
        <ele>188.08</ele>
        <time>2017-01-04T13:47:34Z</time>
      </trkpt>
      <trkpt lat="48.06598" lon="7.58664">
        <ele>188.56</ele>
        <time>2017-01-04T13:47:42Z</time>
      </trkpt>
      <trkpt lat="48.06606" lon="7.5867">
        <ele>190.96</ele>
        <time>2017-01-04T13:47:50Z</time>
      </trkpt>
      <trkpt lat="48.06615" lon="7.58674">
        <ele>188.56</ele>
        <time>2017-01-04T13:47:58Z</time>
      </trkpt>
      <trkpt lat="48.06624" lon="7.58681">
        <ele>189.04</ele>
        <time>2017-01-04T13:48:05Z</time>
      </trkpt>
      <trkpt lat="48.06632" lon="7.58687">
        <ele>190.48</ele>
        <time>2017-01-04T13:48:12Z</time>
      </trkpt>
      <trkpt lat="48.0664" lon="7.58693">
        <ele>187.59</ele>
        <time>2017-01-04T13:48:20Z</time>
      </trkpt>
      <trkpt lat="48.06649" lon="7.58697">
        <ele>189.52</ele>
        <time>2017-01-04T13:48:28Z</time>
      </trkpt>
      <trkpt lat="48.06658" lon="7.58701">
        <ele>188.56</ele>
        <time>2017-01-04T13:48:36Z</time>
      </trkpt>
      <trkpt lat="48.06668" lon="7.58704">
        <ele>186.63</ele>
        <time>2017-01-04T13:48:45Z</time>
      </trkpt>
      <trkpt lat="48.06678" lon="7.58707">
        <ele>189.52</ele>
        <time>2017-01-04T13:48:54Z</time>
      </trkpt>
      <trkpt lat="48.06689" lon="7.58708">
        <ele>188.56</ele>
        <time>2017-01-04T13:49:03Z</time>
      </trkpt>
      <trkpt lat="48.06699" lon="7.5871">
        <ele>189.04</ele>
        <time>2017-01-04T13:49:11Z</time>
      </trkpt>
      <trkpt lat="48.0671" lon="7.58712">
        <ele>187.11</ele>
        <time>2017-01-04T13:49:19Z</time>
      </trkpt>
      <trkpt lat="48.06719" lon="7.58715">
        <ele>188.56</ele>
        <time>2017-01-04T13:49:28Z</time>
      </trkpt>
      <trkpt lat="48.06729" lon="7.58717">
        <ele>188.08</ele>
        <time>2017-01-04T13:49:39Z</time>
      </trkpt>
      <trkpt lat="48.0674" lon="7.5872">
        <ele>186.15</ele>
        <time>2017-01-04T13:49:49Z</time>
      </trkpt>
      <trkpt lat="48.06751" lon="7.58723">
        <ele>186.15</ele>
        <time>2017-01-04T13:49:58Z</time>
      </trkpt>
      <trkpt lat="48.06765" lon="7.58733">
        <ele>185.19</ele>
        <time>2017-01-04T13:50:09Z</time>
      </trkpt>
      <trkpt lat="48.06775" lon="7.58736">
        <ele>188.56</ele>
        <time>2017-01-04T13:50:18Z</time>
      </trkpt>
      <trkpt lat="48.06785" lon="7.58736">
        <ele>186.63</ele>
        <time>2017-01-04T13:50:26Z</time>
      </trkpt>
      <trkpt lat="48.06795" lon="7.58736">
        <ele>185.19</ele>
        <time>2017-01-04T13:50:34Z</time>
      </trkpt>
      <trkpt lat="48.06805" lon="7.58736">
        <ele>187.11</ele>
        <time>2017-01-04T13:50:42Z</time>
      </trkpt>
      <trkpt lat="48.06815" lon="7.58739">
        <ele>185.67</ele>
        <time>2017-01-04T13:50:51Z</time>
      </trkpt>
      <trkpt lat="48.06827" lon="7.58733">
        <ele>186.63</ele>
        <time>2017-01-04T13:51:01Z</time>
      </trkpt>
      <trkpt lat="48.06836" lon="7.58733">
        <ele>186.63</ele>
        <time>2017-01-04T13:51:10Z</time>
      </trkpt>
      <trkpt lat="48.06847" lon="7.58735">
        <ele>186.63</ele>
        <time>2017-01-04T13:51:22Z</time>
      </trkpt>
      <trkpt lat="48.06858" lon="7.58739">
        <ele>185.19</ele>
        <time>2017-01-04T13:51:32Z</time>
      </trkpt>
      <trkpt lat="48.06869" lon="7.58744">
        <ele>188.08</ele>
        <time>2017-01-04T13:51:43Z</time>
      </trkpt>
      <trkpt lat="48.06879" lon="7.58748">
        <ele>188.08</ele>
        <time>2017-01-04T13:51:53Z</time>
      </trkpt>
      <trkpt lat="48.0689" lon="7.58751">
        <ele>184.23</ele>
        <time>2017-01-04T13:52:02Z</time>
      </trkpt>
      <trkpt lat="48.06902" lon="7.58753">
        <ele>186.63</ele>
        <time>2017-01-04T13:52:11Z</time>
      </trkpt>
      <trkpt lat="48.06918" lon="7.5876">
        <ele>188.08</ele>
        <time>2017-01-04T13:52:25Z</time>
      </trkpt>
      <trkpt lat="48.06938" lon="7.5877">
        <ele>186.63</ele>
        <time>2017-01-04T13:52:39Z</time>
      </trkpt>
      <trkpt lat="48.06948" lon="7.58772">
        <ele>188.08</ele>
        <time>2017-01-04T13:52:49Z</time>
      </trkpt>
      <trkpt lat="48.06965" lon="7.58777">
        <ele>186.63</ele>
        <time>2017-01-04T13:53:02Z</time>
      </trkpt>
      <trkpt lat="48.06976" lon="7.58775">
        <ele>187.59</ele>
        <time>2017-01-04T13:53:13Z</time>
      </trkpt>
      <trkpt lat="48.06988" lon="7.58781">
        <ele>185.19</ele>
        <time>2017-01-04T13:53:22Z</time>
      </trkpt>
      <trkpt lat="48.07" lon="7.58781">
        <ele>187.11</ele>
        <time>2017-01-04T13:53:32Z</time>
      </trkpt>
      <trkpt lat="48.07011" lon="7.58783">
        <ele>186.15</ele>
        <time>2017-01-04T13:53:40Z</time>
      </trkpt>
      <trkpt lat="48.07019" lon="7.58788">
        <ele>186.63</ele>
        <time>2017-01-04T13:53:47Z</time>
      </trkpt>
      <trkpt lat="48.07029" lon="7.58781">
        <ele>186.15</ele>
        <time>2017-01-04T13:53:57Z</time>
      </trkpt>
      <trkpt lat="48.07041" lon="7.58785">
        <ele>187.59</ele>
        <time>2017-01-04T13:54:08Z</time>
      </trkpt>
      <trkpt lat="48.07052" lon="7.58786">
        <ele>188.56</ele>
        <time>2017-01-04T13:54:17Z</time>
      </trkpt>
      <trkpt lat="48.07065" lon="7.58785">
        <ele>187.59</ele>
        <time>2017-01-04T13:54:27Z</time>
      </trkpt>
      <trkpt lat="48.07073" lon="7.58784">
        <ele>187.59</ele>
        <time>2017-01-04T13:55:17Z</time>
      </trkpt>
      <trkpt lat="48.07078" lon="7.58783">
        <ele>188.08</ele>
        <time>2017-01-04T13:58:19Z</time>
      </trkpt>
      <trkpt lat="48.07082" lon="7.588">
        <ele>187.11</ele>
        <time>2017-01-04T13:58:28Z</time>
      </trkpt>
      <trkpt lat="48.07091" lon="7.58805">
        <ele>189.04</ele>
        <time>2017-01-04T13:58:36Z</time>
      </trkpt>
      <trkpt lat="48.07101" lon="7.58805">
        <ele>185.67</ele>
        <time>2017-01-04T13:58:44Z</time>
      </trkpt>
      <trkpt lat="48.07111" lon="7.58803">
        <ele>186.15</ele>
        <time>2017-01-04T13:58:51Z</time>
      </trkpt>
      <trkpt lat="48.07124" lon="7.58804">
        <ele>188.08</ele>
        <time>2017-01-04T13:59:00Z</time>
      </trkpt>
      <trkpt lat="48.07134" lon="7.58808">
        <ele>189.52</ele>
        <time>2017-01-04T13:59:09Z</time>
      </trkpt>
      <trkpt lat="48.07148" lon="7.5881">
        <ele>189.52</ele>
        <time>2017-01-04T13:59:19Z</time>
      </trkpt>
      <trkpt lat="48.07158" lon="7.58813">
        <ele>188.08</ele>
        <time>2017-01-04T13:59:26Z</time>
      </trkpt>
      <trkpt lat="48.07173" lon="7.58816">
        <ele>189.52</ele>
        <time>2017-01-04T13:59:35Z</time>
      </trkpt>
      <trkpt lat="48.07187" lon="7.58818">
        <ele>189.52</ele>
        <time>2017-01-04T13:59:43Z</time>
      </trkpt>
      <trkpt lat="48.07195" lon="7.58825">
        <ele>185.67</ele>
        <time>2017-01-04T13:59:50Z</time>
      </trkpt>
      <trkpt lat="48.07207" lon="7.58826">
        <ele>185.19</ele>
        <time>2017-01-04T13:59:57Z</time>
      </trkpt>
      <trkpt lat="48.07222" lon="7.58824">
        <ele>186.63</ele>
        <time>2017-01-04T14:00:07Z</time>
      </trkpt>
      <trkpt lat="48.07238" lon="7.58826">
        <ele>183.75</ele>
        <time>2017-01-04T14:00:17Z</time>
      </trkpt>
      <trkpt lat="48.0725" lon="7.58828">
        <ele>184.23</ele>
        <time>2017-01-04T14:00:24Z</time>
      </trkpt>
      <trkpt lat="48.07263" lon="7.58832">
        <ele>183.75</ele>
        <time>2017-01-04T14:00:31Z</time>
      </trkpt>
      <trkpt lat="48.0727" lon="7.58834">
        <ele>188.08</ele>
        <time>2017-01-04T14:00:37Z</time>
      </trkpt>
      <trkpt lat="48.07281" lon="7.58835">
        <ele>187.11</ele>
        <time>2017-01-04T14:00:44Z</time>
      </trkpt>
      <trkpt lat="48.0729" lon="7.58835">
        <ele>185.67</ele>
        <time>2017-01-04T14:00:51Z</time>
      </trkpt>
      <trkpt lat="48.073" lon="7.58835">
        <ele>185.19</ele>
        <time>2017-01-04T14:01:36Z</time>
      </trkpt>
      <trkpt lat="48.0731" lon="7.58835">
        <ele>184.23</ele>
        <time>2017-01-04T14:01:45Z</time>
      </trkpt>
      <trkpt lat="48.0732" lon="7.58837">
        <ele>186.15</ele>
        <time>2017-01-04T14:01:53Z</time>
      </trkpt>
      <trkpt lat="48.0733" lon="7.58839">
        <ele>184.23</ele>
        <time>2017-01-04T14:02:00Z</time>
      </trkpt>
      <trkpt lat="48.0734" lon="7.58839">
        <ele>185.19</ele>
        <time>2017-01-04T14:02:08Z</time>
      </trkpt>
      <trkpt lat="48.07349" lon="7.5884">
        <ele>187.59</ele>
        <time>2017-01-04T14:02:15Z</time>
      </trkpt>
      <trkpt lat="48.07358" lon="7.58842">
        <ele>183.75</ele>
        <time>2017-01-04T14:02:22Z</time>
      </trkpt>
      <trkpt lat="48.07366" lon="7.58843">
        <ele>187.11</ele>
        <time>2017-01-04T14:02:29Z</time>
      </trkpt>
      <trkpt lat="48.07376" lon="7.58844">
        <ele>184.23</ele>
        <time>2017-01-04T14:02:36Z</time>
      </trkpt>
      <trkpt lat="48.07386" lon="7.58844">
        <ele>184.23</ele>
        <time>2017-01-04T14:02:44Z</time>
      </trkpt>
      <trkpt lat="48.07396" lon="7.58845">
        <ele>187.11</ele>
        <time>2017-01-04T14:02:53Z</time>
      </trkpt>
      <trkpt lat="48.07405" lon="7.58847">
        <ele>186.63</ele>
        <time>2017-01-04T14:03:00Z</time>
      </trkpt>
      <trkpt lat="48.07413" lon="7.58852">
        <ele>186.63</ele>
        <time>2017-01-04T14:03:07Z</time>
      </trkpt>
      <trkpt lat="48.07423" lon="7.5885">
        <ele>184.71</ele>
        <time>2017-01-04T14:03:14Z</time>
      </trkpt>
      <trkpt lat="48.0743" lon="7.58845">
        <ele>186.63</ele>
        <time>2017-01-04T14:03:22Z</time>
      </trkpt>
      <trkpt lat="48.07439" lon="7.58846">
        <ele>186.63</ele>
        <time>2017-01-04T14:03:30Z</time>
      </trkpt>
      <trkpt lat="48.07448" lon="7.58846">
        <ele>188.56</ele>
        <time>2017-01-04T14:03:37Z</time>
      </trkpt>
      <trkpt lat="48.07458" lon="7.58848">
        <ele>188.08</ele>
        <time>2017-01-04T14:03:45Z</time>
      </trkpt>
      <trkpt lat="48.07467" lon="7.58852">
        <ele>189.52</ele>
        <time>2017-01-04T14:03:52Z</time>
      </trkpt>
      <trkpt lat="48.07476" lon="7.58856">
        <ele>187.59</ele>
        <time>2017-01-04T14:03:59Z</time>
      </trkpt>
      <trkpt lat="48.07485" lon="7.58857">
        <ele>189.04</ele>
        <time>2017-01-04T14:04:06Z</time>
      </trkpt>
      <trkpt lat="48.07494" lon="7.58859">
        <ele>189.04</ele>
        <time>2017-01-04T14:04:13Z</time>
      </trkpt>
      <trkpt lat="48.07504" lon="7.58862">
        <ele>190.48</ele>
        <time>2017-01-04T14:04:22Z</time>
      </trkpt>
      <trkpt lat="48.07515" lon="7.58862">
        <ele>187.59</ele>
        <time>2017-01-04T14:04:30Z</time>
      </trkpt>
      <trkpt lat="48.07526" lon="7.58865">
        <ele>184.23</ele>
        <time>2017-01-04T14:04:37Z</time>
      </trkpt>
      <trkpt lat="48.07535" lon="7.58869">
        <ele>188.56</ele>
        <time>2017-01-04T14:04:44Z</time>
      </trkpt>
      <trkpt lat="48.07544" lon="7.58872">
        <ele>190.48</ele>
        <time>2017-01-04T14:04:51Z</time>
      </trkpt>
      <trkpt lat="48.07554" lon="7.58872">
        <ele>188.56</ele>
        <time>2017-01-04T14:04:58Z</time>
      </trkpt>
      <trkpt lat="48.07563" lon="7.58873">
        <ele>187.11</ele>
        <time>2017-01-04T14:05:05Z</time>
      </trkpt>
      <trkpt lat="48.07572" lon="7.58876">
        <ele>187.11</ele>
        <time>2017-01-04T14:05:12Z</time>
      </trkpt>
      <trkpt lat="48.07581" lon="7.58877">
        <ele>189.52</ele>
        <time>2017-01-04T14:05:20Z</time>
      </trkpt>
      <trkpt lat="48.07592" lon="7.58877">
        <ele>190</ele>
        <time>2017-01-04T14:05:28Z</time>
      </trkpt>
      <trkpt lat="48.07603" lon="7.5888">
        <ele>187.59</ele>
        <time>2017-01-04T14:05:36Z</time>
      </trkpt>
      <trkpt lat="48.07613" lon="7.58882">
        <ele>189.04</ele>
        <time>2017-01-04T14:05:43Z</time>
      </trkpt>
      <trkpt lat="48.07622" lon="7.58884">
        <ele>187.11</ele>
        <time>2017-01-04T14:05:50Z</time>
      </trkpt>
      <trkpt lat="48.07631" lon="7.58887">
        <ele>189.04</ele>
        <time>2017-01-04T14:05:57Z</time>
      </trkpt>
      <trkpt lat="48.0764" lon="7.58888">
        <ele>185.67</ele>
        <time>2017-01-04T14:06:04Z</time>
      </trkpt>
      <trkpt lat="48.0765" lon="7.58889">
        <ele>189.04</ele>
        <time>2017-01-04T14:06:11Z</time>
      </trkpt>
      <trkpt lat="48.07659" lon="7.5889">
        <ele>187.11</ele>
        <time>2017-01-04T14:06:18Z</time>
      </trkpt>
      <trkpt lat="48.07668" lon="7.58892">
        <ele>189.52</ele>
        <time>2017-01-04T14:06:24Z</time>
      </trkpt>
      <trkpt lat="48.07676" lon="7.58894">
        <ele>185.67</ele>
        <time>2017-01-04T14:06:30Z</time>
      </trkpt>
      <trkpt lat="48.07684" lon="7.58895">
        <ele>188.08</ele>
        <time>2017-01-04T14:06:36Z</time>
      </trkpt>
      <trkpt lat="48.07692" lon="7.58897">
        <ele>190</ele>
        <time>2017-01-04T14:06:43Z</time>
      </trkpt>
      <trkpt lat="48.07701" lon="7.589">
        <ele>188.08</ele>
        <time>2017-01-04T14:06:50Z</time>
      </trkpt>
      <trkpt lat="48.0771" lon="7.58903">
        <ele>185.67</ele>
        <time>2017-01-04T14:06:57Z</time>
      </trkpt>
      <trkpt lat="48.07718" lon="7.58905">
        <ele>188.56</ele>
        <time>2017-01-04T14:07:04Z</time>
      </trkpt>
      <trkpt lat="48.07727" lon="7.58905">
        <ele>189.04</ele>
        <time>2017-01-04T14:07:10Z</time>
      </trkpt>
      <trkpt lat="48.07735" lon="7.58907">
        <ele>187.11</ele>
        <time>2017-01-04T14:07:16Z</time>
      </trkpt>
      <trkpt lat="48.07745" lon="7.58909">
        <ele>186.15</ele>
        <time>2017-01-04T14:07:23Z</time>
      </trkpt>
      <trkpt lat="48.07754" lon="7.58911">
        <ele>186.63</ele>
        <time>2017-01-04T14:07:29Z</time>
      </trkpt>
      <trkpt lat="48.07764" lon="7.58913">
        <ele>189.04</ele>
        <time>2017-01-04T14:07:36Z</time>
      </trkpt>
      <trkpt lat="48.07772" lon="7.58916">
        <ele>190</ele>
        <time>2017-01-04T14:07:43Z</time>
      </trkpt>
      <trkpt lat="48.07782" lon="7.58917">
        <ele>186.63</ele>
        <time>2017-01-04T14:07:51Z</time>
      </trkpt>
      <trkpt lat="48.07791" lon="7.58918">
        <ele>188.56</ele>
        <time>2017-01-04T14:07:57Z</time>
      </trkpt>
      <trkpt lat="48.07801" lon="7.58917">
        <ele>186.15</ele>
        <time>2017-01-04T14:08:04Z</time>
      </trkpt>
      <trkpt lat="48.0781" lon="7.58919">
        <ele>186.15</ele>
        <time>2017-01-04T14:08:11Z</time>
      </trkpt>
      <trkpt lat="48.0782" lon="7.58921">
        <ele>186.63</ele>
        <time>2017-01-04T14:08:22Z</time>
      </trkpt>
      <trkpt lat="48.0783" lon="7.58923">
        <ele>188.08</ele>
        <time>2017-01-04T14:08:29Z</time>
      </trkpt>
      <trkpt lat="48.07842" lon="7.58925">
        <ele>188.08</ele>
        <time>2017-01-04T14:08:37Z</time>
      </trkpt>
      <trkpt lat="48.07853" lon="7.5893">
        <ele>189.04</ele>
        <time>2017-01-04T14:08:44Z</time>
      </trkpt>
      <trkpt lat="48.07862" lon="7.58936">
        <ele>189.04</ele>
        <time>2017-01-04T14:08:50Z</time>
      </trkpt>
      <trkpt lat="48.0787" lon="7.58941">
        <ele>188.56</ele>
        <time>2017-01-04T14:08:57Z</time>
      </trkpt>
      <trkpt lat="48.07879" lon="7.58942">
        <ele>186.15</ele>
        <time>2017-01-04T14:09:05Z</time>
      </trkpt>
      <trkpt lat="48.07892" lon="7.58942">
        <ele>190</ele>
        <time>2017-01-04T14:09:15Z</time>
      </trkpt>
      <trkpt lat="48.07904" lon="7.58943">
        <ele>188.08</ele>
        <time>2017-01-04T14:09:23Z</time>
      </trkpt>
      <trkpt lat="48.07914" lon="7.58944">
        <ele>189.52</ele>
        <time>2017-01-04T14:09:29Z</time>
      </trkpt>
      <trkpt lat="48.07926" lon="7.58946">
        <ele>187.11</ele>
        <time>2017-01-04T14:09:37Z</time>
      </trkpt>
      <trkpt lat="48.07935" lon="7.58951">
        <ele>189.52</ele>
        <time>2017-01-04T14:09:45Z</time>
      </trkpt>
      <trkpt lat="48.07945" lon="7.58956">
        <ele>185.67</ele>
        <time>2017-01-04T14:09:53Z</time>
      </trkpt>
      <trkpt lat="48.07955" lon="7.58955">
        <ele>188.08</ele>
        <time>2017-01-04T14:10:02Z</time>
      </trkpt>
      <trkpt lat="48.07967" lon="7.58959">
        <ele>186.15</ele>
        <time>2017-01-04T14:10:14Z</time>
      </trkpt>
      <trkpt lat="48.07969" lon="7.58956">
        <ele>184.71</ele>
        <time>2017-01-04T14:12:19Z</time>
      </trkpt>
      <trkpt lat="48.07963" lon="7.58966">
        <ele>186.63</ele>
        <time>2017-01-04T14:14:02Z</time>
      </trkpt>
      <trkpt lat="48.07968" lon="7.58973">
        <ele>186.63</ele>
        <time>2017-01-04T14:15:38Z</time>
      </trkpt>
      <trkpt lat="48.07977" lon="7.58956">
        <ele>187.11</ele>
        <time>2017-01-04T14:15:58Z</time>
      </trkpt>
      <trkpt lat="48.07987" lon="7.58954">
        <ele>188.56</ele>
        <time>2017-01-04T14:16:11Z</time>
      </trkpt>
      <trkpt lat="48.07997" lon="7.58955">
        <ele>189.04</ele>
        <time>2017-01-04T14:16:21Z</time>
      </trkpt>
      <trkpt lat="48.08005" lon="7.58957">
        <ele>188.56</ele>
        <time>2017-01-04T14:16:32Z</time>
      </trkpt>
      <trkpt lat="48.08015" lon="7.58959">
        <ele>187.11</ele>
        <time>2017-01-04T14:16:54Z</time>
      </trkpt>
      <trkpt lat="48.08024" lon="7.58964">
        <ele>187.59</ele>
        <time>2017-01-04T14:17:02Z</time>
      </trkpt>
      <trkpt lat="48.08033" lon="7.5897">
        <ele>187.59</ele>
        <time>2017-01-04T14:17:10Z</time>
      </trkpt>
      <trkpt lat="48.0804" lon="7.58975">
        <ele>188.08</ele>
        <time>2017-01-04T14:17:19Z</time>
      </trkpt>
      <trkpt lat="48.08051" lon="7.58975">
        <ele>188.56</ele>
        <time>2017-01-04T14:17:27Z</time>
      </trkpt>
      <trkpt lat="48.08062" lon="7.58975">
        <ele>189.52</ele>
        <time>2017-01-04T14:17:35Z</time>
      </trkpt>
      <trkpt lat="48.08073" lon="7.58974">
        <ele>188.56</ele>
        <time>2017-01-04T14:17:47Z</time>
      </trkpt>
      <trkpt lat="48.08085" lon="7.58975">
        <ele>189.52</ele>
        <time>2017-01-04T14:17:55Z</time>
      </trkpt>
      <trkpt lat="48.08095" lon="7.58974">
        <ele>186.15</ele>
        <time>2017-01-04T14:18:03Z</time>
      </trkpt>
      <trkpt lat="48.08106" lon="7.58975">
        <ele>187.59</ele>
        <time>2017-01-04T14:18:12Z</time>
      </trkpt>
      <trkpt lat="48.08118" lon="7.58979">
        <ele>188.08</ele>
        <time>2017-01-04T14:18:21Z</time>
      </trkpt>
      <trkpt lat="48.08131" lon="7.58984">
        <ele>189.52</ele>
        <time>2017-01-04T14:18:32Z</time>
      </trkpt>
      <trkpt lat="48.0814" lon="7.58993">
        <ele>189.52</ele>
        <time>2017-01-04T14:18:41Z</time>
      </trkpt>
      <trkpt lat="48.0815" lon="7.58995">
        <ele>189.04</ele>
        <time>2017-01-04T14:18:49Z</time>
      </trkpt>
      <trkpt lat="48.08159" lon="7.59">
        <ele>189.04</ele>
        <time>2017-01-04T14:18:58Z</time>
      </trkpt>
      <trkpt lat="48.08169" lon="7.59003">
        <ele>186.63</ele>
        <time>2017-01-04T14:19:06Z</time>
      </trkpt>
      <trkpt lat="48.08179" lon="7.59003">
        <ele>190</ele>
        <time>2017-01-04T14:19:14Z</time>
      </trkpt>
      <trkpt lat="48.08189" lon="7.59002">
        <ele>190</ele>
        <time>2017-01-04T14:19:21Z</time>
      </trkpt>
      <trkpt lat="48.08199" lon="7.59001">
        <ele>189.52</ele>
        <time>2017-01-04T14:19:28Z</time>
      </trkpt>
      <trkpt lat="48.08209" lon="7.59004">
        <ele>188.08</ele>
        <time>2017-01-04T14:19:37Z</time>
      </trkpt>
      <trkpt lat="48.08221" lon="7.59003">
        <ele>189.52</ele>
        <time>2017-01-04T14:19:45Z</time>
      </trkpt>
      <trkpt lat="48.08233" lon="7.58998">
        <ele>189.52</ele>
        <time>2017-01-04T14:19:53Z</time>
      </trkpt>
      <trkpt lat="48.08244" lon="7.58995">
        <ele>189.04</ele>
        <time>2017-01-04T14:20:05Z</time>
      </trkpt>
      <trkpt lat="48.08255" lon="7.58992">
        <ele>189.04</ele>
        <time>2017-01-04T14:20:14Z</time>
      </trkpt>
      <trkpt lat="48.08266" lon="7.5899">
        <ele>188.56</ele>
        <time>2017-01-04T14:20:25Z</time>
      </trkpt>
      <trkpt lat="48.08277" lon="7.58994">
        <ele>189.04</ele>
        <time>2017-01-04T14:20:35Z</time>
      </trkpt>
      <trkpt lat="48.0829" lon="7.58999">
        <ele>188.56</ele>
        <time>2017-01-04T14:20:45Z</time>
      </trkpt>
      <trkpt lat="48.08301" lon="7.58998">
        <ele>188.56</ele>
        <time>2017-01-04T14:20:55Z</time>
      </trkpt>
      <trkpt lat="48.0824" lon="7.58995">
        <ele>239.99</ele>
        <time>2017-01-04T14:21:27Z</time>
      </trkpt>
      <trkpt lat="48.08315" lon="7.59001">
        <ele>189.52</ele>
        <time>2017-01-04T14:21:37Z</time>
      </trkpt>
      <trkpt lat="48.0833" lon="7.59001">
        <ele>189.52</ele>
        <time>2017-01-04T14:21:57Z</time>
      </trkpt>
      <trkpt lat="48.08343" lon="7.59006">
        <ele>190.96</ele>
        <time>2017-01-04T14:22:06Z</time>
      </trkpt>
      <trkpt lat="48.08356" lon="7.5901">
        <ele>190.48</ele>
        <time>2017-01-04T14:22:16Z</time>
      </trkpt>
      <trkpt lat="48.08366" lon="7.59012">
        <ele>191.44</ele>
        <time>2017-01-04T14:22:23Z</time>
      </trkpt>
      <trkpt lat="48.08375" lon="7.59014">
        <ele>190.96</ele>
        <time>2017-01-04T14:22:31Z</time>
      </trkpt>
      <trkpt lat="48.08385" lon="7.59015">
        <ele>189.04</ele>
        <time>2017-01-04T14:22:38Z</time>
      </trkpt>
      <trkpt lat="48.08393" lon="7.5902">
        <ele>189.04</ele>
        <time>2017-01-04T14:22:45Z</time>
      </trkpt>
      <trkpt lat="48.08402" lon="7.59021">
        <ele>190.96</ele>
        <time>2017-01-04T14:22:52Z</time>
      </trkpt>
      <trkpt lat="48.08412" lon="7.59025">
        <ele>192.4</ele>
        <time>2017-01-04T14:22:59Z</time>
      </trkpt>
      <trkpt lat="48.08421" lon="7.59027">
        <ele>190</ele>
        <time>2017-01-04T14:23:06Z</time>
      </trkpt>
      <trkpt lat="48.0843" lon="7.5903">
        <ele>190.96</ele>
        <time>2017-01-04T14:23:12Z</time>
      </trkpt>
      <trkpt lat="48.08439" lon="7.59033">
        <ele>192.4</ele>
        <time>2017-01-04T14:23:19Z</time>
      </trkpt>
      <trkpt lat="48.0845" lon="7.59034">
        <ele>190.48</ele>
        <time>2017-01-04T14:23:26Z</time>
      </trkpt>
      <trkpt lat="48.08458" lon="7.59037">
        <ele>189.52</ele>
        <time>2017-01-04T14:23:33Z</time>
      </trkpt>
      <trkpt lat="48.08469" lon="7.59039">
        <ele>192.4</ele>
        <time>2017-01-04T14:23:40Z</time>
      </trkpt>
      <trkpt lat="48.08478" lon="7.59042">
        <ele>190.48</ele>
        <time>2017-01-04T14:23:48Z</time>
      </trkpt>
      <trkpt lat="48.08487" lon="7.59041">
        <ele>189.04</ele>
        <time>2017-01-04T14:23:54Z</time>
      </trkpt>
      <trkpt lat="48.085" lon="7.59041">
        <ele>189.04</ele>
        <time>2017-01-04T14:24:11Z</time>
      </trkpt>
      <trkpt lat="48.08516" lon="7.5904">
        <ele>190.96</ele>
        <time>2017-01-04T14:25:03Z</time>
      </trkpt>
      <trkpt lat="48.0853" lon="7.59047">
        <ele>190.96</ele>
        <time>2017-01-04T14:25:16Z</time>
      </trkpt>
      <trkpt lat="48.08539" lon="7.59051">
        <ele>190</ele>
        <time>2017-01-04T14:25:24Z</time>
      </trkpt>
      <trkpt lat="48.08551" lon="7.5905">
        <ele>190.96</ele>
        <time>2017-01-04T14:25:34Z</time>
      </trkpt>
      <trkpt lat="48.08561" lon="7.59048">
        <ele>188.56</ele>
        <time>2017-01-04T14:25:42Z</time>
      </trkpt>
      <trkpt lat="48.08574" lon="7.59053">
        <ele>188.56</ele>
        <time>2017-01-04T14:25:51Z</time>
      </trkpt>
      <trkpt lat="48.08585" lon="7.59054">
        <ele>188.56</ele>
        <time>2017-01-04T14:26:04Z</time>
      </trkpt>
      <trkpt lat="48.08595" lon="7.59056">
        <ele>190.48</ele>
        <time>2017-01-04T14:26:11Z</time>
      </trkpt>
      <trkpt lat="48.08605" lon="7.59056">
        <ele>190</ele>
        <time>2017-01-04T14:26:18Z</time>
      </trkpt>
      <trkpt lat="48.08615" lon="7.59061">
        <ele>190.96</ele>
        <time>2017-01-04T14:26:25Z</time>
      </trkpt>
      <trkpt lat="48.08623" lon="7.59062">
        <ele>190.96</ele>
        <time>2017-01-04T14:26:32Z</time>
      </trkpt>
      <trkpt lat="48.08633" lon="7.59063">
        <ele>190.48</ele>
        <time>2017-01-04T14:26:39Z</time>
      </trkpt>
      <trkpt lat="48.08644" lon="7.59064">
        <ele>190</ele>
        <time>2017-01-04T14:26:47Z</time>
      </trkpt>
      <trkpt lat="48.08654" lon="7.59064">
        <ele>189.04</ele>
        <time>2017-01-04T14:26:54Z</time>
      </trkpt>
      <trkpt lat="48.08664" lon="7.59065">
        <ele>190</ele>
        <time>2017-01-04T14:27:01Z</time>
      </trkpt>
      <trkpt lat="48.08673" lon="7.5907">
        <ele>187.59</ele>
        <time>2017-01-04T14:27:09Z</time>
      </trkpt>
      <trkpt lat="48.08683" lon="7.59074">
        <ele>187.11</ele>
        <time>2017-01-04T14:27:16Z</time>
      </trkpt>
      <trkpt lat="48.08692" lon="7.59075">
        <ele>188.08</ele>
        <time>2017-01-04T14:27:23Z</time>
      </trkpt>
      <trkpt lat="48.08702" lon="7.59077">
        <ele>186.63</ele>
        <time>2017-01-04T14:27:30Z</time>
      </trkpt>
      <trkpt lat="48.08712" lon="7.5908">
        <ele>187.59</ele>
        <time>2017-01-04T14:27:37Z</time>
      </trkpt>
      <trkpt lat="48.08722" lon="7.59081">
        <ele>187.11</ele>
        <time>2017-01-04T14:27:44Z</time>
      </trkpt>
      <trkpt lat="48.08732" lon="7.59083">
        <ele>186.63</ele>
        <time>2017-01-04T14:27:52Z</time>
      </trkpt>
      <trkpt lat="48.08741" lon="7.59087">
        <ele>187.11</ele>
        <time>2017-01-04T14:27:59Z</time>
      </trkpt>
      <trkpt lat="48.08751" lon="7.5909">
        <ele>186.63</ele>
        <time>2017-01-04T14:28:07Z</time>
      </trkpt>
      <trkpt lat="48.08763" lon="7.59096">
        <ele>186.63</ele>
        <time>2017-01-04T14:28:17Z</time>
      </trkpt>
      <trkpt lat="48.08775" lon="7.59099">
        <ele>185.19</ele>
        <time>2017-01-04T14:28:26Z</time>
      </trkpt>
      <trkpt lat="48.08788" lon="7.59105">
        <ele>187.59</ele>
        <time>2017-01-04T14:28:37Z</time>
      </trkpt>
      <trkpt lat="48.08799" lon="7.5911">
        <ele>185.67</ele>
        <time>2017-01-04T14:28:46Z</time>
      </trkpt>
      <trkpt lat="48.08808" lon="7.59111">
        <ele>188.08</ele>
        <time>2017-01-04T14:28:57Z</time>
      </trkpt>
      <trkpt lat="48.08821" lon="7.59109">
        <ele>188.08</ele>
        <time>2017-01-04T14:29:08Z</time>
      </trkpt>
      <trkpt lat="48.08834" lon="7.59109">
        <ele>188.08</ele>
        <time>2017-01-04T14:29:19Z</time>
      </trkpt>
      <trkpt lat="48.0885" lon="7.59112">
        <ele>187.11</ele>
        <time>2017-01-04T14:29:35Z</time>
      </trkpt>
      <trkpt lat="48.08861" lon="7.59114">
        <ele>186.63</ele>
        <time>2017-01-04T14:29:44Z</time>
      </trkpt>
      <trkpt lat="48.08871" lon="7.59115">
        <ele>187.11</ele>
        <time>2017-01-04T14:29:57Z</time>
      </trkpt>
      <trkpt lat="48.08885" lon="7.59119">
        <ele>186.63</ele>
        <time>2017-01-04T14:30:08Z</time>
      </trkpt>
      <trkpt lat="48.08898" lon="7.59119">
        <ele>188.08</ele>
        <time>2017-01-04T14:30:21Z</time>
      </trkpt>
      <trkpt lat="48.0891" lon="7.5912">
        <ele>185.67</ele>
        <time>2017-01-04T14:30:30Z</time>
      </trkpt>
      <trkpt lat="48.08922" lon="7.59118">
        <ele>189.04</ele>
        <time>2017-01-04T14:30:40Z</time>
      </trkpt>
      <trkpt lat="48.08934" lon="7.59121">
        <ele>186.63</ele>
        <time>2017-01-04T14:30:49Z</time>
      </trkpt>
      <trkpt lat="48.08945" lon="7.59123">
        <ele>187.59</ele>
        <time>2017-01-04T14:31:01Z</time>
      </trkpt>
      <trkpt lat="48.08958" lon="7.59126">
        <ele>187.59</ele>
        <time>2017-01-04T14:31:10Z</time>
      </trkpt>
      <trkpt lat="48.08973" lon="7.59135">
        <ele>185.67</ele>
        <time>2017-01-04T14:31:21Z</time>
      </trkpt>
      <trkpt lat="48.08984" lon="7.59135">
        <ele>186.15</ele>
        <time>2017-01-04T14:31:31Z</time>
      </trkpt>
      <trkpt lat="48.08996" lon="7.59138">
        <ele>187.59</ele>
        <time>2017-01-04T14:31:40Z</time>
      </trkpt>
      <trkpt lat="48.09008" lon="7.59137">
        <ele>186.63</ele>
        <time>2017-01-04T14:31:50Z</time>
      </trkpt>
      <trkpt lat="48.09019" lon="7.59138">
        <ele>189.52</ele>
        <time>2017-01-04T14:31:59Z</time>
      </trkpt>
      <trkpt lat="48.09031" lon="7.5914">
        <ele>186.15</ele>
        <time>2017-01-04T14:32:12Z</time>
      </trkpt>
      <trkpt lat="48.09043" lon="7.59143">
        <ele>187.11</ele>
        <time>2017-01-04T14:32:22Z</time>
      </trkpt>
      <trkpt lat="48.09056" lon="7.59146">
        <ele>186.63</ele>
        <time>2017-01-04T14:32:31Z</time>
      </trkpt>
      <trkpt lat="48.09067" lon="7.59148">
        <ele>188.56</ele>
        <time>2017-01-04T14:32:39Z</time>
      </trkpt>
      <trkpt lat="48.09078" lon="7.59152">
        <ele>190</ele>
        <time>2017-01-04T14:32:49Z</time>
      </trkpt>
      <trkpt lat="48.09092" lon="7.59154">
        <ele>187.11</ele>
        <time>2017-01-04T14:33:00Z</time>
      </trkpt>
      <trkpt lat="48.09105" lon="7.59155">
        <ele>186.15</ele>
        <time>2017-01-04T14:33:13Z</time>
      </trkpt>
      <trkpt lat="48.09118" lon="7.59156">
        <ele>188.56</ele>
        <time>2017-01-04T14:33:25Z</time>
      </trkpt>
      <trkpt lat="48.09131" lon="7.5916">
        <ele>188.56</ele>
        <time>2017-01-04T14:33:35Z</time>
      </trkpt>
      <trkpt lat="48.09145" lon="7.5916">
        <ele>186.63</ele>
        <time>2017-01-04T14:33:47Z</time>
      </trkpt>
      <trkpt lat="48.09157" lon="7.59162">
        <ele>186.63</ele>
        <time>2017-01-04T14:33:59Z</time>
      </trkpt>
      <trkpt lat="48.0917" lon="7.59166">
        <ele>185.19</ele>
        <time>2017-01-04T14:34:09Z</time>
      </trkpt>
      <trkpt lat="48.09181" lon="7.59169">
        <ele>186.63</ele>
        <time>2017-01-04T14:34:18Z</time>
      </trkpt>
      <trkpt lat="48.09192" lon="7.59171">
        <ele>185.19</ele>
        <time>2017-01-04T14:34:28Z</time>
      </trkpt>
      <trkpt lat="48.09203" lon="7.59179">
        <ele>186.15</ele>
        <time>2017-01-04T14:34:38Z</time>
      </trkpt>
      <trkpt lat="48.09214" lon="7.59182">
        <ele>185.67</ele>
        <time>2017-01-04T14:34:53Z</time>
      </trkpt>
      <trkpt lat="48.09232" lon="7.59185">
        <ele>183.27</ele>
        <time>2017-01-04T14:35:10Z</time>
      </trkpt>
      <trkpt lat="48.09249" lon="7.59176">
        <ele>182.31</ele>
        <time>2017-01-04T14:36:38Z</time>
      </trkpt>
      <trkpt lat="48.09259" lon="7.59178">
        <ele>183.27</ele>
        <time>2017-01-04T14:36:50Z</time>
      </trkpt>
      <trkpt lat="48.0927" lon="7.5918">
        <ele>185.67</ele>
        <time>2017-01-04T14:37:02Z</time>
      </trkpt>
      <trkpt lat="48.09279" lon="7.59183">
        <ele>186.63</ele>
        <time>2017-01-04T14:37:14Z</time>
      </trkpt>
      <trkpt lat="48.09293" lon="7.59192">
        <ele>187.59</ele>
        <time>2017-01-04T14:37:26Z</time>
      </trkpt>
      <trkpt lat="48.09303" lon="7.59203">
        <ele>185.19</ele>
        <time>2017-01-04T14:37:35Z</time>
      </trkpt>
      <trkpt lat="48.09313" lon="7.59193">
        <ele>184.71</ele>
        <time>2017-01-04T14:37:45Z</time>
      </trkpt>
      <trkpt lat="48.09322" lon="7.59198">
        <ele>184.23</ele>
        <time>2017-01-04T14:37:54Z</time>
      </trkpt>
      <trkpt lat="48.09332" lon="7.59202">
        <ele>185.67</ele>
        <time>2017-01-04T14:38:06Z</time>
      </trkpt>
      <trkpt lat="48.09343" lon="7.5921">
        <ele>186.63</ele>
        <time>2017-01-04T14:38:18Z</time>
      </trkpt>
      <trkpt lat="48.09356" lon="7.59211">
        <ele>187.11</ele>
        <time>2017-01-04T14:38:29Z</time>
      </trkpt>
      <trkpt lat="48.09369" lon="7.59213">
        <ele>186.63</ele>
        <time>2017-01-04T14:38:41Z</time>
      </trkpt>
      <trkpt lat="48.09381" lon="7.59217">
        <ele>187.59</ele>
        <time>2017-01-04T14:38:52Z</time>
      </trkpt>
      <trkpt lat="48.09395" lon="7.5922">
        <ele>185.67</ele>
        <time>2017-01-04T14:39:06Z</time>
      </trkpt>
      <trkpt lat="48.09408" lon="7.59222">
        <ele>185.67</ele>
        <time>2017-01-04T14:39:19Z</time>
      </trkpt>
      <trkpt lat="48.09423" lon="7.59225">
        <ele>186.63</ele>
        <time>2017-01-04T14:39:35Z</time>
      </trkpt>
      <trkpt lat="48.09436" lon="7.59224">
        <ele>188.08</ele>
        <time>2017-01-04T14:39:46Z</time>
      </trkpt>
      <trkpt lat="48.09447" lon="7.59227">
        <ele>186.63</ele>
        <time>2017-01-04T14:39:58Z</time>
      </trkpt>
      <trkpt lat="48.09463" lon="7.59228">
        <ele>188.08</ele>
        <time>2017-01-04T14:40:10Z</time>
      </trkpt>
      <trkpt lat="48.09477" lon="7.59229">
        <ele>188.08</ele>
        <time>2017-01-04T14:40:22Z</time>
      </trkpt>
      <trkpt lat="48.09488" lon="7.59229">
        <ele>189.04</ele>
        <time>2017-01-04T14:40:31Z</time>
      </trkpt>
      <trkpt lat="48.095" lon="7.5923">
        <ele>186.63</ele>
        <time>2017-01-04T14:40:41Z</time>
      </trkpt>
      <trkpt lat="48.09513" lon="7.59232">
        <ele>188.56</ele>
        <time>2017-01-04T14:40:51Z</time>
      </trkpt>
      <trkpt lat="48.09524" lon="7.59232">
        <ele>186.15</ele>
        <time>2017-01-04T14:40:59Z</time>
      </trkpt>
      <trkpt lat="48.09536" lon="7.59231">
        <ele>189.52</ele>
        <time>2017-01-04T14:41:11Z</time>
      </trkpt>
      <trkpt lat="48.09549" lon="7.59236">
        <ele>187.11</ele>
        <time>2017-01-04T14:41:21Z</time>
      </trkpt>
      <trkpt lat="48.09566" lon="7.59241">
        <ele>188.56</ele>
        <time>2017-01-04T14:41:33Z</time>
      </trkpt>
      <trkpt lat="48.09577" lon="7.59241">
        <ele>185.67</ele>
        <time>2017-01-04T14:41:44Z</time>
      </trkpt>
      <trkpt lat="48.09588" lon="7.59242">
        <ele>187.11</ele>
        <time>2017-01-04T14:41:53Z</time>
      </trkpt>
      <trkpt lat="48.09604" lon="7.59246">
        <ele>189.04</ele>
        <time>2017-01-04T14:42:04Z</time>
      </trkpt>
      <trkpt lat="48.09617" lon="7.59249">
        <ele>185.67</ele>
        <time>2017-01-04T14:42:15Z</time>
      </trkpt>
      <trkpt lat="48.09629" lon="7.59253">
        <ele>189.04</ele>
        <time>2017-01-04T14:42:26Z</time>
      </trkpt>
      <trkpt lat="48.09641" lon="7.59257">
        <ele>186.15</ele>
        <time>2017-01-04T14:42:33Z</time>
      </trkpt>
      <trkpt lat="48.09652" lon="7.5926">
        <ele>187.59</ele>
        <time>2017-01-04T14:42:40Z</time>
      </trkpt>
      <trkpt lat="48.09663" lon="7.5926">
        <ele>188.56</ele>
        <time>2017-01-04T14:42:49Z</time>
      </trkpt>
      <trkpt lat="48.09674" lon="7.59263">
        <ele>186.15</ele>
        <time>2017-01-04T14:42:56Z</time>
      </trkpt>
      <trkpt lat="48.09683" lon="7.59264">
        <ele>187.11</ele>
        <time>2017-01-04T14:43:03Z</time>
      </trkpt>
      <trkpt lat="48.09693" lon="7.59265">
        <ele>187.11</ele>
        <time>2017-01-04T14:43:12Z</time>
      </trkpt>
      <trkpt lat="48.09704" lon="7.59266">
        <ele>189.52</ele>
        <time>2017-01-04T14:43:22Z</time>
      </trkpt>
      <trkpt lat="48.09716" lon="7.59267">
        <ele>187.11</ele>
        <time>2017-01-04T14:43:33Z</time>
      </trkpt>
      <trkpt lat="48.09729" lon="7.59274">
        <ele>187.11</ele>
        <time>2017-01-04T14:43:46Z</time>
      </trkpt>
      <trkpt lat="48.09733" lon="7.59284">
        <ele>188.08</ele>
        <time>2017-01-04T14:45:30Z</time>
      </trkpt>
      <trkpt lat="48.09739" lon="7.59295">
        <ele>186.15</ele>
        <time>2017-01-04T14:45:56Z</time>
      </trkpt>
      <trkpt lat="48.09742" lon="7.59308">
        <ele>186.15</ele>
        <time>2017-01-04T14:46:05Z</time>
      </trkpt>
      <trkpt lat="48.09744" lon="7.59322">
        <ele>184.71</ele>
        <time>2017-01-04T14:46:17Z</time>
      </trkpt>
      <trkpt lat="48.09746" lon="7.59335">
        <ele>185.67</ele>
        <time>2017-01-04T14:46:30Z</time>
      </trkpt>
      <trkpt lat="48.0975" lon="7.59349">
        <ele>185.19</ele>
        <time>2017-01-04T14:46:44Z</time>
      </trkpt>
      <trkpt lat="48.09754" lon="7.59364">
        <ele>185.19</ele>
        <time>2017-01-04T14:46:55Z</time>
      </trkpt>
      <trkpt lat="48.09756" lon="7.5938">
        <ele>185.19</ele>
        <time>2017-01-04T14:47:06Z</time>
      </trkpt>
      <trkpt lat="48.09759" lon="7.59396">
        <ele>182.79</ele>
        <time>2017-01-04T14:47:16Z</time>
      </trkpt>
      <trkpt lat="48.09762" lon="7.59408">
        <ele>183.75</ele>
        <time>2017-01-04T14:47:27Z</time>
      </trkpt>
      <trkpt lat="48.09762" lon="7.59423">
        <ele>183.27</ele>
        <time>2017-01-04T14:47:36Z</time>
      </trkpt>
      <trkpt lat="48.09762" lon="7.59439">
        <ele>183.75</ele>
        <time>2017-01-04T14:47:44Z</time>
      </trkpt>
      <trkpt lat="48.0976" lon="7.59452">
        <ele>183.75</ele>
        <time>2017-01-04T14:47:52Z</time>
      </trkpt>
      <trkpt lat="48.09757" lon="7.59465">
        <ele>182.79</ele>
        <time>2017-01-04T14:48:01Z</time>
      </trkpt>
      <trkpt lat="48.09752" lon="7.59478">
        <ele>181.35</ele>
        <time>2017-01-04T14:48:10Z</time>
      </trkpt>
      <trkpt lat="48.09747" lon="7.59493">
        <ele>181.35</ele>
        <time>2017-01-04T14:48:19Z</time>
      </trkpt>
      <trkpt lat="48.09744" lon="7.59508">
        <ele>183.27</ele>
        <time>2017-01-04T14:48:29Z</time>
      </trkpt>
      <trkpt lat="48.09738" lon="7.59523">
        <ele>181.35</ele>
        <time>2017-01-04T14:48:39Z</time>
      </trkpt>
      <trkpt lat="48.09733" lon="7.5954">
        <ele>183.75</ele>
        <time>2017-01-04T14:48:49Z</time>
      </trkpt>
      <trkpt lat="48.09735" lon="7.59555">
        <ele>182.31</ele>
        <time>2017-01-04T14:49:00Z</time>
      </trkpt>
      <trkpt lat="48.09741" lon="7.59566">
        <ele>184.71</ele>
        <time>2017-01-04T14:49:10Z</time>
      </trkpt>
      <trkpt lat="48.09749" lon="7.59575">
        <ele>183.75</ele>
        <time>2017-01-04T14:49:20Z</time>
      </trkpt>
      <trkpt lat="48.09756" lon="7.59585">
        <ele>185.19</ele>
        <time>2017-01-04T14:49:28Z</time>
      </trkpt>
      <trkpt lat="48.09764" lon="7.59592">
        <ele>182.31</ele>
        <time>2017-01-04T14:49:37Z</time>
      </trkpt>
      <trkpt lat="48.09772" lon="7.59601">
        <ele>181.83</ele>
        <time>2017-01-04T14:49:45Z</time>
      </trkpt>
      <trkpt lat="48.0978" lon="7.59609">
        <ele>184.71</ele>
        <time>2017-01-04T14:49:53Z</time>
      </trkpt>
      <trkpt lat="48.09787" lon="7.59614">
        <ele>184.23</ele>
        <time>2017-01-04T14:50:02Z</time>
      </trkpt>
      <trkpt lat="48.09796" lon="7.59621">
        <ele>184.23</ele>
        <time>2017-01-04T14:50:11Z</time>
      </trkpt>
      <trkpt lat="48.09804" lon="7.59626">
        <ele>184.23</ele>
        <time>2017-01-04T14:50:36Z</time>
      </trkpt>
      <trkpt lat="48.09812" lon="7.59635">
        <ele>184.71</ele>
        <time>2017-01-04T14:50:46Z</time>
      </trkpt>
      <trkpt lat="48.0982" lon="7.59646">
        <ele>186.15</ele>
        <time>2017-01-04T14:50:55Z</time>
      </trkpt>
      <trkpt lat="48.09826" lon="7.59654">
        <ele>184.23</ele>
        <time>2017-01-04T14:51:08Z</time>
      </trkpt>
      <trkpt lat="48.09834" lon="7.59666">
        <ele>184.71</ele>
        <time>2017-01-04T14:51:19Z</time>
      </trkpt>
      <trkpt lat="48.09841" lon="7.59678">
        <ele>184.23</ele>
        <time>2017-01-04T14:51:30Z</time>
      </trkpt>
      <trkpt lat="48.09848" lon="7.59687">
        <ele>185.67</ele>
        <time>2017-01-04T14:51:41Z</time>
      </trkpt>
      <trkpt lat="48.09854" lon="7.59697">
        <ele>184.71</ele>
        <time>2017-01-04T14:52:00Z</time>
      </trkpt>
      <trkpt lat="48.09857" lon="7.59695">
        <ele>185.19</ele>
        <time>2017-01-04T14:53:35Z</time>
      </trkpt>
      <trkpt lat="48.09852" lon="7.59687">
        <ele>185.67</ele>
        <time>2017-01-04T14:54:04Z</time>
      </trkpt>
      <trkpt lat="48.09859" lon="7.59688">
        <ele>185.67</ele>
        <time>2017-01-04T14:54:35Z</time>
      </trkpt>
      <trkpt lat="48.0986" lon="7.59681">
        <ele>184.71</ele>
        <time>2017-01-04T14:55:32Z</time>
      </trkpt>
      <trkpt lat="48.09851" lon="7.59691">
        <ele>185.19</ele>
        <time>2017-01-04T14:56:04Z</time>
      </trkpt>
      <trkpt lat="48.09852" lon="7.59699">
        <ele>184.23</ele>
        <time>2017-01-04T14:56:24Z</time>
      </trkpt>
      <trkpt lat="48.09854" lon="7.59701">
        <ele>183.75</ele>
        <time>2017-01-04T14:56:57Z</time>
      </trkpt>
      <trkpt lat="48.09856" lon="7.59699">
        <ele>184.23</ele>
        <time>2017-01-04T14:58:17Z</time>
      </trkpt>
      <trkpt lat="48.09861" lon="7.59722">
        <ele>183.75</ele>
        <time>2017-01-04T14:58:32Z</time>
      </trkpt>
      <trkpt lat="48.09869" lon="7.59732">
        <ele>186.15</ele>
        <time>2017-01-04T14:59:01Z</time>
      </trkpt>
      <trkpt lat="48.09879" lon="7.59736">
        <ele>185.67</ele>
        <time>2017-01-04T14:59:18Z</time>
      </trkpt>
      <trkpt lat="48.09887" lon="7.59726">
        <ele>185.67</ele>
        <time>2017-01-04T14:59:31Z</time>
      </trkpt>
      <trkpt lat="48.09895" lon="7.59715">
        <ele>185.19</ele>
        <time>2017-01-04T14:59:42Z</time>
      </trkpt>
      <trkpt lat="48.09904" lon="7.59703">
        <ele>186.15</ele>
        <time>2017-01-04T14:59:53Z</time>
      </trkpt>
      <trkpt lat="48.0991" lon="7.59692">
        <ele>185.67</ele>
        <time>2017-01-04T15:00:03Z</time>
      </trkpt>
      <trkpt lat="48.09917" lon="7.59684">
        <ele>186.15</ele>
        <time>2017-01-04T15:00:17Z</time>
      </trkpt>
      <trkpt lat="48.09926" lon="7.59678">
        <ele>189.52</ele>
        <time>2017-01-04T15:00:28Z</time>
      </trkpt>
      <trkpt lat="48.09932" lon="7.5967">
        <ele>187.11</ele>
        <time>2017-01-04T15:00:42Z</time>
      </trkpt>
      <trkpt lat="48.09943" lon="7.59667">
        <ele>190</ele>
        <time>2017-01-04T15:00:54Z</time>
      </trkpt>
      <trkpt lat="48.09953" lon="7.59676">
        <ele>187.59</ele>
        <time>2017-01-04T15:01:05Z</time>
      </trkpt>
      <trkpt lat="48.0996" lon="7.59687">
        <ele>191.92</ele>
        <time>2017-01-04T15:01:18Z</time>
      </trkpt>
      <trkpt lat="48.09967" lon="7.59698">
        <ele>190</ele>
        <time>2017-01-04T15:01:32Z</time>
      </trkpt>
      <trkpt lat="48.09975" lon="7.59705">
        <ele>190</ele>
        <time>2017-01-04T15:01:41Z</time>
      </trkpt>
      <trkpt lat="48.09981" lon="7.59713">
        <ele>191.44</ele>
        <time>2017-01-04T15:01:52Z</time>
      </trkpt>
      <trkpt lat="48.09989" lon="7.59722">
        <ele>196.25</ele>
        <time>2017-01-04T15:02:03Z</time>
      </trkpt>
      <trkpt lat="48.09998" lon="7.59727">
        <ele>197.21</ele>
        <time>2017-01-04T15:02:13Z</time>
      </trkpt>
      <trkpt lat="48.10007" lon="7.59735">
        <ele>196.73</ele>
        <time>2017-01-04T15:02:25Z</time>
      </trkpt>
      <trkpt lat="48.10017" lon="7.59745">
        <ele>197.69</ele>
        <time>2017-01-04T15:02:36Z</time>
      </trkpt>
      <trkpt lat="48.10026" lon="7.59752">
        <ele>198.65</ele>
        <time>2017-01-04T15:02:50Z</time>
      </trkpt>
      <trkpt lat="48.10037" lon="7.59754">
        <ele>200.57</ele>
        <time>2017-01-04T15:03:01Z</time>
      </trkpt>
      <trkpt lat="48.10047" lon="7.59761">
        <ele>201.53</ele>
        <time>2017-01-04T15:03:16Z</time>
      </trkpt>
      <trkpt lat="48.10056" lon="7.59767">
        <ele>201.05</ele>
        <time>2017-01-04T15:03:34Z</time>
      </trkpt>
      <trkpt lat="48.10065" lon="7.59774">
        <ele>202.01</ele>
        <time>2017-01-04T15:03:48Z</time>
      </trkpt>
      <trkpt lat="48.10072" lon="7.59786">
        <ele>202.98</ele>
        <time>2017-01-04T15:03:59Z</time>
      </trkpt>
      <trkpt lat="48.10087" lon="7.59798">
        <ele>202.01</ele>
        <time>2017-01-04T15:04:16Z</time>
      </trkpt>
      <trkpt lat="48.10097" lon="7.59807">
        <ele>200.09</ele>
        <time>2017-01-04T15:04:31Z</time>
      </trkpt>
      <trkpt lat="48.10106" lon="7.59817">
        <ele>201.05</ele>
        <time>2017-01-04T15:04:45Z</time>
      </trkpt>
      <trkpt lat="48.10113" lon="7.59823">
        <ele>201.05</ele>
        <time>2017-01-04T15:04:54Z</time>
      </trkpt>
      <trkpt lat="48.10119" lon="7.59835">
        <ele>200.57</ele>
        <time>2017-01-04T15:05:04Z</time>
      </trkpt>
      <trkpt lat="48.10126" lon="7.59844">
        <ele>201.05</ele>
        <time>2017-01-04T15:05:16Z</time>
      </trkpt>
      <trkpt lat="48.10135" lon="7.5985">
        <ele>203.46</ele>
        <time>2017-01-04T15:05:25Z</time>
      </trkpt>
      <trkpt lat="48.10145" lon="7.59858">
        <ele>202.49</ele>
        <time>2017-01-04T15:05:35Z</time>
      </trkpt>
      <trkpt lat="48.10154" lon="7.59864">
        <ele>202.49</ele>
        <time>2017-01-04T15:05:49Z</time>
      </trkpt>
      <trkpt lat="48.10164" lon="7.59876">
        <ele>203.46</ele>
        <time>2017-01-04T15:06:03Z</time>
      </trkpt>
      <trkpt lat="48.10166" lon="7.59878">
        <ele>204.9</ele>
        <time>2017-01-04T15:06:35Z</time>
      </trkpt>
      <trkpt lat="48.10175" lon="7.59881">
        <ele>205.86</ele>
        <time>2017-01-04T15:06:53Z</time>
      </trkpt>
      <trkpt lat="48.10183" lon="7.59894">
        <ele>206.34</ele>
        <time>2017-01-04T15:07:28Z</time>
      </trkpt>
      <trkpt lat="48.10193" lon="7.5991">
        <ele>204.9</ele>
        <time>2017-01-04T15:07:52Z</time>
      </trkpt>
      <trkpt lat="48.10198" lon="7.59922">
        <ele>205.38</ele>
        <time>2017-01-04T15:08:08Z</time>
      </trkpt>
      <trkpt lat="48.10199" lon="7.59935">
        <ele>202.98</ele>
        <time>2017-01-04T15:08:35Z</time>
      </trkpt>
      <trkpt lat="48.10199" lon="7.59949">
        <ele>203.94</ele>
        <time>2017-01-04T15:08:49Z</time>
      </trkpt>
      <trkpt lat="48.10197" lon="7.59962">
        <ele>203.46</ele>
        <time>2017-01-04T15:09:03Z</time>
      </trkpt>
      <trkpt lat="48.10198" lon="7.59977">
        <ele>201.53</ele>
        <time>2017-01-04T15:09:14Z</time>
      </trkpt>
      <trkpt lat="48.102" lon="7.59991">
        <ele>201.05</ele>
        <time>2017-01-04T15:09:24Z</time>
      </trkpt>
      <trkpt lat="48.10199" lon="7.60007">
        <ele>199.13</ele>
        <time>2017-01-04T15:09:35Z</time>
      </trkpt>
      <trkpt lat="48.10193" lon="7.60022">
        <ele>198.65</ele>
        <time>2017-01-04T15:09:46Z</time>
      </trkpt>
      <trkpt lat="48.10185" lon="7.6003">
        <ele>195.28</ele>
        <time>2017-01-04T15:09:56Z</time>
      </trkpt>
      <trkpt lat="48.10175" lon="7.60038">
        <ele>196.73</ele>
        <time>2017-01-04T15:10:07Z</time>
      </trkpt>
      <trkpt lat="48.10166" lon="7.60043">
        <ele>192.88</ele>
        <time>2017-01-04T15:10:17Z</time>
      </trkpt>
      <trkpt lat="48.10156" lon="7.60051">
        <ele>193.84</ele>
        <time>2017-01-04T15:10:29Z</time>
      </trkpt>
      <trkpt lat="48.10144" lon="7.60051">
        <ele>193.84</ele>
        <time>2017-01-04T15:10:39Z</time>
      </trkpt>
      <trkpt lat="48.10135" lon="7.60049">
        <ele>190.48</ele>
        <time>2017-01-04T15:10:47Z</time>
      </trkpt>
      <trkpt lat="48.10127" lon="7.6005">
        <ele>191.44</ele>
        <time>2017-01-04T15:10:55Z</time>
      </trkpt>
      <trkpt lat="48.10119" lon="7.60055">
        <ele>191.92</ele>
        <time>2017-01-04T15:11:04Z</time>
      </trkpt>
      <trkpt lat="48.1011" lon="7.60056">
        <ele>189.52</ele>
        <time>2017-01-04T15:11:13Z</time>
      </trkpt>
      <trkpt lat="48.10099" lon="7.60055">
        <ele>190.96</ele>
        <time>2017-01-04T15:11:20Z</time>
      </trkpt>
      <trkpt lat="48.10087" lon="7.60054">
        <ele>189.04</ele>
        <time>2017-01-04T15:11:29Z</time>
      </trkpt>
      <trkpt lat="48.10076" lon="7.60051">
        <ele>190</ele>
        <time>2017-01-04T15:11:37Z</time>
      </trkpt>
      <trkpt lat="48.10066" lon="7.60052">
        <ele>190</ele>
        <time>2017-01-04T15:11:46Z</time>
      </trkpt>
      <trkpt lat="48.10057" lon="7.60062">
        <ele>188.56</ele>
        <time>2017-01-04T15:11:54Z</time>
      </trkpt>
      <trkpt lat="48.1005" lon="7.60075">
        <ele>187.59</ele>
        <time>2017-01-04T15:12:04Z</time>
      </trkpt>
      <trkpt lat="48.10044" lon="7.60085">
        <ele>188.56</ele>
        <time>2017-01-04T15:12:15Z</time>
      </trkpt>
      <trkpt lat="48.10036" lon="7.60095">
        <ele>188.08</ele>
        <time>2017-01-04T15:12:25Z</time>
      </trkpt>
      <trkpt lat="48.1003" lon="7.60106">
        <ele>189.04</ele>
        <time>2017-01-04T15:12:34Z</time>
      </trkpt>
      <trkpt lat="48.10022" lon="7.60117">
        <ele>188.56</ele>
        <time>2017-01-04T15:12:44Z</time>
      </trkpt>
      <trkpt lat="48.10016" lon="7.60129">
        <ele>188.08</ele>
        <time>2017-01-04T15:12:57Z</time>
      </trkpt>
      <trkpt lat="48.1001" lon="7.60142">
        <ele>187.59</ele>
        <time>2017-01-04T15:13:07Z</time>
      </trkpt>
      <trkpt lat="48.10002" lon="7.60151">
        <ele>187.11</ele>
        <time>2017-01-04T15:13:16Z</time>
      </trkpt>
      <trkpt lat="48.09996" lon="7.60163">
        <ele>187.59</ele>
        <time>2017-01-04T15:13:25Z</time>
      </trkpt>
      <trkpt lat="48.09992" lon="7.60177">
        <ele>186.63</ele>
        <time>2017-01-04T15:13:34Z</time>
      </trkpt>
      <trkpt lat="48.09984" lon="7.60188">
        <ele>189.52</ele>
        <time>2017-01-04T15:13:43Z</time>
      </trkpt>
      <trkpt lat="48.09978" lon="7.60199">
        <ele>187.11</ele>
        <time>2017-01-04T15:13:51Z</time>
      </trkpt>
      <trkpt lat="48.09971" lon="7.60208">
        <ele>188.08</ele>
        <time>2017-01-04T15:14:00Z</time>
      </trkpt>
      <trkpt lat="48.09962" lon="7.60216">
        <ele>186.63</ele>
        <time>2017-01-04T15:14:09Z</time>
      </trkpt>
      <trkpt lat="48.09958" lon="7.6023">
        <ele>187.11</ele>
        <time>2017-01-04T15:14:18Z</time>
      </trkpt>
      <trkpt lat="48.09954" lon="7.60244">
        <ele>187.59</ele>
        <time>2017-01-04T15:14:27Z</time>
      </trkpt>
      <trkpt lat="48.09949" lon="7.6026">
        <ele>186.63</ele>
        <time>2017-01-04T15:14:37Z</time>
      </trkpt>
      <trkpt lat="48.09948" lon="7.60279">
        <ele>186.63</ele>
        <time>2017-01-04T15:14:47Z</time>
      </trkpt>
      <trkpt lat="48.09942" lon="7.6029">
        <ele>190</ele>
        <time>2017-01-04T15:14:56Z</time>
      </trkpt>
      <trkpt lat="48.09939" lon="7.60304">
        <ele>187.59</ele>
        <time>2017-01-04T15:15:06Z</time>
      </trkpt>
      <trkpt lat="48.09939" lon="7.60321">
        <ele>187.11</ele>
        <time>2017-01-04T15:15:16Z</time>
      </trkpt>
      <trkpt lat="48.09938" lon="7.60336">
        <ele>188.08</ele>
        <time>2017-01-04T15:15:25Z</time>
      </trkpt>
      <trkpt lat="48.09934" lon="7.60349">
        <ele>189.04</ele>
        <time>2017-01-04T15:15:34Z</time>
      </trkpt>
      <trkpt lat="48.09933" lon="7.60364">
        <ele>189.52</ele>
        <time>2017-01-04T15:15:43Z</time>
      </trkpt>
      <trkpt lat="48.09936" lon="7.60381">
        <ele>189.52</ele>
        <time>2017-01-04T15:15:52Z</time>
      </trkpt>
      <trkpt lat="48.09941" lon="7.60399">
        <ele>188.08</ele>
        <time>2017-01-04T15:16:02Z</time>
      </trkpt>
      <trkpt lat="48.09945" lon="7.60417">
        <ele>189.52</ele>
        <time>2017-01-04T15:16:13Z</time>
      </trkpt>
      <trkpt lat="48.09949" lon="7.60431">
        <ele>190</ele>
        <time>2017-01-04T15:16:22Z</time>
      </trkpt>
      <trkpt lat="48.09954" lon="7.60446">
        <ele>188.08</ele>
        <time>2017-01-04T15:16:31Z</time>
      </trkpt>
      <trkpt lat="48.09958" lon="7.60463">
        <ele>189.52</ele>
        <time>2017-01-04T15:16:40Z</time>
      </trkpt>
      <trkpt lat="48.09961" lon="7.60479">
        <ele>190.48</ele>
        <time>2017-01-04T15:16:49Z</time>
      </trkpt>
      <trkpt lat="48.09965" lon="7.60493">
        <ele>191.44</ele>
        <time>2017-01-04T15:16:58Z</time>
      </trkpt>
      <trkpt lat="48.09968" lon="7.6051">
        <ele>189.04</ele>
        <time>2017-01-04T15:17:08Z</time>
      </trkpt>
      <trkpt lat="48.09974" lon="7.60522">
        <ele>189.52</ele>
        <time>2017-01-04T15:17:22Z</time>
      </trkpt>
      <trkpt lat="48.0998" lon="7.60538">
        <ele>190</ele>
        <time>2017-01-04T15:17:33Z</time>
      </trkpt>
      <trkpt lat="48.09988" lon="7.60551">
        <ele>191.44</ele>
        <time>2017-01-04T15:17:43Z</time>
      </trkpt>
      <trkpt lat="48.09998" lon="7.60563">
        <ele>190.96</ele>
        <time>2017-01-04T15:17:52Z</time>
      </trkpt>
      <trkpt lat="48.10009" lon="7.60569">
        <ele>190.96</ele>
        <time>2017-01-04T15:18:01Z</time>
      </trkpt>
      <trkpt lat="48.10018" lon="7.60577">
        <ele>192.4</ele>
        <time>2017-01-04T15:18:10Z</time>
      </trkpt>
      <trkpt lat="48.10022" lon="7.60584">
        <ele>192.88</ele>
        <time>2017-01-04T15:18:21Z</time>
      </trkpt>
      <trkpt lat="48.10021" lon="7.60596">
        <ele>193.36</ele>
        <time>2017-01-04T15:18:31Z</time>
      </trkpt>
      <trkpt lat="48.10015" lon="7.60608">
        <ele>192.4</ele>
        <time>2017-01-04T15:18:40Z</time>
      </trkpt>
      <trkpt lat="48.10011" lon="7.60622">
        <ele>192.88</ele>
        <time>2017-01-04T15:18:49Z</time>
      </trkpt>
      <trkpt lat="48.10006" lon="7.60635">
        <ele>193.36</ele>
        <time>2017-01-04T15:18:58Z</time>
      </trkpt>
      <trkpt lat="48.10011" lon="7.60647">
        <ele>192.88</ele>
        <time>2017-01-04T15:19:07Z</time>
      </trkpt>
    </trkseg>
  </trk>
</gpx>